Darstellungsparameter: Aktuell verwendete Einstellungen:
Skalierung der Graphiken ... ?
xyx+y,   Skalierungsfaktor:      Skalierung: Modus: x, Faktor: 1
Darstellungszeitraum ... ?
Vom - - bis: - -   Zeitraum: 01.06.2014 - 07.06.2014
Min/Max/Avg-Anzeige ... ?
Zeige MMA aktuell
Zeige MMA Monat
Zeige MMA alles
Zeige --A aktuell
Zeige --A Monat
Zeige --A alles
Keine MMA-Anzeige
MMA:
Average (ber die Originaldaten)
MMA-Basis: 01.06.2014 - 07.06.2014
Quicknavigation für Darstellung... ?
Tage:      1T, 2T, 3T, 5T -1T -2T -3T -5T +1T +2T +3T +5T
Wochen: 1W, 2W, 3W -1W -2W -3W +1W +2W +3W
Monate: 1M, 3M, 6M -1M -3M -6M +1M +3M +6M
Jahre:    1J, 3J, 5J, 10J -1J -3J -5J -10J +1J +3J +5J +10J
Nutze für die Darstellung ... ?
Originaldaten oder Mittelwerte auf ...
Stundenbasis Tagesbasis Wochenbasis
Monatsbasis Jahresbasis      Datenbasis: Original-Daten
Darstellen als:
Statistik (Auto) Statistik J:M      Darstellung:
Zur Graphik,    zurück zur Übersicht aller Sensoren.
 
Tabellarische Datenbersicht: ?
 
Sensor: Nr:Datum:Temp:Abs-Feuchte:Windchill:Wind:
Aussen-T/F 1 01-06-2014 00:00:00 12.6 C 8.96 g/m*3 12.6 C 0 km/h
2 01-06-2014 00:05:00 12.4 C 8.96 g/m*3 12.4 C 0 km/h
3 01-06-2014 00:10:00 12.4 C 8.96 g/m*3 12.4 C 0 km/h
4 01-06-2014 00:15:00 12.4 C 8.96 g/m*3 12.4 C 0 km/h
5 01-06-2014 00:20:00 12.4 C 9.07 g/m*3 12.4 C 0 km/h
6 01-06-2014 00:25:00 12.3 C 8.9 g/m*3 12.3 C 0 km/h
7 01-06-2014 00:30:00 12.4 C 9.07 g/m*3 12.4 C 0 km/h
8 01-06-2014 00:35:00 12.4 C 9.07 g/m*3 12.4 C 0 km/h
9 01-06-2014 00:40:00 12.4 C 9.07 g/m*3 12.4 C 0 km/h
10 01-06-2014 00:45:00 12.4 C 9.07 g/m*3 12.4 C 0 km/h
11 01-06-2014 00:50:00 12.4 C 8.96 g/m*3 12.4 C 0 km/h
12 01-06-2014 00:55:00 12.3 C 8.9 g/m*3 12.3 C 0 km/h
13 01-06-2014 01:00:00 12.3 C 8.9 g/m*3 12.3 C 3.2 km/h
14 01-06-2014 01:05:00 12.3 C 8.9 g/m*3 12.3 C 0 km/h
15 01-06-2014 01:10:00 12.2 C 8.96 g/m*3 12.2 C 0 km/h
16 01-06-2014 01:15:00 12.2 C 8.96 g/m*3 12.2 C 0 km/h
17 01-06-2014 01:20:00 12.2 C 8.96 g/m*3 12.2 C 0 km/h
18 01-06-2014 01:25:00 12.3 C 9.01 g/m*3 12.3 C 0 km/h
19 01-06-2014 01:30:00 12.3 C 9.01 g/m*3 12.3 C 0 km/h
20 01-06-2014 01:35:00 12.3 C 9.01 g/m*3 12.3 C 0 km/h
21 01-06-2014 01:40:00 12.2 C 8.96 g/m*3 12.2 C 0 km/h
22 01-06-2014 01:45:00 12.1 C 9.01 g/m*3 12.1 C 0 km/h
23 01-06-2014 01:50:00 12.1 C 9.01 g/m*3 12.1 C 0 km/h
24 01-06-2014 01:55:00 12 C 8.85 g/m*3 12 C 0 km/h
25 01-06-2014 02:00:00 11.9 C 8.9 g/m*3 11.9 C 1.6 km/h
Sensor: Nr:Datum:Temp:Abs-Feuchte:Windchill:Wind:
Aussen-T/F 26 01-06-2014 02:05:00 11.8 C 8.84 g/m*3 11.8 C 0 km/h
27 01-06-2014 02:10:00 11.8 C 8.84 g/m*3 11.8 C 0 km/h
28 01-06-2014 02:15:00 11.7 C 8.79 g/m*3 11.7 C 0 km/h
29 01-06-2014 02:20:00 11.6 C 8.83 g/m*3 11.6 C 0 km/h
30 01-06-2014 02:25:00 11.5 C 8.78 g/m*3 11.5 C 0 km/h
31 01-06-2014 02:30:00 11.4 C 8.72 g/m*3 11.4 C 0 km/h
32 01-06-2014 02:35:00 11.3 C 8.67 g/m*3 11.3 C 0 km/h
33 01-06-2014 02:40:00 11.3 C 8.67 g/m*3 11.3 C 0 km/h
34 01-06-2014 02:45:00 11.2 C 8.62 g/m*3 11.2 C 0 km/h
35 01-06-2014 02:50:00 11.1 C 8.56 g/m*3 11.1 C 0 km/h
36 01-06-2014 02:55:00 11 C 8.51 g/m*3 11 C 0 km/h
37 01-06-2014 03:00:00 10.9 C 8.45 g/m*3 10.9 C 0 km/h
38 01-06-2014 03:05:00 10.8 C 8.5 g/m*3 10.8 C 0 km/h
39 01-06-2014 03:10:00 10.6 C 8.49 g/m*3 10.6 C 0 km/h
40 01-06-2014 03:15:00 10.5 C 8.34 g/m*3 10.5 C 0 km/h
41 01-06-2014 03:20:00 10.4 C 8.38 g/m*3 10.4 C 0 km/h
42 01-06-2014 03:25:00 10.3 C 8.33 g/m*3 10.3 C 0 km/h
43 01-06-2014 03:30:00 10.3 C 8.43 g/m*3 10.3 C 0 km/h
44 01-06-2014 03:35:00 10.3 C 8.43 g/m*3 10.3 C 0 km/h
45 01-06-2014 03:40:00 10.3 C 8.43 g/m*3 10.3 C 1.6 km/h
46 01-06-2014 03:45:00 10.4 C 8.48 g/m*3 10.4 C 1.6 km/h
47 01-06-2014 03:50:00 10.4 C 8.48 g/m*3 10.4 C 0 km/h
48 01-06-2014 03:55:00 10.4 C 8.48 g/m*3 10.4 C 0 km/h
49 01-06-2014 04:00:00 10.4 C 8.48 g/m*3 10.4 C 0 km/h
50 01-06-2014 04:05:00 10.3 C 8.43 g/m*3 10.3 C 0 km/h
Sensor: Nr:Datum:Temp:Abs-Feuchte:Windchill:Wind:
Aussen-T/F 51 01-06-2014 04:10:00 10.3 C 8.52 g/m*3 10.3 C 0 km/h
52 01-06-2014 04:15:00 10.2 C 8.47 g/m*3 10.2 C 0 km/h
53 01-06-2014 04:20:00 10.2 C 8.47 g/m*3 10.2 C 0 km/h
54 01-06-2014 04:25:00 10.2 C 8.47 g/m*3 10.2 C 0 km/h
55 01-06-2014 04:30:00 10.2 C 8.47 g/m*3 10.2 C 0 km/h
56 01-06-2014 04:35:00 10.2 C 8.56 g/m*3 10.2 C 0 km/h
57 01-06-2014 04:40:00 10.2 C 8.56 g/m*3 10.2 C 0 km/h
58 01-06-2014 04:45:00 10.2 C 8.56 g/m*3 10.2 C 0 km/h
59 01-06-2014 04:50:00 10.2 C 8.56 g/m*3 10.2 C 0 km/h
60 01-06-2014 04:55:00 10.3 C 8.62 g/m*3 10.3 C 0 km/h
61 01-06-2014 05:00:00 10.3 C 8.62 g/m*3 10.3 C 0 km/h
62 01-06-2014 05:05:00 10.3 C 8.62 g/m*3 10.3 C 0 km/h
63 01-06-2014 05:10:00 10.3 C 8.62 g/m*3 10.3 C 0 km/h
64 01-06-2014 05:15:00 10.2 C 8.56 g/m*3 10.2 C 0 km/h
65 01-06-2014 05:20:00 10.2 C 8.56 g/m*3 10.2 C 0 km/h
66 01-06-2014 05:25:00 10.3 C 8.71 g/m*3 10.3 C 0 km/h
67 01-06-2014 05:30:00 10.3 C 8.71 g/m*3 10.3 C 0 km/h
68 01-06-2014 05:35:00 10.3 C 8.71 g/m*3 10.3 C 0 km/h
69 01-06-2014 05:40:00 10.6 C 8.78 g/m*3 10.6 C 1.6 km/h
70 01-06-2014 05:45:00 10.7 C 8.84 g/m*3 10.7 C 1.6 km/h
71 01-06-2014 05:50:00 10.8 C 8.8 g/m*3 10.8 C 0 km/h
72 01-06-2014 05:55:00 10.9 C 8.85 g/m*3 10.9 C 0 km/h
73 01-06-2014 06:00:00 11.1 C 8.96 g/m*3 11.1 C 1.6 km/h
74 01-06-2014 06:05:00 11.2 C 8.92 g/m*3 11.2 C 1.6 km/h
75 01-06-2014 06:10:00 11.2 C 8.92 g/m*3 11.2 C 0 km/h
Sensor: Nr:Datum:Temp:Abs-Feuchte:Windchill:Wind:
Aussen-T/F 76 01-06-2014 06:15:00 11.3 C 8.98 g/m*3 11.3 C 1.6 km/h
77 01-06-2014 06:20:00 11.4 C 8.83 g/m*3 11.4 C 6.4 km/h
78 01-06-2014 06:25:00 11.4 C 8.83 g/m*3 11.4 C 0 km/h
79 01-06-2014 06:30:00 11.6 C 8.94 g/m*3 11.6 C 3.2 km/h
80 01-06-2014 06:35:00 11.6 C 8.73 g/m*3 11.6 C 0 km/h
81 01-06-2014 06:40:00 11.7 C 8.79 g/m*3 11.7 C 3.2 km/h
82 01-06-2014 06:45:00 11.8 C 8.84 g/m*3 11.8 C 1.6 km/h
83 01-06-2014 06:50:00 11.8 C 8.74 g/m*3 11.8 C 0 km/h
84 01-06-2014 06:55:00 11.8 C 8.84 g/m*3 11.8 C 3.2 km/h
85 01-06-2014 07:00:00 11.8 C 8.84 g/m*3 11.8 C 4.8 km/h
86 01-06-2014 07:05:00 11.8 C 8.74 g/m*3 11.8 C 1.6 km/h
87 01-06-2014 07:10:00 11.9 C 8.9 g/m*3 11.9 C 0 km/h
88 01-06-2014 07:15:00 11.9 C 8.9 g/m*3 11.9 C 0 km/h
89 01-06-2014 07:20:00 12 C 8.85 g/m*3 12 C 0 km/h
90 01-06-2014 07:25:00 12.1 C 8.9 g/m*3 12.1 C 0 km/h
91 01-06-2014 07:30:00 12.2 C 9.06 g/m*3 12.2 C 0 km/h
92 01-06-2014 07:35:00 12.3 C 9.12 g/m*3 12.3 C 6.4 km/h
93 01-06-2014 07:40:00 12.3 C 9.01 g/m*3 12.3 C 1.6 km/h
94 01-06-2014 07:45:00 12.4 C 8.96 g/m*3 12.4 C 1.6 km/h
95 01-06-2014 07:50:00 12.4 C 8.96 g/m*3 12.4 C 0 km/h
96 01-06-2014 07:55:00 12.4 C 8.96 g/m*3 12.4 C 1.6 km/h
97 01-06-2014 08:00:00 12.4 C 8.85 g/m*3 12.4 C 1.6 km/h
98 01-06-2014 08:05:00 12.6 C 9.07 g/m*3 12.6 C 0 km/h
99 01-06-2014 08:10:00 12.8 C 9.18 g/m*3 12.8 C 3.2 km/h
100 01-06-2014 08:15:00 12.9 C 9.13 g/m*3 12.9 C 3.2 km/h
Sensor: Nr:Datum:Temp:Abs-Feuchte:Windchill:Wind:
Aussen-T/F 101 01-06-2014 08:20:00 12.9 C 9.02 g/m*3 12.9 C 3.2 km/h
102 01-06-2014 08:25:00 13 C 9.3 g/m*3 13 C 0 km/h
103 01-06-2014 08:30:00 13.1 C 9.24 g/m*3 13.1 C 3.2 km/h
104 01-06-2014 08:35:00 13.2 C 9.19 g/m*3 13.2 C 0 km/h
105 01-06-2014 08:40:00 13.2 C 9.19 g/m*3 13.2 C 0 km/h
106 01-06-2014 08:45:00 13.2 C 9.19 g/m*3 13.2 C 1.6 km/h
107 01-06-2014 08:50:00 13.3 C 9.36 g/m*3 13.3 C 0 km/h
108 01-06-2014 08:55:00 13.5 C 9.47 g/m*3 13.5 C 1.6 km/h
109 01-06-2014 09:00:00 13.7 C 9.47 g/m*3 13.7 C 3.2 km/h
110 01-06-2014 09:05:00 13.7 C 9.47 g/m*3 13.7 C 3.2 km/h
111 01-06-2014 09:10:00 13.7 C 9.47 g/m*3 13.7 C 1.6 km/h
112 01-06-2014 09:15:00 13.7 C 9.47 g/m*3 13.7 C 3.2 km/h
113 01-06-2014 09:20:00 13.7 C 9.47 g/m*3 13.7 C 1.6 km/h
114 01-06-2014 09:25:00 14.1 C 9.59 g/m*3 14.1 C 3.2 km/h
115 01-06-2014 09:30:00 14.1 C 9.47 g/m*3 14.1 C 3.2 km/h
116 01-06-2014 09:35:00 14 C 9.29 g/m*3 14 C 3.2 km/h
117 01-06-2014 09:40:00 14.1 C 9.47 g/m*3 14.1 C 1.6 km/h
118 01-06-2014 09:45:00 14.2 C 9.65 g/m*3 14.2 C 3.2 km/h
119 01-06-2014 09:50:00 14.4 C 9.77 g/m*3 14.4 C 1.6 km/h
120 01-06-2014 09:55:00 14.7 C 9.57 g/m*3 14.7 C 3.2 km/h
121 01-06-2014 10:00:00 15.1 C 9.8 g/m*3 15.1 C 3.2 km/h
122 01-06-2014 10:05:00 15.5 C 9.78 g/m*3 15.5 C 3.2 km/h
123 01-06-2014 10:10:00 15.9 C 9.62 g/m*3 15.9 C 4.8 km/h
124 01-06-2014 10:15:00 16.1 C 9.6 g/m*3 16.1 C 4.8 km/h
125 01-06-2014 10:20:00 16.3 C 9.85 g/m*3 16.3 C 1.6 km/h
Sensor: Nr:Datum:Temp:Abs-Feuchte:Windchill:Wind:
Aussen-T/F 126 01-06-2014 10:25:00 16.4 C 9.63 g/m*3 16.4 C 3.2 km/h
127 01-06-2014 10:30:00 16.5 C 9.55 g/m*3 16.5 C 4.8 km/h
128 01-06-2014 10:35:00 16.5 C 9.69 g/m*3 16.5 C 4.8 km/h
129 01-06-2014 10:40:00 16.7 C 9.52 g/m*3 16.7 C 4.8 km/h
130 01-06-2014 10:45:00 16.9 C 9.78 g/m*3 16.9 C 8.1 km/h
131 01-06-2014 10:50:00 17.1 C 9.61 g/m*3 17.1 C 4.8 km/h
132 01-06-2014 10:55:00 17.3 C 9.87 g/m*3 17.3 C 6.4 km/h
133 01-06-2014 11:00:00 17.4 C 9.19 g/m*3 17.4 C 9.7 km/h
134 01-06-2014 11:05:00 17.6 C 9.6 g/m*3 17.6 C 9.7 km/h
135 01-06-2014 11:10:00 17.8 C 9.71 g/m*3 17.8 C 6.4 km/h
136 01-06-2014 11:15:00 18.1 C 9.58 g/m*3 18.1 C 4.8 km/h
137 01-06-2014 11:20:00 18.2 C 9.33 g/m*3 18.2 C 9.7 km/h
138 01-06-2014 11:25:00 18.3 C 9.07 g/m*3 18.3 C 8.1 km/h
139 01-06-2014 11:30:00 18.3 C 9.85 g/m*3 18.3 C 8.1 km/h
140 01-06-2014 11:35:00 18.4 C 9.44 g/m*3 18.4 C 9.7 km/h
141 01-06-2014 11:40:00 18.4 C 9.91 g/m*3 18.4 C 4.8 km/h
142 01-06-2014 11:45:00 18.6 C 9.71 g/m*3 18.6 C 4.8 km/h
143 01-06-2014 11:50:00 18.8 C 9.34 g/m*3 18.8 C 8.1 km/h
144 01-06-2014 11:55:00 19.1 C 9.84 g/m*3 19.1 C 4.8 km/h
145 01-06-2014 12:00:00 19.2 C 9.56 g/m*3 19.2 C 9.7 km/h
146 01-06-2014 12:05:00 19.2 C 9.73 g/m*3 19.2 C 8.1 km/h
147 01-06-2014 12:10:00 19.4 C 9.84 g/m*3 19.4 C 11.3 km/h
148 01-06-2014 12:15:00 19.6 C 9.62 g/m*3 19.6 C 6.4 km/h
149 01-06-2014 12:20:00 19.7 C 10.19 g/m*3 19.7 C 6.4 km/h
150 01-06-2014 12:25:00 19.9 C 8.93 g/m*3 19.9 C 9.7 km/h
Sensor: Nr:Datum:Temp:Abs-Feuchte:Windchill:Wind:
Aussen-T/F 151 01-06-2014 12:30:00 19.7 C 9.51 g/m*3 19.7 C 8.1 km/h
152 01-06-2014 12:35:00 20 C 9.51 g/m*3 20 C 4.8 km/h
153 01-06-2014 12:40:00 20.3 C 9.5 g/m*3 20.3 C 11.3 km/h
154 01-06-2014 12:45:00 20.3 C 9.15 g/m*3 20.3 C 8.1 km/h
155 01-06-2014 12:50:00 20.4 C 9.73 g/m*3 20.4 C 11.3 km/h
156 01-06-2014 12:55:00 20.7 C 9.18 g/m*3 20.7 C 4.8 km/h
157 01-06-2014 13:00:00 20.6 C 9.13 g/m*3 20.6 C 11.3 km/h
158 01-06-2014 13:05:00 20.4 C 9.2 g/m*3 20.4 C 9.7 km/h
159 01-06-2014 13:10:00 20.5 C 9.43 g/m*3 20.5 C 6.4 km/h
160 01-06-2014 13:15:00 20.6 C 9.13 g/m*3 20.6 C 8.1 km/h
161 01-06-2014 13:20:00 20.7 C 9.36 g/m*3 20.7 C 8.1 km/h
162 01-06-2014 13:25:00 20.6 C 9.84 g/m*3 20.6 C 8.1 km/h
163 01-06-2014 13:30:00 20.8 C 8.87 g/m*3 20.8 C 8.1 km/h
164 01-06-2014 13:35:00 21.1 C 10.32 g/m*3 21.1 C 8.1 km/h
165 01-06-2014 13:40:00 21.1 C 9.21 g/m*3 21.1 C 3.2 km/h
166 01-06-2014 13:45:00 21.1 C 9.03 g/m*3 21.1 C 14.5 km/h
167 01-06-2014 13:50:00 20.9 C 9.29 g/m*3 20.9 C 8.1 km/h
168 01-06-2014 13:55:00 20.7 C 9.36 g/m*3 20.7 C 9.7 km/h
169 01-06-2014 14:00:00 20.4 C 9.02 g/m*3 20.4 C 11.3 km/h
170 01-06-2014 14:05:00 20.1 C 8.87 g/m*3 20.1 C 8.1 km/h
171 01-06-2014 14:10:00 19.8 C 8.71 g/m*3 19.8 C 8.1 km/h
172 01-06-2014 14:15:00 19.8 C 8.71 g/m*3 19.8 C 11.3 km/h
173 01-06-2014 14:55:00 21.7 C 8.58 g/m*3 21.7 C 12.9 km/h
174 01-06-2014 15:00:00 21.7 C 8.58 g/m*3 21.7 C 12.9 km/h
175 01-06-2014 15:05:00 21.7 C 8.58 g/m*3 21.7 C 14.5 km/h
Sensor: Nr:Datum:Temp:Abs-Feuchte:Windchill:Wind:
Aussen-T/F 176 01-06-2014 15:25:00 22.1 C 8.98 g/m*3 22.1 C 8.1 km/h
177 01-06-2014 15:30:00 22.2 C 9.23 g/m*3 22.2 C 12.9 km/h
178 01-06-2014 15:35:00 22.3 C 9.28 g/m*3 22.3 C 9.7 km/h
179 01-06-2014 15:40:00 22.4 C 8.94 g/m*3 22.4 C 12.9 km/h
180 01-06-2014 15:45:00 22.3 C 8.69 g/m*3 22.3 C 11.3 km/h
181 01-06-2014 15:50:00 21.7 C 8.77 g/m*3 21.7 C 11.3 km/h
182 01-06-2014 15:55:00 21.2 C 8.71 g/m*3 21.2 C 11.3 km/h
183 01-06-2014 16:00:00 21 C 8.61 g/m*3 21 C 12.9 km/h
184 01-06-2014 16:05:00 21 C 8.98 g/m*3 21 C 9.7 km/h
185 01-06-2014 16:10:00 21 C 8.98 g/m*3 21 C 12.9 km/h
186 01-06-2014 16:30:00 20.9 C 8.74 g/m*3 20.9 C 12.9 km/h
187 01-06-2014 16:35:00 20.9 C 9.11 g/m*3 20.9 C 8.1 km/h
188 01-06-2014 16:40:00 21.1 C 8.84 g/m*3 21.1 C 11.3 km/h
189 01-06-2014 16:45:00 21.1 C 8.66 g/m*3 21.1 C 8.1 km/h
190 01-06-2014 16:50:00 20.9 C 8.92 g/m*3 20.9 C 11.3 km/h
191 01-06-2014 16:55:00 20.8 C 8.33 g/m*3 20.8 C 9.7 km/h
192 01-06-2014 17:00:00 20.4 C 8.49 g/m*3 20.4 C 11.3 km/h
193 01-06-2014 17:05:00 20.2 C 8.22 g/m*3 20.2 C 9.7 km/h
194 01-06-2014 17:10:00 20 C 8.47 g/m*3 20 C 11.3 km/h
195 01-06-2014 17:15:00 19.9 C 8.76 g/m*3 19.9 C 8.1 km/h
196 01-06-2014 17:20:00 19.9 C 8.59 g/m*3 19.9 C 8.1 km/h
197 01-06-2014 17:25:00 20 C 8.64 g/m*3 20 C 8.1 km/h
198 01-06-2014 17:30:00 20.4 C 8.85 g/m*3 20.4 C 6.4 km/h
199 01-06-2014 17:35:00 20.5 C 8.72 g/m*3 20.5 C 11.3 km/h
200 01-06-2014 17:40:00 20.6 C 8.41 g/m*3 20.6 C 11.3 km/h
Sensor: Nr:Datum:Temp:Abs-Feuchte:Windchill:Wind:
Aussen-T/F 201 01-06-2014 17:45:00 20.6 C 8.59 g/m*3 20.6 C 9.7 km/h
202 01-06-2014 17:50:00 20.3 C 8.27 g/m*3 20.3 C 14.5 km/h
203 01-06-2014 17:55:00 20.1 C 8 g/m*3 20.1 C 12.9 km/h
204 01-06-2014 18:00:00 19.9 C 8.25 g/m*3 19.9 C 6.4 km/h
205 01-06-2014 18:05:00 19.6 C 8.1 g/m*3 19.6 C 11.3 km/h
206 01-06-2014 18:10:00 19.6 C 8.44 g/m*3 19.6 C 6.4 km/h
207 01-06-2014 18:15:00 19.4 C 8.18 g/m*3 19.4 C 8.1 km/h
208 01-06-2014 18:20:00 19.3 C 8.13 g/m*3 19.3 C 9.7 km/h
209 01-06-2014 18:25:00 19.4 C 8.51 g/m*3 19.4 C 8.1 km/h
210 01-06-2014 18:30:00 19.4 C 8.01 g/m*3 19.4 C 8.1 km/h
211 01-06-2014 18:35:00 19.4 C 7.84 g/m*3 19.4 C 9.7 km/h
212 01-06-2014 18:40:00 19.4 C 8.01 g/m*3 19.4 C 8.1 km/h
213 01-06-2014 18:45:00 19.3 C 8.13 g/m*3 19.3 C 9.7 km/h
214 01-06-2014 18:50:00 19.2 C 8.08 g/m*3 19.2 C 9.7 km/h
215 01-06-2014 18:55:00 19.2 C 8.08 g/m*3 19.2 C 6.4 km/h
216 01-06-2014 19:00:00 19.3 C 8.13 g/m*3 19.3 C 6.4 km/h
217 01-06-2014 19:05:00 19.4 C 8.01 g/m*3 19.4 C 9.7 km/h
218 01-06-2014 19:10:00 19.3 C 7.96 g/m*3 19.3 C 6.4 km/h
219 01-06-2014 19:15:00 19.1 C 7.7 g/m*3 19.1 C 4.8 km/h
220 01-06-2014 19:20:00 19 C 8.15 g/m*3 19 C 4.8 km/h
221 01-06-2014 19:25:00 19 C 8.31 g/m*3 19 C 8.1 km/h
222 01-06-2014 19:30:00 19.1 C 8.2 g/m*3 19.1 C 6.4 km/h
223 01-06-2014 19:35:00 19.1 C 8.2 g/m*3 19.1 C 8.1 km/h
224 01-06-2014 19:40:00 19.2 C 8.24 g/m*3 19.2 C 8.1 km/h
225 01-06-2014 19:45:00 19 C 8.15 g/m*3 19 C 8.1 km/h
Sensor: Nr:Datum:Temp:Abs-Feuchte:Windchill:Wind:
Aussen-T/F 226 01-06-2014 19:50:00 18.9 C 8.1 g/m*3 18.9 C 6.4 km/h
227 01-06-2014 19:55:00 18.8 C 8.21 g/m*3 18.8 C 4.8 km/h
228 01-06-2014 20:00:00 18.7 C 8.01 g/m*3 18.7 C 4.8 km/h
229 01-06-2014 20:05:00 18.6 C 8.12 g/m*3 18.6 C 6.4 km/h
230 01-06-2014 20:10:00 18.5 C 8.07 g/m*3 18.5 C 1.6 km/h
231 01-06-2014 20:15:00 18.3 C 7.97 g/m*3 18.3 C 3.2 km/h
232 01-06-2014 20:20:00 18.2 C 7.93 g/m*3 18.2 C 4.8 km/h
233 01-06-2014 20:25:00 18.1 C 8.03 g/m*3 18.1 C 3.2 km/h
234 01-06-2014 20:30:00 18 C 8.45 g/m*3 18 C 0 km/h
235 01-06-2014 20:35:00 17.8 C 9.26 g/m*3 17.8 C 0 km/h
236 01-06-2014 20:40:00 17.4 C 9.34 g/m*3 17.4 C 0 km/h
237 01-06-2014 20:45:00 17 C 9.12 g/m*3 17 C 0 km/h
238 01-06-2014 20:50:00 16.7 C 9.24 g/m*3 16.7 C 0 km/h
239 01-06-2014 20:55:00 16.4 C 8.93 g/m*3 16.4 C 0 km/h
240 01-06-2014 21:00:00 16.3 C 9.02 g/m*3 16.3 C 0 km/h
241 01-06-2014 21:05:00 16.2 C 9.38 g/m*3 16.2 C 0 km/h
242 01-06-2014 21:10:00 16 C 9.4 g/m*3 16 C 0 km/h
243 01-06-2014 21:15:00 15.9 C 9.62 g/m*3 15.9 C 0 km/h
244 01-06-2014 21:20:00 15.8 C 9.83 g/m*3 15.8 C 0 km/h
245 01-06-2014 21:25:00 15.7 C 9.63 g/m*3 15.7 C 0 km/h
246 01-06-2014 21:30:00 15.6 C 9.58 g/m*3 15.6 C 0 km/h
247 01-06-2014 21:35:00 15.5 C 9.39 g/m*3 15.5 C 0 km/h
248 01-06-2014 21:40:00 15.4 C 9.2 g/m*3 15.4 C 0 km/h
249 01-06-2014 21:45:00 15.3 C 9.4 g/m*3 15.3 C 0 km/h
250 01-06-2014 21:50:00 15.3 C 9.53 g/m*3 15.3 C 0 km/h
Sensor: Nr:Datum:Temp:Abs-Feuchte:Windchill:Wind:
Aussen-T/F 251 01-06-2014 21:55:00 15.3 C 9.53 g/m*3 15.3 C 1.6 km/h
252 01-06-2014 22:00:00 15.3 C 9.4 g/m*3 15.3 C 1.6 km/h
253 01-06-2014 22:05:00 15.6 C 9.31 g/m*3 15.6 C 1.6 km/h
254 01-06-2014 22:10:00 15.6 C 9.44 g/m*3 15.6 C 1.6 km/h
255 01-06-2014 22:15:00 15.4 C 9.33 g/m*3 15.4 C 0 km/h
256 01-06-2014 22:20:00 15.2 C 9.35 g/m*3 15.2 C 0 km/h
257 01-06-2014 22:25:00 15.1 C 9.42 g/m*3 15.1 C 0 km/h
258 01-06-2014 22:30:00 14.9 C 9.3 g/m*3 14.9 C 0 km/h
259 01-06-2014 22:35:00 14.8 C 9.37 g/m*3 14.8 C 0 km/h
260 01-06-2014 22:40:00 14.7 C 9.44 g/m*3 14.7 C 0 km/h
261 01-06-2014 22:45:00 14.6 C 9.26 g/m*3 14.6 C 0 km/h
262 01-06-2014 22:50:00 14.6 C 9.26 g/m*3 14.6 C 0 km/h
263 01-06-2014 22:55:00 14.6 C 9.26 g/m*3 14.6 C 0 km/h
264 01-06-2014 23:00:00 14.5 C 9.2 g/m*3 14.5 C 0 km/h
265 01-06-2014 23:05:00 14.4 C 9.27 g/m*3 14.4 C 0 km/h
266 01-06-2014 23:10:00 14.3 C 9.09 g/m*3 14.3 C 0 km/h
267 01-06-2014 23:15:00 14.2 C 8.91 g/m*3 14.2 C 0 km/h
268 01-06-2014 23:20:00 14 C 8.68 g/m*3 14 C 0 km/h
269 01-06-2014 23:25:00 13.9 C 8.75 g/m*3 13.9 C 0 km/h
270 01-06-2014 23:30:00 13.8 C 8.94 g/m*3 13.8 C 0 km/h
271 01-06-2014 23:35:00 13.8 C 9.06 g/m*3 13.8 C 1.6 km/h
272 01-06-2014 23:40:00 13.7 C 9 g/m*3 13.7 C 1.6 km/h
273 01-06-2014 23:45:00 13.7 C 9.24 g/m*3 13.7 C 1.6 km/h
274 01-06-2014 23:50:00 13.7 C 9 g/m*3 13.7 C 0 km/h
275 01-06-2014 23:55:00 13.8 C 9.06 g/m*3 13.8 C 0 km/h
Sensor: Nr:Datum:Temp:Abs-Feuchte:Windchill:Wind:
Aussen-T/F 276 02-06-2014 00:00:00 13.7 C 9.24 g/m*3 13.7 C 0 km/h
277 02-06-2014 00:05:00 13.7 C 9.24 g/m*3 13.7 C 0 km/h
278 02-06-2014 00:10:00 13.6 C 8.94 g/m*3 13.6 C 0 km/h
279 02-06-2014 00:15:00 13.6 C 9.06 g/m*3 13.6 C 0 km/h
280 02-06-2014 00:20:00 13.5 C 9.01 g/m*3 13.5 C 0 km/h
281 02-06-2014 00:25:00 13.5 C 9.01 g/m*3 13.5 C 0 km/h
282 02-06-2014 00:30:00 13.4 C 8.83 g/m*3 13.4 C 0 km/h
283 02-06-2014 00:35:00 13.4 C 8.95 g/m*3 13.4 C 0 km/h
284 02-06-2014 00:40:00 13.3 C 8.9 g/m*3 13.3 C 0 km/h
285 02-06-2014 00:45:00 13.3 C 9.01 g/m*3 13.3 C 0 km/h
286 02-06-2014 00:50:00 13.2 C 8.84 g/m*3 13.2 C 0 km/h
287 02-06-2014 00:55:00 13.2 C 9.07 g/m*3 13.2 C 0 km/h
288 02-06-2014 01:00:00 13.1 C 8.9 g/m*3 13.1 C 0 km/h
289 02-06-2014 01:05:00 13.1 C 8.9 g/m*3 13.1 C 0 km/h
290 02-06-2014 01:10:00 13.1 C 9.01 g/m*3 13.1 C 0 km/h
291 02-06-2014 01:15:00 13.1 C 8.56 g/m*3 13.1 C 0 km/h
292 02-06-2014 01:20:00 13.2 C 8.73 g/m*3 13.2 C 1.6 km/h
293 02-06-2014 01:25:00 13.2 C 8.73 g/m*3 13.2 C 1.6 km/h
294 02-06-2014 01:30:00 13.3 C 9.01 g/m*3 13.3 C 0 km/h
295 02-06-2014 01:35:00 13.2 C 8.84 g/m*3 13.2 C 0 km/h
296 02-06-2014 01:40:00 13.1 C 8.79 g/m*3 13.1 C 0 km/h
297 02-06-2014 01:45:00 12.9 C 8.9 g/m*3 12.9 C 0 km/h
298 02-06-2014 01:50:00 12.7 C 8.68 g/m*3 12.7 C 0 km/h
299 02-06-2014 01:55:00 12.3 C 8.47 g/m*3 12.3 C 0 km/h
300 02-06-2014 02:00:00 12.2 C 8.52 g/m*3 12.2 C 1.6 km/h
Sensor: Nr:Datum:Temp:Abs-Feuchte:Windchill:Wind:
Aussen-T/F 301 02-06-2014 02:05:00 12.1 C 8.47 g/m*3 12.1 C 0 km/h
302 02-06-2014 02:10:00 12 C 8.42 g/m*3 12 C 0 km/h
303 02-06-2014 02:15:00 11.9 C 8.37 g/m*3 11.9 C 0 km/h
304 02-06-2014 02:20:00 11.8 C 8.42 g/m*3 11.8 C 0 km/h
305 02-06-2014 02:25:00 11.7 C 8.47 g/m*3 11.7 C 0 km/h
306 02-06-2014 02:30:00 11.6 C 8.42 g/m*3 11.6 C 0 km/h
307 02-06-2014 02:35:00 11.4 C 8.31 g/m*3 11.4 C 0 km/h
308 02-06-2014 02:40:00 11.3 C 8.36 g/m*3 11.3 C 0 km/h
309 02-06-2014 02:45:00 11.2 C 8.21 g/m*3 11.2 C 0 km/h
310 02-06-2014 02:50:00 11.1 C 8.26 g/m*3 11.1 C 0 km/h
311 02-06-2014 02:55:00 10.9 C 8.26 g/m*3 10.9 C 0 km/h
312 02-06-2014 03:00:00 10.8 C 8.2 g/m*3 10.8 C 0 km/h
313 02-06-2014 03:05:00 10.7 C 8.25 g/m*3 10.7 C 0 km/h
314 02-06-2014 03:10:00 10.6 C 8.2 g/m*3 10.6 C 0 km/h
315 02-06-2014 03:15:00 10.5 C 8.15 g/m*3 10.5 C 0 km/h
316 02-06-2014 03:20:00 10.4 C 8.19 g/m*3 10.4 C 0 km/h
317 02-06-2014 03:25:00 10.3 C 8.14 g/m*3 10.3 C 0 km/h
318 02-06-2014 03:30:00 10.2 C 8.18 g/m*3 10.2 C 0 km/h
319 02-06-2014 03:35:00 10.1 C 8.13 g/m*3 10.1 C 0 km/h
320 02-06-2014 03:40:00 10.1 C 8.13 g/m*3 10.1 C 0 km/h
321 02-06-2014 03:45:00 10 C 8.08 g/m*3 10 C 0 km/h
322 02-06-2014 03:50:00 9.9 C 8.12 g/m*3 9.9 C 0 km/h
323 02-06-2014 03:55:00 9.8 C 8.07 g/m*3 9.8 C 0 km/h
324 02-06-2014 04:00:00 9.7 C 8.02 g/m*3 9.7 C 0 km/h
325 02-06-2014 04:05:00 9.7 C 8.02 g/m*3 9.7 C 0 km/h
Sensor: Nr:Datum:Temp:Abs-Feuchte:Windchill:Wind:
Aussen-T/F 326 02-06-2014 04:10:00 9.6 C 8.06 g/m*3 9.6 C 0 km/h
327 02-06-2014 04:15:00 9.5 C 8.01 g/m*3 9.5 C 0 km/h
328 02-06-2014 04:20:00 9.4 C 8.05 g/m*3 9.4 C 0 km/h
329 02-06-2014 04:25:00 9.4 C 8.05 g/m*3 9.4 C 0 km/h
330 02-06-2014 04:30:00 9.3 C 8 g/m*3 9.3 C 0 km/h
331 02-06-2014 04:35:00 9.3 C 8 g/m*3 9.3 C 0 km/h
332 02-06-2014 04:40:00 9.2 C 8.04 g/m*3 9.2 C 0 km/h
333 02-06-2014 04:45:00 9.2 C 8.04 g/m*3 9.2 C 0 km/h
334 02-06-2014 04:50:00 9.1 C 7.9 g/m*3 9.1 C 0 km/h
335 02-06-2014 04:55:00 9.1 C 7.99 g/m*3 9.1 C 0 km/h
336 02-06-2014 05:00:00 9.1 C 7.99 g/m*3 9.1 C 0 km/h
337 02-06-2014 05:05:00 8.9 C 7.88 g/m*3 8.9 C 0 km/h
338 02-06-2014 05:10:00 8.9 C 7.88 g/m*3 8.9 C 0 km/h
339 02-06-2014 05:15:00 8.8 C 7.92 g/m*3 8.8 C 0 km/h
340 02-06-2014 05:20:00 8.8 C 7.92 g/m*3 8.8 C 0 km/h
341 02-06-2014 05:25:00 8.8 C 7.92 g/m*3 8.8 C 0 km/h
342 02-06-2014 05:30:00 8.7 C 7.87 g/m*3 8.7 C 0 km/h
343 02-06-2014 05:35:00 8.7 C 7.96 g/m*3 8.7 C 0 km/h
344 02-06-2014 05:40:00 8.7 C 7.96 g/m*3 8.7 C 0 km/h
345 02-06-2014 05:45:00 8.7 C 7.96 g/m*3 8.7 C 0 km/h
346 02-06-2014 05:50:00 8.7 C 7.96 g/m*3 8.7 C 0 km/h
347 02-06-2014 05:55:00 8.7 C 7.96 g/m*3 8.7 C 0 km/h
348 02-06-2014 06:00:00 8.7 C 7.96 g/m*3 8.7 C 0 km/h
349 02-06-2014 06:05:00 8.7 C 7.96 g/m*3 8.7 C 0 km/h
350 02-06-2014 06:10:00 8.7 C 7.96 g/m*3 8.7 C 0 km/h
Sensor: Nr:Datum:Temp:Abs-Feuchte:Windchill:Wind:
Aussen-T/F 351 02-06-2014 06:15:00 8.7 C 7.96 g/m*3 8.7 C 0 km/h
352 02-06-2014 06:20:00 8.7 C 7.96 g/m*3 8.7 C 1.6 km/h
353 02-06-2014 06:25:00 8.8 C 8.01 g/m*3 8.8 C 0 km/h
354 02-06-2014 06:30:00 8.8 C 8.09 g/m*3 8.8 C 0 km/h
355 02-06-2014 06:35:00 8.8 C 8.09 g/m*3 8.8 C 0 km/h
356 02-06-2014 06:40:00 8.8 C 8.09 g/m*3 8.8 C 0 km/h
357 02-06-2014 06:45:00 8.9 C 8.15 g/m*3 8.9 C 1.6 km/h
358 02-06-2014 06:50:00 8.9 C 8.15 g/m*3 8.9 C 0 km/h
359 02-06-2014 06:55:00 9 C 8.11 g/m*3 9 C 0 km/h
360 02-06-2014 07:00:00 9.1 C 8.16 g/m*3 9.1 C 0 km/h
361 02-06-2014 07:05:00 9.2 C 8.3 g/m*3 9.2 C 3.2 km/h
362 02-06-2014 07:10:00 9.4 C 8.32 g/m*3 8.68 C 6.4 km/h
363 02-06-2014 07:15:00 9.5 C 8.28 g/m*3 9.5 C 4.8 km/h
364 02-06-2014 07:20:00 9.6 C 8.34 g/m*3 9.6 C 1.6 km/h
365 02-06-2014 07:25:00 9.7 C 8.3 g/m*3 9.7 C 3.2 km/h
366 02-06-2014 07:30:00 9.8 C 8.35 g/m*3 9.8 C 4.8 km/h
367 02-06-2014 07:35:00 9.8 C 8.26 g/m*3 9.8 C 0 km/h
368 02-06-2014 07:40:00 9.9 C 8.31 g/m*3 9.9 C 0 km/h
369 02-06-2014 07:45:00 9.9 C 8.4 g/m*3 9.9 C 3.2 km/h
370 02-06-2014 07:50:00 10.2 C 8.56 g/m*3 10.2 C 0 km/h
371 02-06-2014 07:55:00 10.4 C 8.67 g/m*3 10.4 C 0 km/h
372 02-06-2014 08:00:00 10.7 C 8.74 g/m*3 10.7 C 0 km/h
373 02-06-2014 08:05:00 11.1 C 8.96 g/m*3 11.1 C 0 km/h
374 02-06-2014 08:10:00 11.2 C 8.92 g/m*3 11.2 C 0 km/h
375 02-06-2014 08:15:00 11.4 C 9.03 g/m*3 11.4 C 0 km/h
Sensor: Nr:Datum:Temp:Abs-Feuchte:Windchill:Wind:
Aussen-T/F 376 02-06-2014 08:20:00 11.6 C 8.94 g/m*3 11.6 C 0 km/h
377 02-06-2014 08:25:00 11.8 C 9.05 g/m*3 11.8 C 0 km/h
378 02-06-2014 08:30:00 11.9 C 9 g/m*3 11.9 C 0 km/h
379 02-06-2014 08:35:00 11.9 C 9 g/m*3 11.9 C 0 km/h
380 02-06-2014 08:40:00 11.9 C 9 g/m*3 11.9 C 0 km/h
381 02-06-2014 09:15:00 14.2 C 12.21 g/m*3 14.2 C 0 km/h
382 02-06-2014 09:20:00 14.2 C 9.65 g/m*3 14.2 C 0 km/h
383 02-06-2014 09:25:00 14.1 C 9.34 g/m*3 14.1 C 0 km/h
384 02-06-2014 09:30:00 14.1 C 9.47 g/m*3 14.1 C 0 km/h
385 02-06-2014 09:35:00 14.2 C 9.52 g/m*3 14.2 C 3.2 km/h
386 02-06-2014 09:40:00 14.5 C 9.7 g/m*3 14.5 C 3.2 km/h
387 02-06-2014 09:45:00 14.7 C 9.44 g/m*3 14.7 C 1.6 km/h
388 02-06-2014 09:50:00 14.8 C 9.5 g/m*3 14.8 C 1.6 km/h
389 02-06-2014 09:55:00 14.9 C 9.43 g/m*3 14.9 C 3.2 km/h
390 02-06-2014 10:00:00 15.2 C 9.73 g/m*3 15.2 C 4.8 km/h
391 02-06-2014 10:05:00 15.2 C 9.73 g/m*3 15.2 C 3.2 km/h
392 02-06-2014 10:10:00 15.5 C 9.52 g/m*3 15.5 C 1.6 km/h
393 02-06-2014 10:15:00 15.6 C 9.31 g/m*3 15.6 C 3.2 km/h
394 02-06-2014 10:20:00 15.7 C 9.77 g/m*3 15.7 C 3.2 km/h
395 02-06-2014 10:25:00 15.9 C 9.34 g/m*3 15.9 C 1.6 km/h
396 02-06-2014 10:30:00 16 C 9.95 g/m*3 16 C 1.6 km/h
397 02-06-2014 10:35:00 16.1 C 9.87 g/m*3 16.1 C 3.2 km/h
398 02-06-2014 10:40:00 16.1 C 9.87 g/m*3 16.1 C 3.2 km/h
399 02-06-2014 12:25:00 20.8 C 9.05 g/m*3 20.8 C 4.8 km/h
400 02-06-2014 12:30:00 20.8 C 9.05 g/m*3 20.8 C 8.1 km/h
Sensor: Nr:Datum:Temp:Abs-Feuchte:Windchill:Wind:
Aussen-T/F 401 02-06-2014 12:35:00 20.8 C 9.05 g/m*3 20.8 C 9.7 km/h
402 02-06-2014 13:25:00 20.9 C 8.92 g/m*3 20.9 C 3.2 km/h
403 02-06-2014 13:30:00 20.8 C 8.87 g/m*3 20.8 C 6.4 km/h
404 02-06-2014 13:35:00 20.8 C 8.87 g/m*3 20.8 C 6.4 km/h
405 02-06-2014 13:40:00 21.2 C 8.71 g/m*3 21.2 C 9.7 km/h
406 02-06-2014 13:45:00 21.2 C 8.71 g/m*3 21.2 C 8.1 km/h
407 02-06-2014 13:50:00 21.3 C 8.39 g/m*3 21.3 C 3.2 km/h
408 02-06-2014 13:55:00 21.3 C 9.13 g/m*3 21.3 C 9.7 km/h
409 02-06-2014 14:00:00 21.3 C 9.13 g/m*3 21.3 C 9.7 km/h
410 02-06-2014 14:05:00 21.3 C 9.13 g/m*3 21.3 C 9.7 km/h
411 02-06-2014 14:10:00 21.4 C 9.19 g/m*3 21.4 C 8.1 km/h
412 02-06-2014 14:15:00 21.4 C 9.56 g/m*3 21.4 C 3.2 km/h
413 02-06-2014 14:20:00 21.7 C 8.97 g/m*3 21.7 C 4.8 km/h
414 02-06-2014 14:25:00 21.8 C 9.59 g/m*3 21.8 C 9.7 km/h
415 02-06-2014 14:30:00 22.2 C 9.03 g/m*3 22.2 C 9.7 km/h
416 02-06-2014 14:35:00 22 C 8.73 g/m*3 22 C 6.4 km/h
417 02-06-2014 14:40:00 21.9 C 8.68 g/m*3 21.9 C 4.8 km/h
418 02-06-2014 14:45:00 22.2 C 9.03 g/m*3 22.2 C 6.4 km/h
419 02-06-2014 14:50:00 22.4 C 8.94 g/m*3 22.4 C 11.3 km/h
420 02-06-2014 14:55:00 22.6 C 8.84 g/m*3 22.6 C 4.8 km/h
421 02-06-2014 15:00:00 22.7 C 8.89 g/m*3 22.7 C 12.9 km/h
422 02-06-2014 15:05:00 22.6 C 8.64 g/m*3 22.6 C 12.9 km/h
423 02-06-2014 15:10:00 22.1 C 8.39 g/m*3 22.1 C 6.4 km/h
424 02-06-2014 15:15:00 21.9 C 8.68 g/m*3 21.9 C 6.4 km/h
425 02-06-2014 15:20:00 22.1 C 8.78 g/m*3 22.1 C 6.4 km/h
Sensor: Nr:Datum:Temp:Abs-Feuchte:Windchill:Wind:
Aussen-T/F 426 02-06-2014 15:25:00 22.3 C 8.69 g/m*3 22.3 C 6.4 km/h
427 02-06-2014 15:30:00 22.6 C 8.84 g/m*3 22.6 C 6.4 km/h
428 02-06-2014 15:35:00 22.6 C 8.84 g/m*3 22.6 C 4.8 km/h
429 02-06-2014 15:40:00 22.7 C 8.69 g/m*3 22.7 C 4.8 km/h
430 02-06-2014 15:45:00 22.8 C 9.14 g/m*3 22.8 C 4.8 km/h
431 02-06-2014 15:50:00 23.2 C 8.52 g/m*3 23.2 C 1.6 km/h
432 02-06-2014 15:55:00 23.2 C 8.11 g/m*3 23.2 C 4.8 km/h
433 02-06-2014 16:00:00 22.5 C 8.59 g/m*3 22.5 C 1.6 km/h
434 02-06-2014 16:05:00 22.1 C 8.2 g/m*3 22.1 C 4.8 km/h
435 02-06-2014 16:10:00 21.8 C 8.06 g/m*3 21.8 C 8.1 km/h
436 02-06-2014 16:15:00 21.8 C 8.06 g/m*3 21.8 C 6.4 km/h
437 02-06-2014 16:20:00 22.5 C 8.99 g/m*3 22.5 C 8.1 km/h
438 02-06-2014 16:25:00 23.1 C 8.68 g/m*3 23.1 C 9.7 km/h
439 02-06-2014 16:30:00 23.2 C 8.52 g/m*3 23.2 C 9.7 km/h
440 02-06-2014 16:35:00 23.4 C 9.46 g/m*3 23.4 C 9.7 km/h
441 02-06-2014 16:40:00 23.8 C 8.6 g/m*3 23.8 C 6.4 km/h
442 02-06-2014 16:45:00 23.6 C 8.72 g/m*3 23.6 C 6.4 km/h
443 02-06-2014 16:50:00 23.7 C 8.77 g/m*3 23.7 C 6.4 km/h
444 02-06-2014 16:55:00 23.6 C 8.29 g/m*3 23.6 C 8.1 km/h
445 02-06-2014 17:00:00 23.4 C 8.83 g/m*3 23.4 C 6.4 km/h
446 02-06-2014 17:05:00 23.6 C 8.93 g/m*3 23.6 C 11.3 km/h
447 02-06-2014 17:10:00 23.8 C 8.39 g/m*3 23.8 C 8.1 km/h
448 02-06-2014 17:15:00 23.7 C 8.13 g/m*3 23.7 C 11.3 km/h
449 02-06-2014 17:20:00 23.7 C 8.56 g/m*3 23.7 C 8.1 km/h
450 02-06-2014 17:25:00 23.7 C 8.56 g/m*3 23.7 C 8.1 km/h
Sensor: Nr:Datum:Temp:Abs-Feuchte:Windchill:Wind:
Aussen-T/F 451 02-06-2014 17:30:00 23.8 C 8.82 g/m*3 23.8 C 11.3 km/h
452 02-06-2014 17:35:00 23.8 C 8.82 g/m*3 23.8 C 6.4 km/h
453 02-06-2014 17:40:00 23.8 C 8.39 g/m*3 23.8 C 4.8 km/h
454 02-06-2014 17:45:00 24 C 8.27 g/m*3 24 C 8.1 km/h
455 02-06-2014 17:50:00 24 C 8.27 g/m*3 24 C 6.4 km/h
456 02-06-2014 18:30:00 23.7 C 8.56 g/m*3 23.7 C 6.4 km/h
457 02-06-2014 18:35:00 23.6 C 8.93 g/m*3 23.6 C 9.7 km/h
458 02-06-2014 18:40:00 23.6 C 8.29 g/m*3 23.6 C 8.1 km/h
459 02-06-2014 18:45:00 23.7 C 8.56 g/m*3 23.7 C 6.4 km/h
460 02-06-2014 18:50:00 23.6 C 8.29 g/m*3 23.6 C 8.1 km/h
461 02-06-2014 18:55:00 23.5 C 8.46 g/m*3 23.5 C 4.8 km/h
462 02-06-2014 19:00:00 23.5 C 8.46 g/m*3 23.5 C 4.8 km/h
463 02-06-2014 19:05:00 23.4 C 8.41 g/m*3 23.4 C 8.1 km/h
464 02-06-2014 19:10:00 23.4 C 8.2 g/m*3 23.4 C 9.7 km/h
465 02-06-2014 19:15:00 22.8 C 8.13 g/m*3 22.8 C 6.4 km/h
466 02-06-2014 19:20:00 22.5 C 8.19 g/m*3 22.5 C 8.1 km/h
467 02-06-2014 19:25:00 22.4 C 8.14 g/m*3 22.4 C 8.1 km/h
468 02-06-2014 19:30:00 22.3 C 8.29 g/m*3 22.3 C 9.7 km/h
469 02-06-2014 19:35:00 22.1 C 8.39 g/m*3 22.1 C 8.1 km/h
470 02-06-2014 19:40:00 22 C 8.15 g/m*3 22 C 4.8 km/h
471 02-06-2014 19:45:00 21.8 C 8.25 g/m*3 21.8 C 6.4 km/h
472 02-06-2014 19:50:00 21.7 C 8.01 g/m*3 21.7 C 6.4 km/h
473 02-06-2014 19:55:00 21.6 C 7.97 g/m*3 21.6 C 3.2 km/h
474 02-06-2014 20:00:00 21.4 C 7.87 g/m*3 21.4 C 4.8 km/h
475 02-06-2014 20:05:00 21.3 C 8.02 g/m*3 21.3 C 4.8 km/h
Sensor: Nr:Datum:Temp:Abs-Feuchte:Windchill:Wind:
Aussen-T/F 476 02-06-2014 20:10:00 21.2 C 7.97 g/m*3 21.2 C 4.8 km/h
477 02-06-2014 20:15:00 21.1 C 7.92 g/m*3 21.1 C 6.4 km/h
478 02-06-2014 20:20:00 20.9 C 8.2 g/m*3 20.9 C 3.2 km/h
479 02-06-2014 20:25:00 20.8 C 7.97 g/m*3 20.8 C 3.2 km/h
480 02-06-2014 20:30:00 20.4 C 9.73 g/m*3 20.4 C 6.4 km/h
481 02-06-2014 20:35:00 19.7 C 9.51 g/m*3 19.7 C 1.6 km/h
482 02-06-2014 20:40:00 19.3 C 9.79 g/m*3 19.3 C 1.6 km/h
483 02-06-2014 20:45:00 18.9 C 10.53 g/m*3 18.9 C 0 km/h
484 02-06-2014 20:50:00 18.6 C 10.35 g/m*3 18.6 C 0 km/h
485 02-06-2014 20:55:00 18.2 C 10.26 g/m*3 18.2 C 0 km/h
486 02-06-2014 21:00:00 17.8 C 10.17 g/m*3 17.8 C 0 km/h
487 02-06-2014 21:05:00 17.6 C 9.9 g/m*3 17.6 C 0 km/h
488 02-06-2014 21:10:00 17.4 C 9.93 g/m*3 17.4 C 0 km/h
489 02-06-2014 21:15:00 17.2 C 9.96 g/m*3 17.2 C 0 km/h
490 02-06-2014 21:20:00 17 C 9.98 g/m*3 17 C 0 km/h
491 02-06-2014 21:25:00 16.8 C 10.01 g/m*3 16.8 C 1.6 km/h
492 02-06-2014 21:30:00 16.7 C 9.81 g/m*3 16.7 C 0 km/h
493 02-06-2014 21:35:00 16.6 C 9.89 g/m*3 16.6 C 1.6 km/h
494 02-06-2014 21:40:00 16.5 C 9.97 g/m*3 16.5 C 1.6 km/h
495 02-06-2014 21:45:00 16.4 C 9.35 g/m*3 16.4 C 0 km/h
496 02-06-2014 21:50:00 16.3 C 9.57 g/m*3 16.3 C 0 km/h
497 02-06-2014 21:55:00 16.3 C 9.57 g/m*3 16.3 C 0 km/h
498 02-06-2014 22:00:00 16.3 C 9.57 g/m*3 16.3 C 0 km/h
499 02-06-2014 22:05:00 16.2 C 9.38 g/m*3 16.2 C 0 km/h
500 02-06-2014 22:10:00 16.2 C 9.24 g/m*3 16.2 C 0 km/h
Sensor: Nr:Datum:Temp:Abs-Feuchte:Windchill:Wind:
Aussen-T/F 501 02-06-2014 22:15:00 16.1 C 9.46 g/m*3 16.1 C 0 km/h
502 02-06-2014 22:20:00 16 C 9.4 g/m*3 16 C 0 km/h
503 02-06-2014 22:25:00 15.9 C 9.48 g/m*3 15.9 C 0 km/h
504 02-06-2014 22:30:00 15.9 C 9.48 g/m*3 15.9 C 0 km/h
505 02-06-2014 22:35:00 15.9 C 9.48 g/m*3 15.9 C 0 km/h
506 02-06-2014 22:40:00 15.9 C 9.75 g/m*3 15.9 C 0 km/h
507 02-06-2014 22:45:00 15.9 C 9.75 g/m*3 15.9 C 0 km/h
508 02-06-2014 22:50:00 15.9 C 9.34 g/m*3 15.9 C 0 km/h
509 02-06-2014 22:55:00 15.9 C 9.62 g/m*3 15.9 C 0 km/h
510 02-06-2014 23:00:00 15.9 C 9.34 g/m*3 15.9 C 0 km/h
511 02-06-2014 23:05:00 15.8 C 9.42 g/m*3 15.8 C 0 km/h
512 02-06-2014 23:10:00 15.8 C 9.29 g/m*3 15.8 C 0 km/h
513 02-06-2014 23:15:00 15.8 C 9.29 g/m*3 15.8 C 0 km/h
514 02-06-2014 23:20:00 15.8 C 9.69 g/m*3 15.8 C 0 km/h
515 02-06-2014 23:25:00 15.7 C 9.37 g/m*3 15.7 C 0 km/h
516 02-06-2014 23:30:00 15.7 C 9.5 g/m*3 15.7 C 0 km/h
517 02-06-2014 23:35:00 15.5 C 9.25 g/m*3 15.5 C 1.6 km/h
518 02-06-2014 23:40:00 15.4 C 9.2 g/m*3 15.4 C 0 km/h
519 02-06-2014 23:45:00 15.3 C 9.14 g/m*3 15.3 C 1.6 km/h
520 02-06-2014 23:50:00 15.2 C 9.35 g/m*3 15.2 C 0 km/h
521 02-06-2014 23:55:00 15.1 C 9.16 g/m*3 15.1 C 0 km/h
522 03-06-2014 00:00:00 15 C 9.23 g/m*3 15 C 0 km/h
523 03-06-2014 00:05:00 14.9 C 9.3 g/m*3 14.9 C 0 km/h
524 03-06-2014 00:10:00 14.8 C 9.25 g/m*3 14.8 C 0 km/h
525 03-06-2014 00:15:00 14.8 C 9.37 g/m*3 14.8 C 0 km/h
Sensor: Nr:Datum:Temp:Abs-Feuchte:Windchill:Wind:
Aussen-T/F 526 03-06-2014 00:20:00 14.7 C 9.19 g/m*3 14.7 C 0 km/h
527 03-06-2014 00:25:00 14.7 C 9.32 g/m*3 14.7 C 0 km/h
528 03-06-2014 00:30:00 14.6 C 9.26 g/m*3 14.6 C 0 km/h
529 03-06-2014 00:35:00 14.6 C 9.39 g/m*3 14.6 C 0 km/h
530 03-06-2014 00:40:00 14.4 C 9.27 g/m*3 14.4 C 0 km/h
531 03-06-2014 00:45:00 14.2 C 9.16 g/m*3 14.2 C 0 km/h
532 03-06-2014 00:50:00 14.1 C 9.22 g/m*3 14.1 C 0 km/h
533 03-06-2014 00:55:00 14 C 9.17 g/m*3 14 C 0 km/h
534 03-06-2014 01:00:00 13.9 C 9.11 g/m*3 13.9 C 0 km/h
535 03-06-2014 01:05:00 13.8 C 9.17 g/m*3 13.8 C 0 km/h
536 03-06-2014 01:10:00 13.7 C 9.24 g/m*3 13.7 C 0 km/h
537 03-06-2014 01:15:00 13.7 C 9.24 g/m*3 13.7 C 0 km/h
538 03-06-2014 01:20:00 13.6 C 9.18 g/m*3 13.6 C 0 km/h
539 03-06-2014 01:25:00 13.4 C 9.18 g/m*3 13.4 C 0 km/h
540 03-06-2014 01:30:00 13.4 C 9.18 g/m*3 13.4 C 0 km/h
541 03-06-2014 01:35:00 13.3 C 9.13 g/m*3 13.3 C 0 km/h
542 03-06-2014 01:40:00 13.2 C 9.07 g/m*3 13.2 C 0 km/h
543 03-06-2014 01:45:00 13.2 C 9.07 g/m*3 13.2 C 0 km/h
544 03-06-2014 01:50:00 13.1 C 9.13 g/m*3 13.1 C 0 km/h
545 03-06-2014 01:55:00 12.9 C 9.02 g/m*3 12.9 C 0 km/h
546 03-06-2014 02:00:00 12.8 C 9.07 g/m*3 12.8 C 0 km/h
547 03-06-2014 02:05:00 12.7 C 9.02 g/m*3 12.7 C 3.2 km/h
548 03-06-2014 02:10:00 12.7 C 9.02 g/m*3 12.7 C 3.2 km/h
549 03-06-2014 02:15:00 12.5 C 8.91 g/m*3 12.5 C 0 km/h
550 03-06-2014 02:20:00 12.4 C 8.96 g/m*3 12.4 C 0 km/h
Sensor: Nr:Datum:Temp:Abs-Feuchte:Windchill:Wind:
Aussen-T/F 551 03-06-2014 02:25:00 12.3 C 8.9 g/m*3 12.3 C 0 km/h
552 03-06-2014 02:30:00 12.2 C 8.85 g/m*3 12.2 C 0 km/h
553 03-06-2014 02:35:00 12.1 C 8.79 g/m*3 12.1 C 0 km/h
554 03-06-2014 02:40:00 11.9 C 8.79 g/m*3 11.9 C 0 km/h
555 03-06-2014 02:45:00 11.8 C 8.74 g/m*3 11.8 C 0 km/h
556 03-06-2014 02:50:00 11.8 C 8.74 g/m*3 11.8 C 0 km/h
557 03-06-2014 02:55:00 11.7 C 8.79 g/m*3 11.7 C 0 km/h
558 03-06-2014 03:00:00 11.7 C 8.79 g/m*3 11.7 C 0 km/h
559 03-06-2014 03:05:00 11.5 C 8.78 g/m*3 11.5 C 0 km/h
560 03-06-2014 03:10:00 11.4 C 8.72 g/m*3 11.4 C 0 km/h
561 03-06-2014 03:15:00 11.3 C 8.67 g/m*3 11.3 C 0 km/h
562 03-06-2014 03:20:00 11.2 C 8.62 g/m*3 11.2 C 0 km/h
563 03-06-2014 03:25:00 11.1 C 8.66 g/m*3 11.1 C 0 km/h
564 03-06-2014 03:30:00 11.1 C 8.66 g/m*3 11.1 C 0 km/h
565 03-06-2014 03:35:00 10.9 C 8.55 g/m*3 10.9 C 0 km/h
566 03-06-2014 03:40:00 10.9 C 8.55 g/m*3 10.9 C 0 km/h
567 03-06-2014 03:45:00 10.8 C 8.6 g/m*3 10.8 C 0 km/h
568 03-06-2014 03:50:00 10.8 C 8.6 g/m*3 10.8 C 0 km/h
569 03-06-2014 03:55:00 10.8 C 8.6 g/m*3 10.8 C 0 km/h
570 03-06-2014 04:00:00 10.7 C 8.55 g/m*3 10.7 C 0 km/h
571 03-06-2014 04:05:00 10.6 C 8.49 g/m*3 10.6 C 0 km/h
572 03-06-2014 04:10:00 10.5 C 8.53 g/m*3 10.5 C 0 km/h
573 03-06-2014 04:15:00 10.4 C 8.48 g/m*3 10.4 C 0 km/h
574 03-06-2014 04:20:00 10.4 C 8.48 g/m*3 10.4 C 0 km/h
575 03-06-2014 04:25:00 10.3 C 8.52 g/m*3 10.3 C 0 km/h
Sensor: Nr:Datum:Temp:Abs-Feuchte:Windchill:Wind:
Aussen-T/F 576 03-06-2014 04:30:00 10.3 C 8.52 g/m*3 10.3 C 0 km/h
577 03-06-2014 04:35:00 10.2 C 8.47 g/m*3 10.2 C 0 km/h
578 03-06-2014 04:40:00 10.2 C 8.47 g/m*3 10.2 C 0 km/h
579 03-06-2014 04:45:00 10.1 C 8.51 g/m*3 10.1 C 0 km/h
580 03-06-2014 04:50:00 10.1 C 8.51 g/m*3 10.1 C 0 km/h
581 03-06-2014 04:55:00 10 C 8.46 g/m*3 10 C 0 km/h
582 03-06-2014 05:00:00 9.9 C 8.4 g/m*3 9.9 C 0 km/h
583 03-06-2014 05:05:00 9.9 C 8.5 g/m*3 9.9 C 0 km/h
584 03-06-2014 05:10:00 9.9 C 8.5 g/m*3 9.9 C 0 km/h
585 03-06-2014 05:15:00 9.9 C 8.5 g/m*3 9.9 C 0 km/h
586 03-06-2014 05:20:00 9.8 C 8.44 g/m*3 9.8 C 0 km/h
587 03-06-2014 05:25:00 9.8 C 8.44 g/m*3 9.8 C 0 km/h
588 03-06-2014 05:30:00 9.8 C 8.54 g/m*3 9.8 C 0 km/h
589 03-06-2014 05:35:00 9.8 C 8.54 g/m*3 9.8 C 0 km/h
590 03-06-2014 05:40:00 9.8 C 8.54 g/m*3 9.8 C 0 km/h
591 03-06-2014 05:45:00 9.8 C 8.54 g/m*3 9.8 C 0 km/h
592 03-06-2014 05:50:00 9.8 C 8.54 g/m*3 9.8 C 0 km/h
593 03-06-2014 05:55:00 9.8 C 8.54 g/m*3 9.8 C 0 km/h
594 03-06-2014 06:00:00 9.8 C 8.54 g/m*3 9.8 C 0 km/h
595 03-06-2014 06:05:00 9.8 C 8.54 g/m*3 9.8 C 0 km/h
596 03-06-2014 06:10:00 9.9 C 8.68 g/m*3 9.25 C 6.4 km/h
597 03-06-2014 06:15:00 10 C 8.74 g/m*3 9.37 C 6.4 km/h
598 03-06-2014 06:20:00 10.1 C 8.7 g/m*3 10.1 C 0 km/h
599 03-06-2014 06:25:00 10.1 C 8.7 g/m*3 10.1 C 0 km/h
600 03-06-2014 06:30:00 10.2 C 8.76 g/m*3 10.2 C 0 km/h
Sensor: Nr:Datum:Temp:Abs-Feuchte:Windchill:Wind:
Aussen-T/F 601 03-06-2014 06:35:00 10.2 C 8.76 g/m*3 10.2 C 0 km/h
602 03-06-2014 06:40:00 10.3 C 8.81 g/m*3 10.3 C 0 km/h
603 03-06-2014 06:45:00 10.4 C 8.87 g/m*3 10.4 C 0 km/h
604 03-06-2014 06:50:00 10.5 C 8.92 g/m*3 10.5 C 3.2 km/h
605 03-06-2014 06:55:00 10.6 C 8.88 g/m*3 10.6 C 0 km/h
606 03-06-2014 07:00:00 10.7 C 8.94 g/m*3 10.7 C 0 km/h
607 03-06-2014 07:05:00 10.8 C 8.99 g/m*3 10.8 C 0 km/h
608 03-06-2014 07:10:00 10.9 C 9.05 g/m*3 10.9 C 1.6 km/h
609 03-06-2014 07:15:00 11 C 9.01 g/m*3 11 C 3.2 km/h
610 03-06-2014 07:20:00 11.1 C 9.07 g/m*3 11.1 C 3.2 km/h
611 03-06-2014 07:25:00 11.3 C 9.18 g/m*3 11.3 C 4.8 km/h
612 03-06-2014 07:30:00 11.4 C 9.14 g/m*3 11.4 C 4.8 km/h
613 03-06-2014 07:35:00 11.6 C 9.25 g/m*3 11.6 C 3.2 km/h
614 03-06-2014 07:40:00 11.7 C 9.2 g/m*3 11.7 C 4.8 km/h
615 03-06-2014 07:45:00 11.8 C 9.26 g/m*3 11.8 C 4.8 km/h
616 03-06-2014 07:50:00 12.1 C 9.44 g/m*3 12.1 C 3.2 km/h
617 03-06-2014 07:55:00 12.2 C 9.28 g/m*3 12.2 C 4.8 km/h
618 03-06-2014 08:00:00 12.3 C 9.34 g/m*3 12.3 C 4.8 km/h
619 03-06-2014 08:05:00 12.4 C 9.4 g/m*3 12.4 C 3.2 km/h
620 03-06-2014 08:10:00 12.5 C 9.35 g/m*3 12.5 C 3.2 km/h
621 03-06-2014 08:15:00 12.6 C 9.4 g/m*3 12.6 C 1.6 km/h
622 03-06-2014 08:20:00 12.7 C 9.46 g/m*3 12.7 C 1.6 km/h
623 03-06-2014 08:25:00 12.9 C 9.58 g/m*3 12.9 C 1.6 km/h
624 03-06-2014 08:30:00 13.1 C 9.47 g/m*3 13.1 C 3.2 km/h
625 03-06-2014 08:35:00 13.3 C 9.59 g/m*3 13.3 C 1.6 km/h
Sensor: Nr:Datum:Temp:Abs-Feuchte:Windchill:Wind:
Aussen-T/F 626 03-06-2014 08:40:00 13.4 C 9.65 g/m*3 13.4 C 3.2 km/h
627 03-06-2014 08:45:00 13.6 C 9.53 g/m*3 13.6 C 3.2 km/h
628 03-06-2014 08:50:00 13.7 C 9.59 g/m*3 13.7 C 4.8 km/h
629 03-06-2014 08:55:00 13.7 C 9.47 g/m*3 13.7 C 1.6 km/h
630 03-06-2014 09:00:00 13.8 C 9.53 g/m*3 13.8 C 3.2 km/h
631 03-06-2014 09:05:00 13.9 C 9.59 g/m*3 13.9 C 3.2 km/h
632 03-06-2014 09:10:00 14.1 C 9.71 g/m*3 14.1 C 3.2 km/h
633 03-06-2014 09:15:00 14.2 C 9.77 g/m*3 14.2 C 0 km/h
634 03-06-2014 09:20:00 14.3 C 9.95 g/m*3 14.3 C 1.6 km/h
635 03-06-2014 09:25:00 14.4 C 10.01 g/m*3 14.4 C 1.6 km/h
636 03-06-2014 09:30:00 14.4 C 10.01 g/m*3 14.4 C 0 km/h
637 03-06-2014 09:35:00 14.6 C 10.26 g/m*3 14.6 C 0 km/h
638 03-06-2014 09:40:00 14.7 C 10.2 g/m*3 14.7 C 1.6 km/h
639 03-06-2014 09:45:00 14.8 C 10.13 g/m*3 14.8 C 0 km/h
640 03-06-2014 09:50:00 15.1 C 10.19 g/m*3 15.1 C 1.6 km/h
641 03-06-2014 09:55:00 15.5 C 10.18 g/m*3 15.5 C 1.6 km/h
642 03-06-2014 10:00:00 16 C 10.63 g/m*3 16 C 1.6 km/h
643 03-06-2014 10:05:00 16.5 C 10.95 g/m*3 16.5 C 0 km/h
644 03-06-2014 10:10:00 17.1 C 10.77 g/m*3 17.1 C 1.6 km/h
645 03-06-2014 10:15:00 17.4 C 10.67 g/m*3 17.4 C 3.2 km/h
646 03-06-2014 10:20:00 17.8 C 10.62 g/m*3 17.8 C 3.2 km/h
647 03-06-2014 10:25:00 17.9 C 10.69 g/m*3 17.9 C 1.6 km/h
648 03-06-2014 10:30:00 18.2 C 10.72 g/m*3 18.2 C 0 km/h
649 03-06-2014 10:35:00 18.4 C 10.85 g/m*3 18.4 C 4.8 km/h
650 03-06-2014 10:40:00 18.7 C 10.89 g/m*3 18.7 C 3.2 km/h
Sensor: Nr:Datum:Temp:Abs-Feuchte:Windchill:Wind:
Aussen-T/F 651 03-06-2014 10:45:00 18.9 C 10.37 g/m*3 18.9 C 3.2 km/h
652 03-06-2014 10:50:00 18.9 C 11.02 g/m*3 18.9 C 3.2 km/h
653 03-06-2014 10:55:00 18.9 C 10.85 g/m*3 18.9 C 1.6 km/h
654 03-06-2014 11:00:00 18.8 C 10.79 g/m*3 18.8 C 1.6 km/h
655 03-06-2014 11:05:00 18.7 C 10.73 g/m*3 18.7 C 0 km/h
656 03-06-2014 11:10:00 18.6 C 11.46 g/m*3 18.6 C 0 km/h
657 03-06-2014 11:15:00 18.6 C 11.14 g/m*3 18.6 C 3.2 km/h
658 03-06-2014 11:20:00 18.6 C 11.14 g/m*3 18.6 C 3.2 km/h
659 03-06-2014 11:25:00 18.9 C 11.18 g/m*3 18.9 C 3.2 km/h
660 03-06-2014 11:30:00 19.3 C 10.78 g/m*3 19.3 C 3.2 km/h
661 03-06-2014 11:35:00 19.7 C 11.21 g/m*3 19.7 C 3.2 km/h
662 03-06-2014 11:40:00 20.1 C 10.95 g/m*3 20.1 C 3.2 km/h
663 03-06-2014 11:45:00 20.6 C 11.1 g/m*3 20.6 C 6.4 km/h
664 03-06-2014 11:50:00 20.9 C 11.47 g/m*3 20.9 C 4.8 km/h
665 03-06-2014 11:55:00 20.8 C 10.5 g/m*3 20.8 C 4.8 km/h
666 03-06-2014 12:00:00 20.7 C 11.34 g/m*3 20.7 C 1.6 km/h
667 03-06-2014 12:05:00 20.1 C 11.47 g/m*3 20.1 C 0 km/h
668 03-06-2014 12:10:00 19.2 C 11.87 g/m*3 19.2 C 0 km/h
669 03-06-2014 12:15:00 18.6 C 11.62 g/m*3 18.6 C 0 km/h
670 03-06-2014 12:20:00 18 C 11.52 g/m*3 18 C 0 km/h
671 03-06-2014 12:25:00 17.7 C 11.62 g/m*3 17.7 C 0 km/h
672 03-06-2014 12:30:00 17.6 C 11.7 g/m*3 17.6 C 0 km/h
673 03-06-2014 12:35:00 17.6 C 11.55 g/m*3 17.6 C 0 km/h
674 03-06-2014 12:40:00 17.8 C 11.84 g/m*3 17.8 C 0 km/h
675 03-06-2014 12:45:00 18.5 C 11.08 g/m*3 18.5 C 4.8 km/h
Sensor: Nr:Datum:Temp:Abs-Feuchte:Windchill:Wind:
Aussen-T/F 676 03-06-2014 12:50:00 19.7 C 10.53 g/m*3 19.7 C 3.2 km/h
677 03-06-2014 12:55:00 20.4 C 9.73 g/m*3 20.4 C 4.8 km/h
678 03-06-2014 13:00:00 21.1 C 9.58 g/m*3 21.1 C 3.2 km/h
679 03-06-2014 13:05:00 21.8 C 9.98 g/m*3 21.8 C 3.2 km/h
680 03-06-2014 13:10:00 22.2 C 9.42 g/m*3 22.2 C 6.4 km/h
681 03-06-2014 13:15:00 22.4 C 9.14 g/m*3 22.4 C 4.8 km/h
682 03-06-2014 13:20:00 22.7 C 9.5 g/m*3 22.7 C 4.8 km/h
683 03-06-2014 13:25:00 22.9 C 8.99 g/m*3 22.9 C 1.6 km/h
684 03-06-2014 13:30:00 23.1 C 8.27 g/m*3 23.1 C 6.4 km/h
685 03-06-2014 13:35:00 23.3 C 8.36 g/m*3 23.3 C 8.1 km/h
686 03-06-2014 13:40:00 23 C 8.22 g/m*3 23 C 4.8 km/h
687 03-06-2014 13:45:00 23.1 C 8.27 g/m*3 23.1 C 4.8 km/h
688 03-06-2014 13:50:00 23.3 C 8.36 g/m*3 23.3 C 8.1 km/h
689 03-06-2014 13:55:00 23.3 C 8.36 g/m*3 23.3 C 6.4 km/h
690 03-06-2014 14:20:00 21.7 C 10.68 g/m*3 21.7 C 1.6 km/h
691 03-06-2014 14:25:00 21 C 10.62 g/m*3 21 C 4.8 km/h
692 03-06-2014 14:30:00 20.9 C 11.11 g/m*3 20.9 C 1.6 km/h
693 03-06-2014 14:35:00 20.8 C 10.5 g/m*3 20.8 C 1.6 km/h
694 03-06-2014 14:40:00 20.8 C 9.6 g/m*3 20.8 C 14.5 km/h
695 03-06-2014 14:45:00 20.7 C 9.72 g/m*3 20.7 C 14.5 km/h
696 03-06-2014 14:50:00 20.6 C 9.84 g/m*3 20.6 C 6.4 km/h
697 03-06-2014 14:55:00 20.4 C 9.91 g/m*3 20.4 C 4.8 km/h
698 03-06-2014 15:00:00 20.2 C 9.79 g/m*3 20.2 C 6.4 km/h
699 03-06-2014 15:05:00 19.9 C 9.97 g/m*3 19.9 C 9.7 km/h
700 03-06-2014 15:10:00 19.7 C 9.85 g/m*3 19.7 C 8.1 km/h
Sensor: Nr:Datum:Temp:Abs-Feuchte:Windchill:Wind:
Aussen-T/F 701 03-06-2014 15:15:00 19.6 C 9.79 g/m*3 19.6 C 6.4 km/h
702 03-06-2014 15:20:00 19.6 C 9.79 g/m*3 19.6 C 8.1 km/h
703 03-06-2014 15:25:00 19.7 C 9.85 g/m*3 19.7 C 11.3 km/h
704 03-06-2014 15:30:00 19.8 C 9.57 g/m*3 19.8 C 6.4 km/h
705 03-06-2014 15:35:00 19.9 C 9.45 g/m*3 19.9 C 3.2 km/h
706 03-06-2014 15:40:00 20.1 C 9.73 g/m*3 20.1 C 6.4 km/h
707 03-06-2014 15:45:00 20.3 C 10.02 g/m*3 20.3 C 8.1 km/h
708 03-06-2014 15:50:00 20.5 C 9.25 g/m*3 20.5 C 9.7 km/h
709 03-06-2014 15:55:00 20.3 C 9.32 g/m*3 20.3 C 8.1 km/h
710 03-06-2014 16:00:00 20.3 C 9.32 g/m*3 20.3 C 3.2 km/h
711 03-06-2014 16:05:00 20.3 C 9.32 g/m*3 20.3 C 1.6 km/h
712 03-06-2014 16:10:00 20.4 C 9.73 g/m*3 20.4 C 8.1 km/h
713 03-06-2014 16:15:00 20.4 C 10.08 g/m*3 20.4 C 3.2 km/h
714 03-06-2014 16:20:00 20.4 C 9.91 g/m*3 20.4 C 0 km/h
715 03-06-2014 16:25:00 20.3 C 10.55 g/m*3 20.3 C 0 km/h
716 03-06-2014 16:30:00 20.1 C 11.65 g/m*3 20.1 C 0 km/h
717 03-06-2014 16:35:00 19.7 C 11.72 g/m*3 19.7 C 0 km/h
718 03-06-2014 16:40:00 19.4 C 11.51 g/m*3 19.4 C 0 km/h
719 03-06-2014 16:45:00 19.2 C 11.71 g/m*3 19.2 C 0 km/h
720 03-06-2014 16:50:00 19 C 11.41 g/m*3 19 C 0 km/h
721 03-06-2014 16:55:00 18.8 C 11.6 g/m*3 18.8 C 0 km/h
722 03-06-2014 17:00:00 18.8 C 11.6 g/m*3 18.8 C 0 km/h
723 03-06-2014 17:05:00 18.8 C 11.43 g/m*3 18.8 C 0 km/h
724 03-06-2014 17:10:00 18.9 C 11.66 g/m*3 18.9 C 0 km/h
725 03-06-2014 17:15:00 18.9 C 11.83 g/m*3 18.9 C 0 km/h
Sensor: Nr:Datum:Temp:Abs-Feuchte:Windchill:Wind:
Aussen-T/F 726 03-06-2014 17:20:00 18.9 C 11.99 g/m*3 18.9 C 0 km/h
727 03-06-2014 17:25:00 18.9 C 11.99 g/m*3 18.9 C 0 km/h
728 03-06-2014 17:30:00 18.8 C 11.92 g/m*3 18.8 C 0 km/h
729 03-06-2014 17:35:00 18.8 C 12.08 g/m*3 18.8 C 0 km/h
730 03-06-2014 17:40:00 18.9 C 11.99 g/m*3 18.9 C 0 km/h
731 03-06-2014 17:45:00 19.1 C 10.82 g/m*3 19.1 C 0 km/h
732 03-06-2014 17:50:00 19.4 C 11.68 g/m*3 19.4 C 1.6 km/h
733 03-06-2014 17:55:00 19.8 C 11.44 g/m*3 19.8 C 1.6 km/h
734 03-06-2014 18:00:00 20.1 C 10.95 g/m*3 20.1 C 3.2 km/h
735 03-06-2014 18:05:00 20.1 C 10.08 g/m*3 20.1 C 6.4 km/h
736 03-06-2014 18:10:00 20.2 C 10.14 g/m*3 20.2 C 4.8 km/h
737 03-06-2014 18:15:00 20.3 C 10.2 g/m*3 20.3 C 3.2 km/h
738 03-06-2014 18:20:00 20.4 C 11.85 g/m*3 20.4 C 1.6 km/h
739 03-06-2014 18:25:00 20.4 C 12.21 g/m*3 20.4 C 0 km/h
740 03-06-2014 18:30:00 20.3 C 12.31 g/m*3 20.3 C 1.6 km/h
741 03-06-2014 18:35:00 20.4 C 9.91 g/m*3 20.4 C 4.8 km/h
742 03-06-2014 18:40:00 20.9 C 9.83 g/m*3 20.9 C 4.8 km/h
743 03-06-2014 18:45:00 21.4 C 9.75 g/m*3 21.4 C 4.8 km/h
744 03-06-2014 18:50:00 21.7 C 9.73 g/m*3 21.7 C 1.6 km/h
745 03-06-2014 18:55:00 21.5 C 11.5 g/m*3 21.5 C 0 km/h
746 03-06-2014 19:00:00 21.2 C 11.68 g/m*3 21.2 C 0 km/h
747 03-06-2014 19:05:00 20.9 C 11.47 g/m*3 20.9 C 0 km/h
748 03-06-2014 19:10:00 20.5 C 11.57 g/m*3 20.5 C 0 km/h
749 03-06-2014 19:15:00 20.1 C 11.99 g/m*3 20.1 C 0 km/h
750 03-06-2014 19:20:00 19.8 C 11.61 g/m*3 19.8 C 1.6 km/h
Sensor: Nr:Datum:Temp:Abs-Feuchte:Windchill:Wind:
Aussen-T/F 751 03-06-2014 19:25:00 19.6 C 11.48 g/m*3 19.6 C 1.6 km/h
752 03-06-2014 19:30:00 19.3 C 11.78 g/m*3 19.3 C 0 km/h
753 03-06-2014 19:35:00 18.9 C 11.66 g/m*3 18.9 C 0 km/h
754 03-06-2014 19:40:00 18.4 C 11.48 g/m*3 18.4 C 0 km/h
755 03-06-2014 19:45:00 18.1 C 11.59 g/m*3 18.1 C 0 km/h
756 03-06-2014 19:50:00 17.8 C 11.38 g/m*3 17.8 C 0 km/h
757 03-06-2014 19:55:00 17.6 C 11.4 g/m*3 17.6 C 1.6 km/h
758 03-06-2014 20:00:00 17.5 C 11.33 g/m*3 17.5 C 1.6 km/h
759 03-06-2014 20:05:00 17.3 C 11.2 g/m*3 17.3 C 0 km/h
760 03-06-2014 20:10:00 17.2 C 11.28 g/m*3 17.2 C 1.6 km/h
761 03-06-2014 20:15:00 17.2 C 11.13 g/m*3 17.2 C 0 km/h
762 03-06-2014 20:20:00 17.1 C 11.21 g/m*3 17.1 C 0 km/h
763 03-06-2014 20:25:00 16.9 C 11.22 g/m*3 16.9 C 0 km/h
764 03-06-2014 20:30:00 16.9 C 11.08 g/m*3 16.9 C 0 km/h
765 03-06-2014 20:35:00 16.8 C 11.01 g/m*3 16.8 C 0 km/h
766 03-06-2014 20:40:00 16.8 C 11.01 g/m*3 16.8 C 1.6 km/h
767 03-06-2014 20:45:00 16.8 C 11.01 g/m*3 16.8 C 0 km/h
768 03-06-2014 20:50:00 16.9 C 11.22 g/m*3 16.9 C 0 km/h
769 03-06-2014 20:55:00 16.9 C 11.22 g/m*3 16.9 C 0 km/h
770 03-06-2014 21:00:00 16.8 C 11.29 g/m*3 16.8 C 0 km/h
771 03-06-2014 21:05:00 16.8 C 11.29 g/m*3 16.8 C 0 km/h
772 03-06-2014 21:10:00 16.7 C 11.23 g/m*3 16.7 C 1.6 km/h
773 03-06-2014 21:15:00 16.5 C 11.09 g/m*3 16.5 C 0 km/h
774 03-06-2014 21:20:00 16.4 C 10.89 g/m*3 16.4 C 1.6 km/h
775 03-06-2014 21:25:00 16.2 C 10.76 g/m*3 16.2 C 0 km/h
Sensor: Nr:Datum:Temp:Abs-Feuchte:Windchill:Wind:
Aussen-T/F 776 03-06-2014 21:30:00 16.1 C 10.69 g/m*3 16.1 C 0 km/h
777 03-06-2014 21:35:00 15.9 C 10.56 g/m*3 15.9 C 0 km/h
778 03-06-2014 21:40:00 15.8 C 10.36 g/m*3 15.8 C 0 km/h
779 03-06-2014 21:45:00 15.7 C 10.3 g/m*3 15.7 C 0 km/h
780 03-06-2014 21:50:00 15.6 C 10.24 g/m*3 15.6 C 0 km/h
781 03-06-2014 21:55:00 15.4 C 10.12 g/m*3 15.4 C 0 km/h
782 03-06-2014 22:00:00 15.3 C 10.06 g/m*3 15.3 C 0 km/h
783 03-06-2014 22:05:00 15.2 C 10.12 g/m*3 15.2 C 0 km/h
784 03-06-2014 22:10:00 15.1 C 10.06 g/m*3 15.1 C 0 km/h
785 03-06-2014 22:15:00 14.9 C 9.94 g/m*3 14.9 C 0 km/h
786 03-06-2014 22:20:00 14.8 C 10.01 g/m*3 14.8 C 0 km/h
787 03-06-2014 22:25:00 14.7 C 9.95 g/m*3 14.7 C 0 km/h
788 03-06-2014 22:30:00 14.6 C 9.89 g/m*3 14.6 C 0 km/h
789 03-06-2014 22:35:00 14.4 C 9.77 g/m*3 14.4 C 0 km/h
790 03-06-2014 22:40:00 14.3 C 9.83 g/m*3 14.3 C 0 km/h
791 03-06-2014 22:45:00 14.2 C 9.89 g/m*3 14.2 C 0 km/h
792 03-06-2014 22:50:00 14.2 C 9.89 g/m*3 14.2 C 0 km/h
793 03-06-2014 22:55:00 14.1 C 9.83 g/m*3 14.1 C 0 km/h
794 03-06-2014 23:00:00 14 C 9.77 g/m*3 14 C 1.6 km/h
795 03-06-2014 23:05:00 13.9 C 9.71 g/m*3 13.9 C 0 km/h
796 03-06-2014 23:10:00 13.9 C 9.83 g/m*3 13.9 C 0 km/h
797 03-06-2014 23:15:00 13.8 C 9.77 g/m*3 13.8 C 0 km/h
798 03-06-2014 23:20:00 13.7 C 9.71 g/m*3 13.7 C 0 km/h
799 03-06-2014 23:25:00 13.6 C 9.77 g/m*3 13.6 C 0 km/h
800 03-06-2014 23:30:00 13.6 C 9.77 g/m*3 13.6 C 0 km/h
Sensor: Nr:Datum:Temp:Abs-Feuchte:Windchill:Wind:
Aussen-T/F 801 03-06-2014 23:35:00 13.4 C 9.65 g/m*3 13.4 C 0 km/h
802 03-06-2014 23:40:00 13.4 C 9.88 g/m*3 13.4 C 0 km/h
803 03-06-2014 23:45:00 13.5 C 9.83 g/m*3 13.5 C 6.4 km/h
804 03-06-2014 23:50:00 13.4 C 9.76 g/m*3 13.4 C 0 km/h
805 03-06-2014 23:55:00 13.4 C 9.76 g/m*3 13.4 C 0 km/h
806 04-06-2014 00:00:00 13.2 C 9.76 g/m*3 13.2 C 0 km/h
807 04-06-2014 00:05:00 13.2 C 9.76 g/m*3 13.2 C 0 km/h
808 04-06-2014 00:10:00 13.1 C 9.81 g/m*3 13.1 C 1.6 km/h
809 04-06-2014 00:15:00 13.1 C 9.81 g/m*3 13.1 C 0 km/h
810 04-06-2014 00:20:00 13 C 9.75 g/m*3 13 C 0 km/h
811 04-06-2014 00:25:00 13 C 9.75 g/m*3 13 C 0 km/h
812 04-06-2014 00:30:00 12.9 C 9.81 g/m*3 12.9 C 0 km/h
813 04-06-2014 00:35:00 12.9 C 9.69 g/m*3 12.9 C 0 km/h
814 04-06-2014 00:40:00 12.8 C 9.74 g/m*3 12.8 C 0 km/h
815 04-06-2014 00:45:00 12.8 C 9.74 g/m*3 12.8 C 0 km/h
816 04-06-2014 00:50:00 12.8 C 9.74 g/m*3 12.8 C 0 km/h
817 04-06-2014 00:55:00 12.8 C 9.74 g/m*3 12.8 C 0 km/h
818 04-06-2014 01:00:00 12.7 C 9.68 g/m*3 12.7 C 0 km/h
819 04-06-2014 01:05:00 12.7 C 9.68 g/m*3 12.7 C 0 km/h
820 04-06-2014 01:10:00 12.5 C 9.68 g/m*3 12.5 C 0 km/h
821 04-06-2014 01:15:00 12.4 C 9.62 g/m*3 12.4 C 0 km/h
822 04-06-2014 01:20:00 12.3 C 9.56 g/m*3 12.3 C 0 km/h
823 04-06-2014 01:25:00 12.3 C 9.66 g/m*3 12.3 C 0 km/h
824 04-06-2014 01:30:00 12.2 C 9.5 g/m*3 12.2 C 0 km/h
825 04-06-2014 01:35:00 12.1 C 9.54 g/m*3 12.1 C 0 km/h
Sensor: Nr:Datum:Temp:Abs-Feuchte:Windchill:Wind:
Aussen-T/F 826 04-06-2014 01:40:00 11.9 C 9.43 g/m*3 11.9 C 0 km/h
827 04-06-2014 01:45:00 11.9 C 9.43 g/m*3 11.9 C 0 km/h
828 04-06-2014 01:50:00 11.9 C 9.43 g/m*3 11.9 C 0 km/h
829 04-06-2014 01:55:00 11.9 C 9.43 g/m*3 11.9 C 0 km/h
830 04-06-2014 02:00:00 11.8 C 9.47 g/m*3 11.8 C 1.6 km/h
831 04-06-2014 02:05:00 11.8 C 9.47 g/m*3 11.8 C 1.6 km/h
832 04-06-2014 02:10:00 11.8 C 9.47 g/m*3 11.8 C 0 km/h
833 04-06-2014 02:15:00 11.8 C 9.47 g/m*3 11.8 C 0 km/h
834 04-06-2014 02:20:00 11.7 C 9.52 g/m*3 11.7 C 0 km/h
835 04-06-2014 02:25:00 11.7 C 9.52 g/m*3 11.7 C 0 km/h
836 04-06-2014 02:30:00 11.6 C 9.46 g/m*3 11.6 C 0 km/h
837 04-06-2014 02:35:00 11.5 C 9.4 g/m*3 11.5 C 0 km/h
838 04-06-2014 02:40:00 11.4 C 9.34 g/m*3 11.4 C 0 km/h
839 04-06-2014 02:45:00 11.4 C 9.34 g/m*3 11.4 C 0 km/h
840 04-06-2014 02:50:00 11.3 C 9.38 g/m*3 11.3 C 0 km/h
841 04-06-2014 02:55:00 11.3 C 9.38 g/m*3 11.3 C 0 km/h
842 04-06-2014 03:00:00 11.3 C 9.38 g/m*3 11.3 C 0 km/h
843 04-06-2014 03:05:00 11.3 C 9.38 g/m*3 11.3 C 0 km/h
844 04-06-2014 03:10:00 11.2 C 9.33 g/m*3 11.2 C 0 km/h
845 04-06-2014 03:15:00 11.1 C 9.27 g/m*3 11.1 C 0 km/h
846 04-06-2014 03:20:00 11.1 C 9.27 g/m*3 11.1 C 0 km/h
847 04-06-2014 03:25:00 11 C 9.31 g/m*3 11 C 0 km/h
848 04-06-2014 03:30:00 10.9 C 9.25 g/m*3 10.9 C 0 km/h
849 04-06-2014 03:35:00 10.9 C 9.25 g/m*3 10.9 C 0 km/h
850 04-06-2014 03:40:00 10.8 C 9.19 g/m*3 10.8 C 0 km/h
Sensor: Nr:Datum:Temp:Abs-Feuchte:Windchill:Wind:
Aussen-T/F 851 04-06-2014 03:45:00 10.8 C 9.19 g/m*3 10.8 C 0 km/h
852 04-06-2014 03:50:00 10.8 C 9.19 g/m*3 10.8 C 0 km/h
853 04-06-2014 03:55:00 10.8 C 9.19 g/m*3 10.8 C 0 km/h
854 04-06-2014 04:00:00 10.8 C 9.19 g/m*3 10.8 C 0 km/h
855 04-06-2014 04:05:00 10.8 C 9.29 g/m*3 10.8 C 0 km/h
856 04-06-2014 04:10:00 10.8 C 9.29 g/m*3 10.8 C 1.6 km/h
857 04-06-2014 04:15:00 10.7 C 9.23 g/m*3 10.7 C 1.6 km/h
858 04-06-2014 04:20:00 10.7 C 9.23 g/m*3 10.7 C 0 km/h
859 04-06-2014 04:25:00 10.7 C 9.23 g/m*3 10.7 C 0 km/h
860 04-06-2014 04:30:00 10.6 C 9.17 g/m*3 10.6 C 0 km/h
861 04-06-2014 04:35:00 10.5 C 9.12 g/m*3 10.5 C 0 km/h
862 04-06-2014 04:40:00 10.5 C 9.12 g/m*3 10.5 C 0 km/h
863 04-06-2014 04:45:00 10.6 C 9.17 g/m*3 10.6 C 1.6 km/h
864 04-06-2014 04:50:00 10.6 C 9.17 g/m*3 10.6 C 0 km/h
865 04-06-2014 04:55:00 10.6 C 9.17 g/m*3 10.6 C 0 km/h
866 04-06-2014 05:00:00 10.7 C 9.23 g/m*3 10.7 C 0 km/h
867 04-06-2014 05:05:00 10.7 C 9.23 g/m*3 10.7 C 0 km/h
868 04-06-2014 05:10:00 10.8 C 9.39 g/m*3 10.8 C 0 km/h
869 04-06-2014 05:15:00 10.8 C 9.39 g/m*3 10.8 C 0 km/h
870 04-06-2014 05:20:00 10.9 C 9.45 g/m*3 10.9 C 0 km/h
871 04-06-2014 05:25:00 10.9 C 9.35 g/m*3 10.9 C 0 km/h
872 04-06-2014 05:30:00 10.9 C 9.35 g/m*3 10.9 C 0 km/h
873 04-06-2014 05:35:00 10.9 C 9.35 g/m*3 10.9 C 0 km/h
874 04-06-2014 05:40:00 10.9 C 9.35 g/m*3 10.9 C 0 km/h
875 04-06-2014 05:45:00 10.9 C 9.35 g/m*3 10.9 C 0 km/h
Sensor: Nr:Datum:Temp:Abs-Feuchte:Windchill:Wind:
Aussen-T/F 876 04-06-2014 05:50:00 10.9 C 9.35 g/m*3 10.9 C 0 km/h
877 04-06-2014 05:55:00 10.9 C 9.35 g/m*3 10.9 C 0 km/h
878 04-06-2014 06:00:00 10.9 C 9.35 g/m*3 10.9 C 0 km/h
879 04-06-2014 06:05:00 11.1 C 9.47 g/m*3 11.1 C 0 km/h
880 04-06-2014 06:10:00 11.2 C 9.53 g/m*3 11.2 C 1.6 km/h
881 04-06-2014 06:15:00 11.3 C 9.59 g/m*3 11.3 C 0 km/h
882 04-06-2014 06:20:00 11.4 C 9.65 g/m*3 11.4 C 1.6 km/h
883 04-06-2014 06:25:00 11.6 C 9.67 g/m*3 11.6 C 0 km/h
884 04-06-2014 06:30:00 11.7 C 9.73 g/m*3 11.7 C 0 km/h
885 04-06-2014 06:35:00 11.8 C 9.79 g/m*3 11.8 C 0 km/h
886 04-06-2014 06:40:00 11.9 C 9.74 g/m*3 11.9 C 1.6 km/h
887 04-06-2014 06:45:00 12.1 C 9.87 g/m*3 12.1 C 0 km/h
888 04-06-2014 06:50:00 12.1 C 9.76 g/m*3 12.1 C 0 km/h
889 04-06-2014 06:55:00 12.2 C 9.82 g/m*3 12.2 C 0 km/h
890 04-06-2014 07:00:00 12.3 C 9.77 g/m*3 12.3 C 0 km/h
891 04-06-2014 07:05:00 12.4 C 9.83 g/m*3 12.4 C 0 km/h
892 04-06-2014 07:10:00 12.5 C 9.89 g/m*3 12.5 C 0 km/h
893 04-06-2014 07:15:00 12.6 C 9.85 g/m*3 12.6 C 0 km/h
894 04-06-2014 07:20:00 12.7 C 9.91 g/m*3 12.7 C 0 km/h
895 04-06-2014 07:25:00 12.8 C 10.08 g/m*3 12.8 C 1.6 km/h
896 04-06-2014 07:30:00 12.9 C 10.03 g/m*3 12.9 C 0 km/h
897 04-06-2014 07:35:00 13.1 C 10.16 g/m*3 13.1 C 0 km/h
898 04-06-2014 07:40:00 13.3 C 10.17 g/m*3 13.3 C 0 km/h
899 04-06-2014 07:45:00 13.4 C 10.23 g/m*3 13.4 C 0 km/h
900 04-06-2014 07:50:00 13.6 C 10.36 g/m*3 13.6 C 0 km/h
Sensor: Nr:Datum:Temp:Abs-Feuchte:Windchill:Wind:
Aussen-T/F 901 04-06-2014 07:55:00 13.7 C 10.3 g/m*3 13.7 C 0 km/h
902 04-06-2014 08:00:00 13.8 C 10.37 g/m*3 13.8 C 0 km/h
903 04-06-2014 08:05:00 14 C 10.49 g/m*3 14 C 0 km/h
904 04-06-2014 08:10:00 14.4 C 10.75 g/m*3 14.4 C 0 km/h
905 04-06-2014 08:15:00 14.8 C 10.77 g/m*3 14.8 C 1.6 km/h
906 04-06-2014 08:20:00 15.3 C 10.97 g/m*3 15.3 C 1.6 km/h
907 04-06-2014 08:25:00 15.7 C 11.11 g/m*3 15.7 C 1.6 km/h
908 04-06-2014 08:30:00 15.9 C 11.1 g/m*3 15.9 C 1.6 km/h
909 04-06-2014 08:35:00 16.2 C 11.17 g/m*3 16.2 C 1.6 km/h
910 04-06-2014 08:40:00 16.4 C 11.17 g/m*3 16.4 C 1.6 km/h
911 04-06-2014 08:45:00 16.8 C 11.58 g/m*3 16.8 C 1.6 km/h
912 04-06-2014 08:50:00 17.1 C 11.21 g/m*3 17.1 C 6.4 km/h
913 04-06-2014 08:55:00 17.4 C 11.12 g/m*3 17.4 C 4.8 km/h
914 04-06-2014 09:00:00 17.5 C 11.18 g/m*3 17.5 C 3.2 km/h
915 04-06-2014 09:05:00 17.6 C 11.1 g/m*3 17.6 C 1.6 km/h
916 04-06-2014 09:10:00 17.7 C 10.86 g/m*3 17.7 C 9.7 km/h
917 04-06-2014 09:15:00 17.8 C 11.08 g/m*3 17.8 C 3.2 km/h
918 04-06-2014 09:20:00 17.8 C 11.08 g/m*3 17.8 C 4.8 km/h
919 04-06-2014 09:25:00 17.8 C 10.93 g/m*3 17.8 C 3.2 km/h
920 04-06-2014 09:30:00 17.9 C 11.15 g/m*3 17.9 C 8.1 km/h
921 04-06-2014 09:35:00 18.1 C 11.43 g/m*3 18.1 C 4.8 km/h
922 04-06-2014 09:40:00 18.3 C 11.26 g/m*3 18.3 C 4.8 km/h
923 04-06-2014 09:45:00 18.3 C 11.1 g/m*3 18.3 C 14.5 km/h
924 04-06-2014 09:50:00 18.3 C 11.1 g/m*3 18.3 C 12.9 km/h
925 04-06-2014 09:55:00 18.3 C 11.1 g/m*3 18.3 C 4.8 km/h
Sensor: Nr:Datum:Temp:Abs-Feuchte:Windchill:Wind:
Aussen-T/F 926 04-06-2014 11:40:00 20.4 C 12.21 g/m*3 20.4 C 6.4 km/h
927 04-06-2014 11:45:00 20.6 C 12.17 g/m*3 20.6 C 3.2 km/h
928 04-06-2014 11:50:00 20.8 C 11.77 g/m*3 20.8 C 3.2 km/h
929 04-06-2014 11:55:00 20.9 C 11.84 g/m*3 20.9 C 3.2 km/h
930 04-06-2014 12:00:00 21 C 11.54 g/m*3 21 C 8.1 km/h
931 04-06-2014 12:05:00 20.9 C 11.47 g/m*3 20.9 C 3.2 km/h
932 04-06-2014 12:10:00 20.9 C 11.84 g/m*3 20.9 C 3.2 km/h
933 04-06-2014 12:15:00 20.8 C 11.59 g/m*3 20.8 C 3.2 km/h
934 04-06-2014 12:20:00 20.6 C 12.35 g/m*3 20.6 C 1.6 km/h
935 04-06-2014 12:25:00 20.3 C 11.61 g/m*3 20.3 C 3.2 km/h
936 04-06-2014 12:30:00 20.1 C 12.34 g/m*3 20.1 C 0 km/h
937 04-06-2014 12:35:00 19.8 C 11.27 g/m*3 19.8 C 3.2 km/h
938 04-06-2014 12:40:00 19.7 C 11.04 g/m*3 19.7 C 6.4 km/h
939 04-06-2014 12:45:00 19.5 C 10.91 g/m*3 19.5 C 11.3 km/h
940 04-06-2014 12:50:00 19.3 C 10.78 g/m*3 19.3 C 9.7 km/h
941 04-06-2014 12:55:00 19.1 C 10.66 g/m*3 19.1 C 14.5 km/h
942 04-06-2014 13:00:00 18.8 C 10.79 g/m*3 18.8 C 19.3 km/h
943 04-06-2014 13:05:00 18.4 C 10.85 g/m*3 18.4 C 14.5 km/h
944 04-06-2014 13:10:00 18.2 C 11.19 g/m*3 18.2 C 11.3 km/h
945 04-06-2014 13:15:00 17.9 C 11.15 g/m*3 17.9 C 8.1 km/h
946 04-06-2014 13:20:00 17.8 C 10.93 g/m*3 17.8 C 4.8 km/h
947 04-06-2014 13:25:00 17.9 C 11.15 g/m*3 17.9 C 6.4 km/h
948 04-06-2014 13:30:00 18 C 11.21 g/m*3 18 C 9.7 km/h
949 04-06-2014 13:35:00 17.9 C 11.3 g/m*3 17.9 C 12.9 km/h
950 04-06-2014 13:40:00 17.8 C 11.23 g/m*3 17.8 C 8.1 km/h
Sensor: Nr:Datum:Temp:Abs-Feuchte:Windchill:Wind:
Aussen-T/F 951 04-06-2014 13:45:00 17.7 C 11.47 g/m*3 17.7 C 9.7 km/h
952 04-06-2014 13:50:00 17.7 C 12.07 g/m*3 17.7 C 8.1 km/h
953 04-06-2014 13:55:00 17.6 C 12 g/m*3 17.6 C 3.2 km/h
954 04-06-2014 14:00:00 17.5 C 11.63 g/m*3 17.5 C 4.8 km/h
955 04-06-2014 14:05:00 17.4 C 11.71 g/m*3 17.4 C 6.4 km/h
956 04-06-2014 14:10:00 17.3 C 11.93 g/m*3 17.3 C 6.4 km/h
957 04-06-2014 14:15:00 17.2 C 12.01 g/m*3 17.2 C 0 km/h
958 04-06-2014 14:20:00 17.1 C 11.94 g/m*3 17.1 C 0 km/h
959 04-06-2014 14:25:00 16.9 C 11.94 g/m*3 16.9 C 0 km/h
960 04-06-2014 14:30:00 16.7 C 11.94 g/m*3 16.7 C 0 km/h
961 04-06-2014 14:35:00 16.5 C 12.08 g/m*3 16.5 C 0 km/h
962 04-06-2014 14:40:00 16.4 C 12.14 g/m*3 16.4 C 0 km/h
963 04-06-2014 14:45:00 16.5 C 12.36 g/m*3 16.5 C 0 km/h
964 04-06-2014 14:50:00 16.8 C 12.87 g/m*3 16.8 C 0 km/h
965 04-06-2014 14:55:00 17.1 C 13.1 g/m*3 17.1 C 3.2 km/h
966 04-06-2014 15:00:00 17.4 C 13.19 g/m*3 17.4 C 4.8 km/h
967 04-06-2014 15:05:00 17.6 C 12.9 g/m*3 17.6 C 3.2 km/h
968 04-06-2014 15:10:00 17.8 C 12.9 g/m*3 17.8 C 4.8 km/h
969 04-06-2014 15:15:00 17.9 C 12.83 g/m*3 17.9 C 1.6 km/h
970 04-06-2014 15:20:00 17.8 C 12.9 g/m*3 17.8 C 0 km/h
971 04-06-2014 15:25:00 17.6 C 13.05 g/m*3 17.6 C 0 km/h
972 04-06-2014 15:30:00 17.2 C 12.89 g/m*3 17.2 C 0 km/h
973 04-06-2014 15:35:00 17.1 C 13.1 g/m*3 17.1 C 0 km/h
974 04-06-2014 15:40:00 17.2 C 13.33 g/m*3 17.2 C 0 km/h
975 04-06-2014 15:45:00 17.2 C 13.18 g/m*3 17.2 C 4.8 km/h
Sensor: Nr:Datum:Temp:Abs-Feuchte:Windchill:Wind:
Aussen-T/F 976 04-06-2014 15:50:00 17.2 C 13.18 g/m*3 17.2 C 3.2 km/h
977 04-06-2014 15:55:00 17.3 C 13.26 g/m*3 17.3 C 0 km/h
978 04-06-2014 16:00:00 17.4 C 13.34 g/m*3 17.4 C 0 km/h
979 04-06-2014 16:05:00 17.5 C 13.42 g/m*3 17.5 C 0 km/h
980 04-06-2014 16:10:00 17.4 C 13.34 g/m*3 17.4 C 0 km/h
981 04-06-2014 16:15:00 17.4 C 13.34 g/m*3 17.4 C 0 km/h
982 04-06-2014 16:20:00 17.4 C 13.49 g/m*3 17.4 C 0 km/h
983 04-06-2014 16:25:00 17.3 C 13.41 g/m*3 17.3 C 0 km/h
984 04-06-2014 16:30:00 17.2 C 13.33 g/m*3 17.2 C 0 km/h
985 04-06-2014 16:35:00 17.1 C 13.39 g/m*3 17.1 C 0 km/h
986 04-06-2014 16:40:00 16.7 C 13.07 g/m*3 16.7 C 0 km/h
987 04-06-2014 16:45:00 16.6 C 13.14 g/m*3 16.6 C 0 km/h
988 04-06-2014 16:50:00 16.5 C 13.06 g/m*3 16.5 C 1.6 km/h
989 04-06-2014 16:55:00 16.6 C 13.28 g/m*3 16.6 C 0 km/h
990 04-06-2014 17:00:00 16.4 C 12.98 g/m*3 16.4 C 0 km/h
991 04-06-2014 17:05:00 16.6 C 13.28 g/m*3 16.6 C 0 km/h
992 04-06-2014 17:10:00 16.6 C 13.28 g/m*3 16.6 C 0 km/h
993 04-06-2014 17:15:00 16.7 C 13.36 g/m*3 16.7 C 0 km/h
994 04-06-2014 17:20:00 16.8 C 13.58 g/m*3 16.8 C 0 km/h
995 04-06-2014 17:25:00 16.8 C 13.58 g/m*3 16.8 C 0 km/h
996 04-06-2014 17:30:00 16.8 C 13.58 g/m*3 16.8 C 0 km/h
997 04-06-2014 17:35:00 16.8 C 13.58 g/m*3 16.8 C 4.8 km/h
998 04-06-2014 17:40:00 16.8 C 13.58 g/m*3 16.8 C 0 km/h
999 04-06-2014 17:45:00 16.5 C 13.06 g/m*3 16.5 C 3.2 km/h
1000 04-06-2014 17:50:00 16.3 C 12.9 g/m*3 16.3 C 1.6 km/h
Sensor: Nr:Datum:Temp:Abs-Feuchte:Windchill:Wind:
Aussen-T/F 1001 04-06-2014 17:55:00 16.2 C 12.82 g/m*3 16.2 C 0 km/h
1002 04-06-2014 18:00:00 16.1 C 12.75 g/m*3 16.1 C 0 km/h
1003 04-06-2014 18:05:00 16.1 C 12.88 g/m*3 16.1 C 0 km/h
1004 04-06-2014 18:10:00 16.2 C 12.96 g/m*3 16.2 C 0 km/h
1005 04-06-2014 18:15:00 16.2 C 13.1 g/m*3 16.2 C 0 km/h
1006 04-06-2014 18:20:00 16.3 C 13.18 g/m*3 16.3 C 0 km/h
1007 04-06-2014 18:25:00 16.5 C 13.34 g/m*3 16.5 C 0 km/h
1008 04-06-2014 18:30:00 16.6 C 13.28 g/m*3 16.6 C 0 km/h
1009 04-06-2014 18:35:00 16.9 C 13.38 g/m*3 16.9 C 6.4 km/h
1010 04-06-2014 18:40:00 17.2 C 13.47 g/m*3 17.2 C 0 km/h
1011 04-06-2014 18:45:00 17.4 C 13.34 g/m*3 17.4 C 1.6 km/h
1012 04-06-2014 18:50:00 17.8 C 13.36 g/m*3 17.8 C 1.6 km/h
1013 04-06-2014 18:55:00 17.9 C 13.59 g/m*3 17.9 C 0 km/h
1014 04-06-2014 19:00:00 17.9 C 13.44 g/m*3 17.9 C 0 km/h
1015 04-06-2014 19:05:00 18.1 C 13.44 g/m*3 18.1 C 1.6 km/h
1016 04-06-2014 19:10:00 18.1 C 13.75 g/m*3 18.1 C 3.2 km/h
1017 04-06-2014 19:15:00 18.1 C 13.13 g/m*3 18.1 C 1.6 km/h
1018 04-06-2014 19:20:00 18 C 13.52 g/m*3 18 C 0 km/h
1019 04-06-2014 19:25:00 17.8 C 13.51 g/m*3 17.8 C 0 km/h
1020 04-06-2014 19:30:00 17.6 C 13.5 g/m*3 17.6 C 0 km/h
1021 04-06-2014 19:35:00 17.6 C 13.5 g/m*3 17.6 C 1.6 km/h
1022 04-06-2014 21:45:00 14.6 C 11.89 g/m*3 14.6 C 0 km/h
1023 04-06-2014 21:50:00 14.5 C 11.69 g/m*3 14.5 C 0 km/h
1024 04-06-2014 21:55:00 14.5 C 11.69 g/m*3 14.5 C 1.6 km/h
1025 05-06-2014 00:35:00 13.4 C 10.69 g/m*3 13.4 C 11.3 km/h
Sensor: Nr:Datum:Temp:Abs-Feuchte:Windchill:Wind:
Aussen-T/F 1026 05-06-2014 00:40:00 13.4 C 10.69 g/m*3 13.4 C 6.4 km/h
1027 05-06-2014 00:45:00 13.2 C 10.22 g/m*3 13.2 C 19.3 km/h
1028 05-06-2014 00:50:00 13.2 C 10.1 g/m*3 13.2 C 16.1 km/h
1029 05-06-2014 00:55:00 13 C 9.98 g/m*3 13 C 8.1 km/h
1030 05-06-2014 01:00:00 12.9 C 10.03 g/m*3 12.9 C 4.8 km/h
1031 05-06-2014 01:05:00 12.8 C 9.86 g/m*3 12.8 C 9.7 km/h
1032 05-06-2014 01:10:00 12.7 C 9.8 g/m*3 12.7 C 14.5 km/h
1033 05-06-2014 01:15:00 12.7 C 10.02 g/m*3 12.7 C 3.2 km/h
1034 05-06-2014 01:20:00 12.7 C 10.02 g/m*3 12.7 C 1.6 km/h
1035 05-06-2014 01:25:00 12.5 C 9.89 g/m*3 12.5 C 1.6 km/h
1036 05-06-2014 01:30:00 12.4 C 9.72 g/m*3 12.4 C 4.8 km/h
1037 05-06-2014 01:35:00 12.4 C 9.62 g/m*3 12.4 C 3.2 km/h
1038 05-06-2014 01:40:00 12.4 C 9.62 g/m*3 12.4 C 8.1 km/h
1039 05-06-2014 01:45:00 12.4 C 9.62 g/m*3 12.4 C 3.2 km/h
1040 05-06-2014 01:50:00 12.3 C 9.66 g/m*3 12.3 C 1.6 km/h
1041 05-06-2014 01:55:00 12.3 C 9.66 g/m*3 12.3 C 1.6 km/h
1042 05-06-2014 02:00:00 12.2 C 9.71 g/m*3 12.2 C 1.6 km/h
1043 05-06-2014 02:05:00 12.1 C 9.65 g/m*3 12.1 C 1.6 km/h
1044 05-06-2014 02:10:00 12.1 C 9.54 g/m*3 12.1 C 1.6 km/h
1045 05-06-2014 02:15:00 12.1 C 9.54 g/m*3 12.1 C 9.7 km/h
1046 05-06-2014 02:20:00 12.1 C 9.54 g/m*3 12.1 C 3.2 km/h
1047 05-06-2014 02:25:00 12.1 C 9.33 g/m*3 12.1 C 1.6 km/h
1048 05-06-2014 02:30:00 12.1 C 9.44 g/m*3 12.1 C 1.6 km/h
1049 05-06-2014 02:35:00 12.1 C 9.44 g/m*3 12.1 C 1.6 km/h
1050 05-06-2014 02:40:00 12 C 9.38 g/m*3 12 C 1.6 km/h
Sensor: Nr:Datum:Temp:Abs-Feuchte:Windchill:Wind:
Aussen-T/F 1051 05-06-2014 02:45:00 11.9 C 9.43 g/m*3 11.9 C 0 km/h
1052 05-06-2014 02:50:00 11.8 C 9.16 g/m*3 11.8 C 9.7 km/h
1053 05-06-2014 02:55:00 11.8 C 8.95 g/m*3 11.8 C 16.1 km/h
1054 05-06-2014 03:00:00 11.9 C 8.79 g/m*3 11.9 C 14.5 km/h
1055 05-06-2014 03:05:00 11.8 C 8.42 g/m*3 11.8 C 11.3 km/h
1056 05-06-2014 03:10:00 11.6 C 8 g/m*3 11.6 C 20.9 km/h
1057 05-06-2014 03:15:00 11.4 C 7.8 g/m*3 11.4 C 20.9 km/h
1058 05-06-2014 03:20:00 11.3 C 7.65 g/m*3 11.3 C 16.1 km/h
1059 05-06-2014 03:25:00 11.2 C 7.7 g/m*3 11.2 C 16.1 km/h
1060 05-06-2014 03:30:00 11.1 C 7.76 g/m*3 11.1 C 8.1 km/h
1061 05-06-2014 03:35:00 11.1 C 7.76 g/m*3 11.1 C 9.7 km/h
1062 05-06-2014 03:40:00 11.1 C 7.76 g/m*3 11.1 C 1.6 km/h
1063 05-06-2014 03:45:00 10 C 8.08 g/m*3 10 C 1.6 km/h
1064 05-06-2014 03:50:00 9.7 C 8.11 g/m*3 9.7 C 3.2 km/h
1065 05-06-2014 03:55:00 9.4 C 8.05 g/m*3 9.4 C 1.6 km/h
1066 05-06-2014 04:00:00 9.1 C 7.99 g/m*3 9.1 C 1.6 km/h
1067 05-06-2014 04:05:00 8.9 C 7.97 g/m*3 8.9 C 1.6 km/h
1068 05-06-2014 04:10:00 8.8 C 7.92 g/m*3 8.8 C 1.6 km/h
1069 05-06-2014 04:15:00 8.8 C 8.01 g/m*3 8.8 C 1.6 km/h
1070 05-06-2014 04:20:00 8.8 C 8.01 g/m*3 8.8 C 1.6 km/h
1071 05-06-2014 04:25:00 8.7 C 7.96 g/m*3 8.7 C 0 km/h
1072 05-06-2014 04:30:00 8.7 C 7.96 g/m*3 8.7 C 1.6 km/h
1073 05-06-2014 04:35:00 8.7 C 7.96 g/m*3 8.7 C 0 km/h
1074 05-06-2014 04:40:00 8.7 C 7.96 g/m*3 8.7 C 1.6 km/h
1075 05-06-2014 04:45:00 8.8 C 8.01 g/m*3 8.8 C 3.2 km/h
Sensor: Nr:Datum:Temp:Abs-Feuchte:Windchill:Wind:
Aussen-T/F 1076 05-06-2014 04:50:00 8.9 C 7.97 g/m*3 8.9 C 3.2 km/h
1077 05-06-2014 04:55:00 9.1 C 7.99 g/m*3 9.1 C 3.2 km/h
1078 05-06-2014 05:00:00 9.2 C 8.04 g/m*3 9.2 C 3.2 km/h
1079 05-06-2014 05:05:00 9.1 C 7.99 g/m*3 9.1 C 1.6 km/h
1080 05-06-2014 05:10:00 9 C 7.93 g/m*3 9 C 0 km/h
1081 05-06-2014 05:15:00 8.9 C 7.97 g/m*3 8.9 C 0 km/h
1082 05-06-2014 05:20:00 8.8 C 7.92 g/m*3 8.8 C 0 km/h
1083 05-06-2014 05:25:00 8.7 C 7.87 g/m*3 8.7 C 0 km/h
1084 05-06-2014 05:30:00 8.6 C 7.82 g/m*3 8.6 C 0 km/h
1085 05-06-2014 05:35:00 8.6 C 7.91 g/m*3 8.6 C 1.6 km/h
1086 05-06-2014 05:40:00 8.5 C 7.94 g/m*3 8.5 C 0 km/h
1087 05-06-2014 05:45:00 8.5 C 7.94 g/m*3 8.5 C 0 km/h
1088 05-06-2014 05:50:00 8.5 C 7.94 g/m*3 8.5 C 0 km/h
1089 05-06-2014 05:55:00 8.5 C 8.03 g/m*3 8.5 C 0 km/h
1090 05-06-2014 06:00:00 8.5 C 8.03 g/m*3 8.5 C 0 km/h
1091 05-06-2014 06:05:00 8.5 C 8.03 g/m*3 8.5 C 0 km/h
1092 05-06-2014 06:10:00 8.5 C 8.11 g/m*3 8.5 C 0 km/h
1093 05-06-2014 06:15:00 8.5 C 8.11 g/m*3 8.5 C 0 km/h
1094 05-06-2014 06:20:00 8.6 C 8.16 g/m*3 8.6 C 0 km/h
1095 05-06-2014 06:25:00 8.7 C 8.22 g/m*3 8.7 C 0 km/h
1096 05-06-2014 06:30:00 8.7 C 8.22 g/m*3 8.7 C 0 km/h
1097 05-06-2014 06:35:00 8.7 C 8.22 g/m*3 8.7 C 0 km/h
1098 05-06-2014 06:40:00 8.7 C 8.22 g/m*3 8.7 C 0 km/h
1099 05-06-2014 06:45:00 8.8 C 8.27 g/m*3 8.8 C 0 km/h
1100 05-06-2014 06:50:00 8.8 C 8.27 g/m*3 8.8 C 0 km/h
Sensor: Nr:Datum:Temp:Abs-Feuchte:Windchill:Wind:
Aussen-T/F 1101 05-06-2014 06:55:00 8.9 C 8.32 g/m*3 8.9 C 0 km/h
1102 05-06-2014 07:00:00 8.9 C 8.32 g/m*3 8.9 C 1.6 km/h
1103 05-06-2014 07:05:00 9 C 8.38 g/m*3 9 C 0 km/h
1104 05-06-2014 07:10:00 9.1 C 8.43 g/m*3 9.1 C 0 km/h
1105 05-06-2014 07:15:00 9.1 C 8.43 g/m*3 9.1 C 0 km/h
1106 05-06-2014 07:20:00 9.2 C 8.48 g/m*3 9.2 C 3.2 km/h
1107 05-06-2014 07:25:00 9.3 C 8.54 g/m*3 8.56 C 6.4 km/h
1108 05-06-2014 07:30:00 9.4 C 8.5 g/m*3 7.97 C 9.7 km/h
1109 05-06-2014 07:35:00 9.7 C 8.57 g/m*3 8.33 C 9.7 km/h
1110 05-06-2014 07:40:00 9.9 C 8.59 g/m*3 9.25 C 6.4 km/h
1111 05-06-2014 07:45:00 10.3 C 8.71 g/m*3 9.34 C 8.1 km/h
1112 05-06-2014 07:50:00 10.6 C 8.59 g/m*3 9.69 C 8.1 km/h
1113 05-06-2014 07:55:00 10.9 C 8.65 g/m*3 9.28 C 12.9 km/h
1114 05-06-2014 08:00:00 11.2 C 8.62 g/m*3 11.2 C 14.5 km/h
1115 05-06-2014 08:05:00 11.4 C 8.72 g/m*3 11.4 C 12.9 km/h
1116 05-06-2014 08:10:00 11.6 C 8.73 g/m*3 11.6 C 8.1 km/h
1117 05-06-2014 08:15:00 11.7 C 8.79 g/m*3 11.7 C 4.8 km/h
1118 05-06-2014 08:20:00 11.8 C 8.74 g/m*3 11.8 C 20.9 km/h
1119 05-06-2014 08:25:00 11.8 C 8.74 g/m*3 11.8 C 8.1 km/h
1120 05-06-2014 08:30:00 12 C 8.85 g/m*3 12 C 4.8 km/h
1121 05-06-2014 08:35:00 12.2 C 8.85 g/m*3 12.2 C 8.1 km/h
1122 05-06-2014 08:40:00 12.2 C 8.85 g/m*3 12.2 C 6.4 km/h
1123 05-06-2014 08:45:00 12.3 C 8.69 g/m*3 12.3 C 8.1 km/h
1124 05-06-2014 08:50:00 12.6 C 8.85 g/m*3 12.6 C 6.4 km/h
1125 05-06-2014 08:55:00 12.8 C 9.07 g/m*3 12.8 C 6.4 km/h
Sensor: Nr:Datum:Temp:Abs-Feuchte:Windchill:Wind:
Aussen-T/F 1126 05-06-2014 09:00:00 12.9 C 8.9 g/m*3 12.9 C 3.2 km/h
1127 05-06-2014 09:05:00 13.1 C 8.9 g/m*3 13.1 C 8.1 km/h
1128 05-06-2014 09:10:00 13.1 C 8.9 g/m*3 13.1 C 9.7 km/h
1129 05-06-2014 09:15:00 13.2 C 8.61 g/m*3 13.2 C 17.7 km/h
1130 05-06-2014 09:20:00 13.1 C 8.56 g/m*3 13.1 C 9.7 km/h
1131 05-06-2014 09:25:00 13.2 C 8.61 g/m*3 13.2 C 12.9 km/h
1132 05-06-2014 09:30:00 13.3 C 8.43 g/m*3 13.3 C 11.3 km/h
1133 05-06-2014 09:35:00 13.4 C 8.6 g/m*3 13.4 C 12.9 km/h
1134 05-06-2014 09:40:00 13.6 C 8.24 g/m*3 13.6 C 22.5 km/h
1135 05-06-2014 09:45:00 13.7 C 8.53 g/m*3 13.7 C 17.7 km/h
1136 05-06-2014 09:50:00 13.9 C 8.15 g/m*3 13.9 C 16.1 km/h
1137 05-06-2014 09:55:00 14.2 C 8.3 g/m*3 14.2 C 22.5 km/h
1138 05-06-2014 10:00:00 14.3 C 8.23 g/m*3 14.3 C 27.4 km/h
1139 05-06-2014 10:05:00 14.5 C 8.46 g/m*3 14.5 C 14.5 km/h
1140 05-06-2014 10:10:00 14.7 C 8.44 g/m*3 14.7 C 19.3 km/h
1141 05-06-2014 10:15:00 14.8 C 8.36 g/m*3 14.8 C 16.1 km/h
1142 05-06-2014 10:20:00 15 C 8.21 g/m*3 15 C 20.9 km/h
1143 05-06-2014 10:25:00 15.1 C 8.26 g/m*3 15.1 C 16.1 km/h
1144 05-06-2014 10:30:00 14.8 C 8.23 g/m*3 14.8 C 14.5 km/h
1145 05-06-2014 10:35:00 14.6 C 8.13 g/m*3 14.6 C 12.9 km/h
1146 05-06-2014 10:40:00 14.7 C 8.31 g/m*3 14.7 C 8.1 km/h
1147 05-06-2014 10:45:00 14.8 C 8.23 g/m*3 14.8 C 19.3 km/h
1148 05-06-2014 10:50:00 14.8 C 8.23 g/m*3 14.8 C 20.9 km/h
1149 05-06-2014 10:55:00 15 C 8.21 g/m*3 15 C 19.3 km/h
1150 05-06-2014 11:00:00 15.2 C 8.44 g/m*3 15.2 C 16.1 km/h
Sensor: Nr:Datum:Temp:Abs-Feuchte:Windchill:Wind:
Aussen-T/F 1151 05-06-2014 11:05:00 15.3 C 8.1 g/m*3 15.3 C 24.1 km/h
1152 05-06-2014 11:10:00 15.3 C 8.1 g/m*3 15.3 C 17.7 km/h
1153 05-06-2014 11:15:00 15.5 C 8.33 g/m*3 15.5 C 12.9 km/h
1154 05-06-2014 11:20:00 15.7 C 8.03 g/m*3 15.7 C 20.9 km/h
1155 05-06-2014 11:25:00 15.5 C 8.06 g/m*3 15.5 C 19.3 km/h
1156 05-06-2014 11:30:00 15.6 C 8.38 g/m*3 15.6 C 14.5 km/h
1157 05-06-2014 11:35:00 16.1 C 8.5 g/m*3 16.1 C 16.1 km/h
1158 05-06-2014 11:40:00 16.4 C 8.1 g/m*3 16.4 C 20.9 km/h
1159 05-06-2014 11:45:00 16.6 C 8.05 g/m*3 16.6 C 17.7 km/h
1160 05-06-2014 11:50:00 16.6 C 8.05 g/m*3 16.6 C 19.3 km/h
1161 05-06-2014 11:55:00 16.8 C 8.29 g/m*3 16.8 C 16.1 km/h
1162 05-06-2014 12:00:00 16.8 C 7.72 g/m*3 16.8 C 16.1 km/h
1163 05-06-2014 12:05:00 16.7 C 7.82 g/m*3 16.7 C 29 km/h
1164 05-06-2014 12:10:00 16.4 C 7.82 g/m*3 16.4 C 19.3 km/h
1165 05-06-2014 12:15:00 16.6 C 7.91 g/m*3 16.6 C 20.9 km/h
1166 05-06-2014 12:20:00 16.7 C 7.96 g/m*3 16.7 C 14.5 km/h
1167 05-06-2014 12:25:00 16.7 C 8.24 g/m*3 16.7 C 9.7 km/h
1168 05-06-2014 12:30:00 16.7 C 8.1 g/m*3 16.7 C 17.7 km/h
1169 05-06-2014 12:35:00 17.1 C 7.86 g/m*3 17.1 C 20.9 km/h
1170 05-06-2014 12:40:00 17.1 C 8.15 g/m*3 17.1 C 16.1 km/h
1171 05-06-2014 12:45:00 17 C 7.81 g/m*3 17 C 20.9 km/h
1172 05-06-2014 12:50:00 17.1 C 7.86 g/m*3 17.1 C 17.7 km/h
1173 05-06-2014 12:55:00 17.3 C 7.96 g/m*3 17.3 C 24.1 km/h
1174 05-06-2014 13:00:00 17.3 C 7.96 g/m*3 17.3 C 16.1 km/h
1175 05-06-2014 13:05:00 17.4 C 7.85 g/m*3 17.4 C 16.1 km/h
Sensor: Nr:Datum:Temp:Abs-Feuchte:Windchill:Wind:
Aussen-T/F 1176 05-06-2014 13:10:00 17.6 C 7.95 g/m*3 17.6 C 16.1 km/h
1177 05-06-2014 13:15:00 17.8 C 7.74 g/m*3 17.8 C 16.1 km/h
1178 05-06-2014 13:20:00 17.9 C 7.79 g/m*3 17.9 C 20.9 km/h
1179 05-06-2014 13:25:00 17.9 C 7.79 g/m*3 17.9 C 19.3 km/h
1180 05-06-2014 13:30:00 17.6 C 7.65 g/m*3 17.6 C 12.9 km/h
1181 05-06-2014 13:35:00 17.6 C 7.35 g/m*3 17.6 C 11.3 km/h
1182 05-06-2014 13:40:00 17.5 C 7.6 g/m*3 17.5 C 14.5 km/h
1183 05-06-2014 13:45:00 17.6 C 7.95 g/m*3 17.6 C 14.5 km/h
1184 05-06-2014 13:50:00 18 C 7.83 g/m*3 18 C 11.3 km/h
1185 05-06-2014 13:55:00 18.1 C 7.73 g/m*3 18.1 C 14.5 km/h
1186 05-06-2014 14:00:00 18.1 C 7.57 g/m*3 18.1 C 17.7 km/h
1187 05-06-2014 14:05:00 17.9 C 7.48 g/m*3 17.9 C 16.1 km/h
1188 05-06-2014 14:10:00 17.9 C 7.48 g/m*3 17.9 C 12.9 km/h
1189 05-06-2014 14:15:00 17.8 C 7.74 g/m*3 17.8 C 16.1 km/h
1190 05-06-2014 14:20:00 18.2 C 7.93 g/m*3 18.2 C 14.5 km/h
1191 05-06-2014 14:25:00 18.4 C 7.71 g/m*3 18.4 C 12.9 km/h
1192 05-06-2014 14:30:00 18.3 C 7.35 g/m*3 18.3 C 14.5 km/h
1193 05-06-2014 14:35:00 18.1 C 7.57 g/m*3 18.1 C 16.1 km/h
1194 05-06-2014 14:40:00 17.9 C 7.33 g/m*3 17.9 C 17.7 km/h
1195 05-06-2014 14:45:00 17.7 C 7.39 g/m*3 17.7 C 14.5 km/h
1196 05-06-2014 14:50:00 17.7 C 7.85 g/m*3 17.7 C 8.1 km/h
1197 05-06-2014 14:55:00 17.8 C 7.89 g/m*3 17.8 C 6.4 km/h
1198 05-06-2014 15:00:00 17.9 C 7.79 g/m*3 17.9 C 12.9 km/h
1199 05-06-2014 15:05:00 18.4 C 7.71 g/m*3 18.4 C 11.3 km/h
1200 05-06-2014 15:10:00 18.9 C 7.94 g/m*3 18.9 C 12.9 km/h
Sensor: Nr:Datum:Temp:Abs-Feuchte:Windchill:Wind:
Aussen-T/F 1201 05-06-2014 15:15:00 19 C 7.33 g/m*3 19 C 19.3 km/h
1202 05-06-2014 15:20:00 18.7 C 7.36 g/m*3 18.7 C 12.9 km/h
1203 05-06-2014 15:25:00 18.4 C 7.24 g/m*3 18.4 C 9.7 km/h
1204 05-06-2014 15:30:00 18.3 C 7.51 g/m*3 18.3 C 14.5 km/h
1205 05-06-2014 15:35:00 18.1 C 7.73 g/m*3 18.1 C 14.5 km/h
1206 05-06-2014 15:40:00 18.3 C 7.66 g/m*3 18.3 C 19.3 km/h
1207 05-06-2014 15:45:00 18.9 C 7.61 g/m*3 18.9 C 14.5 km/h
1208 05-06-2014 15:50:00 18.9 C 7.61 g/m*3 18.9 C 12.9 km/h
1209 05-06-2014 15:55:00 18.7 C 7.52 g/m*3 18.7 C 22.5 km/h
1210 05-06-2014 16:00:00 18.6 C 7.48 g/m*3 18.6 C 20.9 km/h
1211 05-06-2014 16:05:00 19.2 C 7.42 g/m*3 19.2 C 16.1 km/h
1212 05-06-2014 16:10:00 19.7 C 7.47 g/m*3 19.7 C 24.1 km/h
1213 05-06-2014 16:15:00 20.1 C 7.65 g/m*3 20.1 C 16.1 km/h
1214 05-06-2014 16:20:00 20.1 C 7.3 g/m*3 20.1 C 12.9 km/h
1215 05-06-2014 16:25:00 19.7 C 7.81 g/m*3 19.7 C 12.9 km/h
1216 05-06-2014 16:30:00 19.6 C 7.43 g/m*3 19.6 C 12.9 km/h
1217 05-06-2014 16:35:00 19.8 C 7.52 g/m*3 19.8 C 14.5 km/h
1218 05-06-2014 16:40:00 19.8 C 7.34 g/m*3 19.8 C 17.7 km/h
1219 05-06-2014 16:45:00 19.6 C 6.92 g/m*3 19.6 C 16.1 km/h
1220 05-06-2014 16:50:00 19.8 C 7.52 g/m*3 19.8 C 12.9 km/h
1221 05-06-2014 16:55:00 20.1 C 6.95 g/m*3 20.1 C 11.3 km/h
1222 05-06-2014 17:00:00 19.6 C 7.09 g/m*3 19.6 C 11.3 km/h
1223 05-06-2014 17:05:00 19.2 C 7.09 g/m*3 19.2 C 11.3 km/h
1224 05-06-2014 17:10:00 18.8 C 7.25 g/m*3 18.8 C 4.8 km/h
1225 05-06-2014 17:15:00 18.6 C 7.48 g/m*3 18.6 C 6.4 km/h
Sensor: Nr:Datum:Temp:Abs-Feuchte:Windchill:Wind:
Aussen-T/F 1226 05-06-2014 17:20:00 18.6 C 7.48 g/m*3 18.6 C 8.1 km/h
1227 05-06-2014 17:25:00 18.7 C 7.52 g/m*3 18.7 C 11.3 km/h
1228 05-06-2014 17:30:00 18.7 C 7.84 g/m*3 18.7 C 9.7 km/h
1229 05-06-2014 17:35:00 18.7 C 7.36 g/m*3 18.7 C 9.7 km/h
1230 05-06-2014 17:40:00 18.6 C 7.64 g/m*3 18.6 C 9.7 km/h
1231 05-06-2014 17:45:00 19.2 C 7.42 g/m*3 19.2 C 12.9 km/h
1232 05-06-2014 17:50:00 20.1 C 7.3 g/m*3 20.1 C 14.5 km/h
1233 05-06-2014 17:55:00 20.5 C 6.94 g/m*3 20.5 C 17.7 km/h
1234 05-06-2014 18:00:00 20.8 C 7.42 g/m*3 20.8 C 16.1 km/h
1235 05-06-2014 18:05:00 20.8 C 7.24 g/m*3 20.8 C 14.5 km/h
1236 05-06-2014 18:10:00 21 C 7.14 g/m*3 21 C 19.3 km/h
1237 05-06-2014 18:15:00 20.8 C 7.42 g/m*3 20.8 C 17.7 km/h
1238 05-06-2014 18:20:00 20.7 C 7.02 g/m*3 20.7 C 19.3 km/h
1239 05-06-2014 18:25:00 20.7 C 7.38 g/m*3 20.7 C 11.3 km/h
1240 05-06-2014 18:30:00 20.7 C 7.38 g/m*3 20.7 C 16.1 km/h
1241 05-06-2014 18:35:00 20.6 C 7.34 g/m*3 20.6 C 24.1 km/h
1242 05-06-2014 18:40:00 20.7 C 7.02 g/m*3 20.7 C 17.7 km/h
1243 05-06-2014 18:45:00 20.7 C 7.02 g/m*3 20.7 C 14.5 km/h
1244 05-06-2014 18:50:00 20.7 C 6.84 g/m*3 20.7 C 11.3 km/h
1245 05-06-2014 18:55:00 20.5 C 7.12 g/m*3 20.5 C 9.7 km/h
1246 05-06-2014 19:00:00 20.6 C 7.16 g/m*3 20.6 C 11.3 km/h
1247 05-06-2014 19:05:00 20.6 C 6.8 g/m*3 20.6 C 14.5 km/h
1248 05-06-2014 19:10:00 20.3 C 7.03 g/m*3 20.3 C 17.7 km/h
1249 05-06-2014 19:15:00 20.1 C 7.13 g/m*3 20.1 C 9.7 km/h
1250 05-06-2014 19:20:00 19.9 C 6.87 g/m*3 19.9 C 16.1 km/h
Sensor: Nr:Datum:Temp:Abs-Feuchte:Windchill:Wind:
Aussen-T/F 1251 05-06-2014 19:25:00 19.8 C 6.66 g/m*3 19.8 C 14.5 km/h
1252 05-06-2014 19:30:00 19.7 C 6.62 g/m*3 19.7 C 9.7 km/h
1253 05-06-2014 19:35:00 19.6 C 6.92 g/m*3 19.6 C 12.9 km/h
1254 05-06-2014 19:40:00 19.6 C 7.09 g/m*3 19.6 C 14.5 km/h
1255 05-06-2014 19:45:00 19.4 C 6.51 g/m*3 19.4 C 14.5 km/h
1256 05-06-2014 19:50:00 19.3 C 6.63 g/m*3 19.3 C 20.9 km/h
1257 05-06-2014 19:55:00 19.2 C 6.6 g/m*3 19.2 C 9.7 km/h
1258 05-06-2014 20:00:00 19.2 C 6.76 g/m*3 19.2 C 14.5 km/h
1259 05-06-2014 20:05:00 19.1 C 6.56 g/m*3 19.1 C 8.1 km/h
1260 05-06-2014 20:10:00 19 C 6.68 g/m*3 19 C 11.3 km/h
1261 05-06-2014 20:15:00 19 C 6.68 g/m*3 19 C 11.3 km/h
1262 05-06-2014 20:20:00 18.9 C 6.97 g/m*3 18.9 C 4.8 km/h
1263 05-06-2014 20:25:00 18.8 C 7.57 g/m*3 18.8 C 4.8 km/h
1264 05-06-2014 20:30:00 18.7 C 7.68 g/m*3 18.7 C 6.4 km/h
1265 05-06-2014 20:35:00 18.5 C 7.44 g/m*3 18.5 C 8.1 km/h
1266 05-06-2014 20:40:00 18.3 C 8.6 g/m*3 18.3 C 1.6 km/h
1267 05-06-2014 20:45:00 17.8 C 8.8 g/m*3 17.8 C 1.6 km/h
1268 05-06-2014 20:50:00 17.4 C 8.45 g/m*3 17.4 C 1.6 km/h
1269 05-06-2014 20:55:00 17.1 C 8.73 g/m*3 17.1 C 1.6 km/h
1270 05-06-2014 21:00:00 16.8 C 8.72 g/m*3 16.8 C 1.6 km/h
1271 05-06-2014 21:05:00 16.4 C 9.07 g/m*3 16.4 C 0 km/h
1272 05-06-2014 21:10:00 15.9 C 8.94 g/m*3 15.9 C 1.6 km/h
1273 05-06-2014 21:15:00 15.6 C 8.64 g/m*3 15.6 C 1.6 km/h
1274 05-06-2014 21:20:00 15.4 C 8.15 g/m*3 15.4 C 1.6 km/h
1275 05-06-2014 21:25:00 15.1 C 8.64 g/m*3 15.1 C 1.6 km/h
Sensor: Nr:Datum:Temp:Abs-Feuchte:Windchill:Wind:
Aussen-T/F 1276 05-06-2014 21:30:00 14.8 C 8.49 g/m*3 14.8 C 1.6 km/h
1277 05-06-2014 21:35:00 14.6 C 8.51 g/m*3 14.6 C 1.6 km/h
1278 05-06-2014 21:40:00 14.3 C 8.48 g/m*3 14.3 C 1.6 km/h
1279 05-06-2014 21:45:00 14.2 C 8.43 g/m*3 14.2 C 1.6 km/h
1280 05-06-2014 21:50:00 14.1 C 8.37 g/m*3 14.1 C 1.6 km/h
1281 05-06-2014 21:55:00 13.9 C 8.39 g/m*3 13.9 C 1.6 km/h
1282 05-06-2014 22:00:00 13.7 C 8.41 g/m*3 13.7 C 0 km/h
1283 05-06-2014 22:05:00 13.6 C 8.36 g/m*3 13.6 C 0 km/h
1284 05-06-2014 22:10:00 13.4 C 8.37 g/m*3 13.4 C 0 km/h
1285 05-06-2014 22:15:00 13.2 C 8.38 g/m*3 13.2 C 0 km/h
1286 05-06-2014 22:20:00 12.9 C 8.23 g/m*3 12.9 C 0 km/h
1287 05-06-2014 22:25:00 12.8 C 8.29 g/m*3 12.8 C 0 km/h
1288 05-06-2014 22:30:00 12.7 C 8.24 g/m*3 12.7 C 0 km/h
1289 05-06-2014 22:35:00 12.6 C 8.3 g/m*3 12.6 C 0 km/h
1290 05-06-2014 22:40:00 12.4 C 8.3 g/m*3 12.4 C 0 km/h
1291 05-06-2014 22:45:00 12.3 C 8.25 g/m*3 12.3 C 0 km/h
1292 05-06-2014 22:50:00 12.1 C 8.26 g/m*3 12.1 C 0 km/h
1293 05-06-2014 22:55:00 11.9 C 8.05 g/m*3 11.9 C 0 km/h
1294 05-06-2014 23:00:00 11.8 C 8 g/m*3 11.8 C 0 km/h
1295 05-06-2014 23:05:00 11.7 C 7.95 g/m*3 11.7 C 0 km/h
1296 05-06-2014 23:10:00 11.6 C 8 g/m*3 11.6 C 0 km/h
1297 05-06-2014 23:15:00 11.5 C 7.85 g/m*3 11.5 C 0 km/h
1298 05-06-2014 23:20:00 11.3 C 7.75 g/m*3 11.3 C 0 km/h
1299 05-06-2014 23:25:00 11.2 C 7.91 g/m*3 11.2 C 0 km/h
1300 05-06-2014 23:30:00 11.1 C 7.96 g/m*3 11.1 C 0 km/h
Sensor: Nr:Datum:Temp:Abs-Feuchte:Windchill:Wind:
Aussen-T/F 1301 05-06-2014 23:35:00 10.9 C 7.76 g/m*3 10.9 C 0 km/h
1302 05-06-2014 23:40:00 10.8 C 7.71 g/m*3 10.8 C 0 km/h
1303 05-06-2014 23:45:00 10.8 C 7.81 g/m*3 10.8 C 3.2 km/h
1304 05-06-2014 23:50:00 10.8 C 7.81 g/m*3 10.8 C 3.2 km/h
1305 05-06-2014 23:55:00 10.8 C 7.81 g/m*3 10.8 C 0 km/h
1306 06-06-2014 00:00:00 10.6 C 7.81 g/m*3 10.6 C 1.6 km/h
1307 06-06-2014 00:05:00 10.5 C 7.86 g/m*3 10.5 C 0 km/h
1308 06-06-2014 00:10:00 10.3 C 7.76 g/m*3 10.3 C 0 km/h
1309 06-06-2014 00:15:00 10.2 C 7.71 g/m*3 10.2 C 0 km/h
1310 06-06-2014 00:20:00 10.1 C 7.75 g/m*3 10.1 C 0 km/h
1311 06-06-2014 00:25:00 10 C 7.71 g/m*3 10 C 0 km/h
1312 06-06-2014 00:30:00 9.9 C 7.66 g/m*3 9.9 C 0 km/h
1313 06-06-2014 00:35:00 9.9 C 7.66 g/m*3 9.9 C 0 km/h
1314 06-06-2014 00:40:00 9.8 C 7.7 g/m*3 9.8 C 0 km/h
1315 06-06-2014 00:45:00 9.7 C 7.65 g/m*3 9.7 C 0 km/h
1316 06-06-2014 00:50:00 9.7 C 7.74 g/m*3 9.7 C 0 km/h
1317 06-06-2014 00:55:00 9.6 C 7.69 g/m*3 9.6 C 0 km/h
1318 06-06-2014 01:00:00 9.5 C 7.65 g/m*3 9.5 C 0 km/h
1319 06-06-2014 01:05:00 9.4 C 7.6 g/m*3 9.4 C 0 km/h
1320 06-06-2014 01:10:00 9.3 C 7.64 g/m*3 9.3 C 0 km/h
1321 06-06-2014 01:15:00 9.3 C 7.64 g/m*3 9.3 C 0 km/h
1322 06-06-2014 01:20:00 9.2 C 7.68 g/m*3 9.2 C 0 km/h
1323 06-06-2014 01:25:00 9.1 C 7.63 g/m*3 9.1 C 0 km/h
1324 06-06-2014 01:30:00 9.1 C 7.63 g/m*3 9.1 C 0 km/h
1325 06-06-2014 01:35:00 9.1 C 7.63 g/m*3 9.1 C 0 km/h
Sensor: Nr:Datum:Temp:Abs-Feuchte:Windchill:Wind:
Aussen-T/F 1326 06-06-2014 01:40:00 9.1 C 7.54 g/m*3 9.1 C 0 km/h
1327 06-06-2014 01:45:00 8.9 C 7.53 g/m*3 8.9 C 0 km/h
1328 06-06-2014 01:50:00 8.9 C 7.53 g/m*3 8.9 C 0 km/h
1329 06-06-2014 01:55:00 8.8 C 7.57 g/m*3 8.8 C 0 km/h
1330 06-06-2014 02:00:00 8.7 C 7.52 g/m*3 8.7 C 0 km/h
1331 06-06-2014 02:05:00 8.7 C 7.44 g/m*3 8.7 C 0 km/h
1332 06-06-2014 02:10:00 8.7 C 7.52 g/m*3 8.7 C 0 km/h
1333 06-06-2014 02:15:00 8.7 C 7.44 g/m*3 8.7 C 0 km/h
1334 06-06-2014 02:20:00 8.7 C 7.52 g/m*3 8.7 C 0 km/h
1335 06-06-2014 02:25:00 8.6 C 7.39 g/m*3 8.6 C 0 km/h
1336 06-06-2014 02:30:00 8.4 C 7.38 g/m*3 8.4 C 0 km/h
1337 06-06-2014 02:35:00 8.4 C 7.38 g/m*3 8.4 C 0 km/h
1338 06-06-2014 02:40:00 8.4 C 7.38 g/m*3 8.4 C 0 km/h
1339 06-06-2014 02:45:00 8.3 C 7.33 g/m*3 8.3 C 0 km/h
1340 06-06-2014 02:50:00 8.3 C 7.42 g/m*3 8.3 C 0 km/h
1341 06-06-2014 02:55:00 8.3 C 7.42 g/m*3 8.3 C 0 km/h
1342 06-06-2014 03:00:00 8.3 C 7.42 g/m*3 8.3 C 0 km/h
1343 06-06-2014 03:05:00 8.2 C 7.37 g/m*3 8.2 C 0 km/h
1344 06-06-2014 03:10:00 8.2 C 7.37 g/m*3 8.2 C 0 km/h
1345 06-06-2014 03:15:00 8.1 C 7.32 g/m*3 8.1 C 0 km/h
1346 06-06-2014 03:20:00 8.1 C 7.41 g/m*3 8.1 C 0 km/h
1347 06-06-2014 03:25:00 7.9 C 7.31 g/m*3 7.9 C 0 km/h
1348 06-06-2014 03:30:00 7.9 C 7.31 g/m*3 7.9 C 0 km/h
1349 06-06-2014 03:35:00 7.8 C 7.26 g/m*3 7.8 C 0 km/h
1350 06-06-2014 03:40:00 7.8 C 7.35 g/m*3 7.8 C 0 km/h
Sensor: Nr:Datum:Temp:Abs-Feuchte:Windchill:Wind:
Aussen-T/F 1351 06-06-2014 03:45:00 7.7 C 7.3 g/m*3 7.7 C 0 km/h
1352 06-06-2014 03:50:00 7.7 C 7.3 g/m*3 7.7 C 0 km/h
1353 06-06-2014 03:55:00 7.7 C 7.3 g/m*3 7.7 C 0 km/h
1354 06-06-2014 04:00:00 7.6 C 7.25 g/m*3 7.6 C 0 km/h
1355 06-06-2014 04:05:00 7.5 C 7.2 g/m*3 7.5 C 0 km/h
1356 06-06-2014 04:10:00 7.4 C 7.24 g/m*3 7.4 C 0 km/h
1357 06-06-2014 04:15:00 7.4 C 7.24 g/m*3 7.4 C 1.6 km/h
1358 06-06-2014 04:20:00 7.3 C 7.19 g/m*3 7.3 C 0 km/h
1359 06-06-2014 04:25:00 7.3 C 7.19 g/m*3 7.3 C 0 km/h
1360 06-06-2014 04:30:00 7.3 C 7.19 g/m*3 7.3 C 0 km/h
1361 06-06-2014 04:35:00 7.2 C 7.22 g/m*3 7.2 C 0 km/h
1362 06-06-2014 04:40:00 7.2 C 7.22 g/m*3 7.2 C 0 km/h
1363 06-06-2014 04:45:00 7.2 C 7.22 g/m*3 7.2 C 0 km/h
1364 06-06-2014 04:50:00 7.2 C 7.22 g/m*3 7.2 C 0 km/h
1365 06-06-2014 04:55:00 7.1 C 7.18 g/m*3 7.1 C 0 km/h
1366 06-06-2014 05:00:00 7.1 C 7.18 g/m*3 7.1 C 0 km/h
1367 06-06-2014 05:05:00 7 C 7.13 g/m*3 7 C 0 km/h
1368 06-06-2014 05:10:00 7.1 C 7.25 g/m*3 7.1 C 0 km/h
1369 06-06-2014 05:15:00 7 C 7.21 g/m*3 7 C 0 km/h
1370 06-06-2014 05:20:00 7 C 7.21 g/m*3 7 C 0 km/h
1371 06-06-2014 05:25:00 6.9 C 7.16 g/m*3 6.9 C 0 km/h
1372 06-06-2014 05:30:00 6.8 C 7.11 g/m*3 6.8 C 0 km/h
1373 06-06-2014 05:35:00 6.8 C 7.11 g/m*3 6.8 C 0 km/h
1374 06-06-2014 05:40:00 6.8 C 7.11 g/m*3 6.8 C 0 km/h
1375 06-06-2014 05:45:00 6.8 C 7.11 g/m*3 6.8 C 0 km/h
Sensor: Nr:Datum:Temp:Abs-Feuchte:Windchill:Wind:
Aussen-T/F 1376 06-06-2014 05:50:00 6.8 C 7.11 g/m*3 6.8 C 0 km/h
1377 06-06-2014 05:55:00 6.8 C 7.11 g/m*3 6.8 C 0 km/h
1378 06-06-2014 06:00:00 6.8 C 7.19 g/m*3 6.8 C 0 km/h
1379 06-06-2014 06:05:00 6.8 C 7.19 g/m*3 6.8 C 0 km/h
1380 06-06-2014 06:10:00 6.8 C 7.19 g/m*3 6.8 C 0 km/h
1381 06-06-2014 06:15:00 6.8 C 7.19 g/m*3 6.8 C 0 km/h
1382 06-06-2014 06:20:00 6.8 C 7.19 g/m*3 6.8 C 0 km/h
1383 06-06-2014 06:25:00 6.8 C 7.19 g/m*3 6.8 C 0 km/h
1384 06-06-2014 06:30:00 6.9 C 7.24 g/m*3 6.9 C 0 km/h
1385 06-06-2014 06:35:00 6.9 C 7.24 g/m*3 6.9 C 0 km/h
1386 06-06-2014 06:40:00 6.9 C 7.24 g/m*3 6.9 C 0 km/h
1387 06-06-2014 06:45:00 7 C 7.28 g/m*3 7 C 0 km/h
1388 06-06-2014 06:50:00 7.1 C 7.33 g/m*3 7.1 C 0 km/h
1389 06-06-2014 06:55:00 7.1 C 7.33 g/m*3 7.1 C 0 km/h
1390 06-06-2014 07:00:00 7.2 C 7.38 g/m*3 7.2 C 0 km/h
1391 06-06-2014 07:05:00 7.2 C 7.38 g/m*3 7.2 C 0 km/h
1392 06-06-2014 07:10:00 7.3 C 7.43 g/m*3 7.3 C 0 km/h
1393 06-06-2014 07:15:00 7.4 C 7.48 g/m*3 7.4 C 0 km/h
1394 06-06-2014 07:20:00 7.5 C 7.52 g/m*3 7.5 C 1.6 km/h
1395 06-06-2014 07:25:00 7.6 C 7.57 g/m*3 7.6 C 0 km/h
1396 06-06-2014 07:30:00 7.7 C 7.62 g/m*3 7.7 C 0 km/h
1397 06-06-2014 07:35:00 7.8 C 7.67 g/m*3 7.8 C 0 km/h
1398 06-06-2014 07:40:00 8 C 7.77 g/m*3 8 C 0 km/h
1399 06-06-2014 07:45:00 8.2 C 7.87 g/m*3 8.2 C 0 km/h
1400 06-06-2014 07:50:00 8.5 C 8.03 g/m*3 8.5 C 0 km/h
Sensor: Nr:Datum:Temp:Abs-Feuchte:Windchill:Wind:
Aussen-T/F 1401 06-06-2014 07:55:00 8.8 C 8.09 g/m*3 8.8 C 0 km/h
1402 06-06-2014 08:00:00 9.1 C 8.25 g/m*3 9.1 C 0 km/h
1403 06-06-2014 08:05:00 9.5 C 8.37 g/m*3 9.5 C 0 km/h
1404 06-06-2014 08:10:00 9.8 C 8.44 g/m*3 9.8 C 0 km/h
1405 06-06-2014 08:15:00 10.2 C 8.37 g/m*3 10.2 C 0 km/h
1406 06-06-2014 08:20:00 10.4 C 8.29 g/m*3 10.4 C 0 km/h
1407 06-06-2014 08:25:00 10.7 C 8.35 g/m*3 10.7 C 0 km/h
1408 06-06-2014 08:30:00 10.9 C 8.36 g/m*3 10.9 C 0 km/h
1409 06-06-2014 08:35:00 11.2 C 8.51 g/m*3 11.2 C 0 km/h
1410 06-06-2014 08:40:00 11.5 C 8.78 g/m*3 11.5 C 0 km/h
1411 06-06-2014 08:45:00 11.9 C 8.9 g/m*3 11.9 C 1.6 km/h
1412 06-06-2014 08:50:00 12.4 C 9.07 g/m*3 12.4 C 0 km/h
1413 06-06-2014 08:55:00 13 C 9.19 g/m*3 13 C 0 km/h
1414 06-06-2014 09:00:00 13.3 C 9.01 g/m*3 13.3 C 1.6 km/h
1415 06-06-2014 09:05:00 13.3 C 8.9 g/m*3 13.3 C 0 km/h
1416 06-06-2014 09:10:00 13.3 C 8.9 g/m*3 13.3 C 1.6 km/h
1417 06-06-2014 09:15:00 13.3 C 9.13 g/m*3 13.3 C 0 km/h
1418 06-06-2014 09:20:00 13.3 C 9.24 g/m*3 13.3 C 0 km/h
1419 06-06-2014 09:25:00 13.4 C 9.18 g/m*3 13.4 C 1.6 km/h
1420 06-06-2014 09:30:00 13.5 C 9.24 g/m*3 13.5 C 4.8 km/h
1421 06-06-2014 09:35:00 13.6 C 9.18 g/m*3 13.6 C 4.8 km/h
1422 06-06-2014 09:40:00 13.7 C 9.24 g/m*3 13.7 C 1.6 km/h
1423 06-06-2014 09:45:00 13.8 C 9.29 g/m*3 13.8 C 1.6 km/h
1424 06-06-2014 09:50:00 14.1 C 9.47 g/m*3 14.1 C 3.2 km/h
1425 06-06-2014 09:55:00 14.3 C 9.58 g/m*3 14.3 C 3.2 km/h
Sensor: Nr:Datum:Temp:Abs-Feuchte:Windchill:Wind:
Aussen-T/F 1426 06-06-2014 10:00:00 14.7 C 9.69 g/m*3 14.7 C 3.2 km/h
1427 06-06-2014 10:05:00 15.1 C 9.8 g/m*3 15.1 C 1.6 km/h
1428 06-06-2014 10:10:00 15.5 C 10.18 g/m*3 15.5 C 3.2 km/h
1429 06-06-2014 10:15:00 15.8 C 9.83 g/m*3 15.8 C 0 km/h
1430 06-06-2014 10:20:00 16.3 C 10.27 g/m*3 16.3 C 1.6 km/h
1431 06-06-2014 10:25:00 16.8 C 10.15 g/m*3 16.8 C 1.6 km/h
1432 06-06-2014 10:30:00 17.2 C 9.96 g/m*3 17.2 C 1.6 km/h
1433 06-06-2014 10:35:00 17.4 C 10.23 g/m*3 17.4 C 3.2 km/h
1434 06-06-2014 10:40:00 17.4 C 10.52 g/m*3 17.4 C 3.2 km/h
1435 06-06-2014 10:45:00 17.5 C 9.99 g/m*3 17.5 C 3.2 km/h
1436 06-06-2014 10:50:00 17.6 C 10.35 g/m*3 17.6 C 3.2 km/h
1437 06-06-2014 10:55:00 17.7 C 10.56 g/m*3 17.7 C 0 km/h
1438 06-06-2014 11:00:00 17.8 C 10.93 g/m*3 17.8 C 1.6 km/h
1439 06-06-2014 11:05:00 17.9 C 11.15 g/m*3 17.9 C 0 km/h
1440 06-06-2014 11:10:00 17.7 C 11.16 g/m*3 17.7 C 0 km/h
1441 06-06-2014 11:15:00 17.8 C 11.38 g/m*3 17.8 C 3.2 km/h
1442 06-06-2014 11:20:00 18.2 C 10.57 g/m*3 18.2 C 4.8 km/h
1443 06-06-2014 11:25:00 19.1 C 10.33 g/m*3 19.1 C 6.4 km/h
1444 06-06-2014 11:30:00 20.2 C 10.32 g/m*3 20.2 C 8.1 km/h
1445 06-06-2014 11:35:00 20.8 C 10.5 g/m*3 20.8 C 9.7 km/h
1446 06-06-2014 11:40:00 21.1 C 10.69 g/m*3 21.1 C 11.3 km/h
1447 06-06-2014 11:45:00 21.4 C 10.69 g/m*3 21.4 C 11.3 km/h
1448 06-06-2014 11:50:00 21.7 C 10.87 g/m*3 21.7 C 8.1 km/h
1449 06-06-2014 11:55:00 21.9 C 10.42 g/m*3 21.9 C 11.3 km/h
1450 06-06-2014 12:00:00 22.2 C 10.41 g/m*3 22.2 C 11.3 km/h
Sensor: Nr:Datum:Temp:Abs-Feuchte:Windchill:Wind:
Aussen-T/F 1451 06-06-2014 12:05:00 22.3 C 9.87 g/m*3 22.3 C 11.3 km/h
1452 06-06-2014 12:10:00 22.6 C 9.84 g/m*3 22.6 C 9.7 km/h
1453 06-06-2014 12:15:00 22.8 C 9.96 g/m*3 22.8 C 4.8 km/h
1454 06-06-2014 12:20:00 23.1 C 11.16 g/m*3 23.1 C 6.4 km/h
1455 06-06-2014 12:25:00 23.3 C 9.83 g/m*3 23.3 C 6.4 km/h
1456 06-06-2014 12:30:00 23.4 C 10.3 g/m*3 23.4 C 6.4 km/h
1457 06-06-2014 12:35:00 23.6 C 9.57 g/m*3 23.6 C 11.3 km/h
1458 06-06-2014 12:40:00 23.5 C 9.52 g/m*3 23.5 C 6.4 km/h
1459 06-06-2014 12:45:00 23.6 C 8.93 g/m*3 23.6 C 4.8 km/h
1460 06-06-2014 12:50:00 23.8 C 9.25 g/m*3 23.8 C 4.8 km/h
1461 06-06-2014 12:55:00 23.9 C 8.65 g/m*3 23.9 C 4.8 km/h
1462 06-06-2014 13:00:00 24.1 C 8.97 g/m*3 24.1 C 3.2 km/h
1463 06-06-2014 13:05:00 24.3 C 9.52 g/m*3 24.3 C 6.4 km/h
1464 06-06-2014 13:10:00 24.5 C 10.07 g/m*3 24.5 C 8.1 km/h
1465 06-06-2014 13:15:00 24.6 C 8.78 g/m*3 24.6 C 6.4 km/h
1466 06-06-2014 13:20:00 24.4 C 9.79 g/m*3 24.4 C 8.1 km/h
1467 06-06-2014 13:25:00 24.7 C 9.05 g/m*3 24.7 C 6.4 km/h
1468 06-06-2014 13:30:00 24.8 C 10.02 g/m*3 24.8 C 6.4 km/h
1469 06-06-2014 13:35:00 25 C 9.21 g/m*3 25 C 9.7 km/h
1470 06-06-2014 13:40:00 25 C 9.44 g/m*3 25 C 11.3 km/h
1471 06-06-2014 13:45:00 24.8 C 9.79 g/m*3 24.8 C 6.4 km/h
1472 06-06-2014 13:50:00 25 C 8.75 g/m*3 25 C 6.4 km/h
1473 06-06-2014 13:55:00 25.3 C 10.07 g/m*3 25.3 C 6.4 km/h
1474 06-06-2014 14:00:00 25.6 C 9.28 g/m*3 25.6 C 6.4 km/h
1475 06-06-2014 14:05:00 25.6 C 10 g/m*3 25.6 C 9.7 km/h
Sensor: Nr:Datum:Temp:Abs-Feuchte:Windchill:Wind:
Aussen-T/F 1476 06-06-2014 14:10:00 25.7 C 10.29 g/m*3 25.7 C 6.4 km/h
1477 06-06-2014 14:15:00 25.8 C 9.87 g/m*3 25.8 C 11.3 km/h
1478 06-06-2014 14:20:00 25.8 C 9.39 g/m*3 25.8 C 14.5 km/h
1479 06-06-2014 14:25:00 25.9 C 9.44 g/m*3 25.9 C 14.5 km/h
1480 06-06-2014 14:30:00 26 C 9.98 g/m*3 26 C 14.5 km/h
1481 06-06-2014 14:35:00 26.1 C 9.79 g/m*3 26.1 C 12.9 km/h
1482 06-06-2014 14:40:00 26.2 C 10.34 g/m*3 26.2 C 11.3 km/h
1483 06-06-2014 14:45:00 26.2 C 10.09 g/m*3 26.2 C 11.3 km/h
1484 06-06-2014 14:50:00 26.3 C 9.9 g/m*3 26.3 C 6.4 km/h
1485 06-06-2014 14:55:00 26.4 C 10.21 g/m*3 26.4 C 6.4 km/h
1486 06-06-2014 15:00:00 26.7 C 9.87 g/m*3 26.7 C 6.4 km/h
1487 06-06-2014 15:05:00 26.6 C 9.57 g/m*3 26.6 C 6.4 km/h
1488 06-06-2014 15:10:00 26.5 C 10.01 g/m*3 26.5 C 8.1 km/h
1489 06-06-2014 15:15:00 26.6 C 9.82 g/m*3 26.6 C 4.8 km/h
1490 06-06-2014 15:20:00 26.7 C 9.11 g/m*3 26.7 C 8.1 km/h
1491 06-06-2014 15:25:00 26.7 C 9.37 g/m*3 26.7 C 4.8 km/h
1492 06-06-2014 15:30:00 26.7 C 9.62 g/m*3 26.7 C 4.8 km/h
1493 06-06-2014 15:35:00 26.8 C 9.42 g/m*3 26.8 C 11.3 km/h
1494 06-06-2014 15:40:00 26.9 C 9.73 g/m*3 26.9 C 8.1 km/h
1495 06-06-2014 15:45:00 27.4 C 10.52 g/m*3 27.4 C 6.4 km/h
1496 06-06-2014 15:50:00 27.8 C 10.22 g/m*3 27.8 C 6.4 km/h
1497 06-06-2014 15:55:00 27.8 C 10.22 g/m*3 27.8 C 8.1 km/h
1498 06-06-2014 16:00:00 27.8 C 10.22 g/m*3 27.8 C 12.9 km/h
1499 06-06-2014 16:05:00 27.6 C 9.31 g/m*3 27.6 C 9.7 km/h
1500 06-06-2014 16:10:00 27.3 C 11.25 g/m*3 27.3 C 6.4 km/h
Sensor: Nr:Datum:Temp:Abs-Feuchte:Windchill:Wind:
Aussen-T/F 1501 06-06-2014 16:15:00 27.1 C 9.32 g/m*3 27.1 C 4.8 km/h
1502 06-06-2014 16:20:00 27.2 C 10.15 g/m*3 27.2 C 9.7 km/h
1503 06-06-2014 16:25:00 27.8 C 9.68 g/m*3 27.8 C 9.7 km/h
1504 06-06-2014 16:30:00 28.2 C 10.17 g/m*3 28.2 C 11.3 km/h
1505 06-06-2014 16:35:00 27.8 C 10.49 g/m*3 27.8 C 6.4 km/h
1506 06-06-2014 16:40:00 27.3 C 9.68 g/m*3 27.3 C 3.2 km/h
1507 06-06-2014 16:45:00 27.2 C 9.63 g/m*3 27.2 C 6.4 km/h
1508 06-06-2014 16:50:00 27.4 C 9.21 g/m*3 27.4 C 3.2 km/h
1509 06-06-2014 16:55:00 27.4 C 9.21 g/m*3 27.4 C 4.8 km/h
1510 06-06-2014 17:00:00 27.2 C 9.63 g/m*3 27.2 C 4.8 km/h
1511 06-06-2014 17:05:00 27.5 C 10.58 g/m*3 27.5 C 11.3 km/h
1512 06-06-2014 17:10:00 27.9 C 9.74 g/m*3 27.9 C 3.2 km/h
1513 06-06-2014 17:15:00 28.1 C 9.3 g/m*3 28.1 C 3.2 km/h
1514 06-06-2014 17:20:00 27.8 C 8.88 g/m*3 27.8 C 3.2 km/h
1515 06-06-2014 17:25:00 27.7 C 10.16 g/m*3 27.7 C 0 km/h
1516 06-06-2014 17:30:00 27.9 C 9.74 g/m*3 27.9 C 6.4 km/h
1517 06-06-2014 17:35:00 27.8 C 11.57 g/m*3 27.8 C 6.4 km/h
1518 06-06-2014 17:40:00 27 C 11.58 g/m*3 27 C 1.6 km/h
1519 06-06-2014 17:45:00 25.8 C 12.76 g/m*3 25.8 C 1.6 km/h
1520 06-06-2014 17:50:00 25.7 C 10.53 g/m*3 25.7 C 8.1 km/h
1521 06-06-2014 17:55:00 26.4 C 11.7 g/m*3 26.4 C 8.1 km/h
1522 06-06-2014 18:00:00 27.3 C 10.2 g/m*3 27.3 C 8.1 km/h
1523 06-06-2014 18:05:00 27.8 C 11.03 g/m*3 27.8 C 11.3 km/h
1524 06-06-2014 18:10:00 28.1 C 10.94 g/m*3 28.1 C 8.1 km/h
1525 06-06-2014 18:15:00 28.2 C 10.45 g/m*3 28.2 C 9.7 km/h
Sensor: Nr:Datum:Temp:Abs-Feuchte:Windchill:Wind:
Aussen-T/F 1526 06-06-2014 18:20:00 28.1 C 10.12 g/m*3 28.1 C 11.3 km/h
1527 06-06-2014 18:25:00 28.2 C 10.45 g/m*3 28.2 C 9.7 km/h
1528 06-06-2014 18:30:00 28.3 C 10.23 g/m*3 28.3 C 11.3 km/h
1529 06-06-2014 18:35:00 28.4 C 10.56 g/m*3 28.4 C 6.4 km/h
1530 06-06-2014 18:40:00 28.3 C 10.51 g/m*3 28.3 C 9.7 km/h
1531 06-06-2014 18:45:00 28 C 9.79 g/m*3 28 C 8.1 km/h
1532 06-06-2014 18:50:00 28.1 C 10.39 g/m*3 28.1 C 9.7 km/h
1533 06-06-2014 18:55:00 28.1 C 11.76 g/m*3 28.1 C 6.4 km/h
1534 06-06-2014 19:00:00 28 C 10.88 g/m*3 28 C 8.1 km/h
1535 06-06-2014 19:05:00 28.1 C 10.66 g/m*3 28.1 C 6.4 km/h
1536 06-06-2014 19:10:00 27.9 C 10.01 g/m*3 27.9 C 6.4 km/h
1537 06-06-2014 19:15:00 27.6 C 10.11 g/m*3 27.6 C 8.1 km/h
1538 06-06-2014 19:20:00 27.3 C 10.2 g/m*3 27.3 C 9.7 km/h
1539 06-06-2014 19:25:00 27.1 C 10.35 g/m*3 27.1 C 9.7 km/h
1540 06-06-2014 19:30:00 26.7 C 12.4 g/m*3 26.7 C 6.4 km/h
1541 06-06-2014 19:35:00 26 C 12.17 g/m*3 26 C 0 km/h
1542 06-06-2014 19:40:00 25.3 C 12.17 g/m*3 25.3 C 1.6 km/h
1543 06-06-2014 19:45:00 24.8 C 11.61 g/m*3 24.8 C 4.8 km/h
1544 06-06-2014 19:50:00 24.6 C 10.58 g/m*3 24.6 C 4.8 km/h
1545 06-06-2014 19:55:00 24.6 C 13.05 g/m*3 24.6 C 1.6 km/h
1546 06-06-2014 20:00:00 24.2 C 12.76 g/m*3 24.2 C 1.6 km/h
1547 06-06-2014 20:05:00 23.9 C 12.55 g/m*3 23.9 C 1.6 km/h
1548 06-06-2014 20:10:00 23.6 C 12.97 g/m*3 23.6 C 3.2 km/h
1549 06-06-2014 20:15:00 23 C 12.74 g/m*3 23 C 0 km/h
1550 06-06-2014 20:20:00 22.6 C 12.86 g/m*3 22.6 C 1.6 km/h
Sensor: Nr:Datum:Temp:Abs-Feuchte:Windchill:Wind:
Aussen-T/F 1551 06-06-2014 20:25:00 22.3 C 12.64 g/m*3 22.3 C 0 km/h
1552 06-06-2014 20:30:00 22 C 12.42 g/m*3 22 C 1.6 km/h
1553 06-06-2014 20:35:00 21.8 C 12.66 g/m*3 21.8 C 0 km/h
1554 06-06-2014 20:40:00 21.6 C 12.52 g/m*3 21.6 C 0 km/h
1555 06-06-2014 20:45:00 21.4 C 12.19 g/m*3 21.4 C 1.6 km/h
1556 06-06-2014 20:50:00 21.3 C 12.49 g/m*3 21.3 C 1.6 km/h
1557 06-06-2014 20:55:00 21.2 C 12.6 g/m*3 21.2 C 0 km/h
1558 06-06-2014 21:00:00 21 C 12.27 g/m*3 21 C 1.6 km/h
1559 06-06-2014 21:05:00 20.8 C 12.31 g/m*3 20.8 C 1.6 km/h
1560 06-06-2014 21:10:00 20.4 C 12.21 g/m*3 20.4 C 0 km/h
1561 06-06-2014 21:15:00 20.2 C 11.89 g/m*3 20.2 C 1.6 km/h
1562 06-06-2014 21:20:00 19.9 C 11.85 g/m*3 19.9 C 0 km/h
1563 06-06-2014 21:25:00 19.7 C 11.89 g/m*3 19.7 C 1.6 km/h
1564 06-06-2014 21:30:00 19.6 C 11.99 g/m*3 19.6 C 1.6 km/h
1565 06-06-2014 21:35:00 19.3 C 11.61 g/m*3 19.3 C 1.6 km/h
1566 06-06-2014 21:40:00 19.2 C 11.71 g/m*3 19.2 C 1.6 km/h
1567 06-06-2014 21:45:00 19.1 C 11.8 g/m*3 19.1 C 1.6 km/h
1568 06-06-2014 21:50:00 18.9 C 11.5 g/m*3 18.9 C 1.6 km/h
1569 06-06-2014 21:55:00 18.8 C 11.76 g/m*3 18.8 C 1.6 km/h
1570 06-06-2014 22:00:00 18.7 C 11.53 g/m*3 18.7 C 1.6 km/h
1571 06-06-2014 22:05:00 18.6 C 11.62 g/m*3 18.6 C 1.6 km/h
1572 06-06-2014 22:10:00 18.4 C 11.32 g/m*3 18.4 C 1.6 km/h
1573 06-06-2014 22:15:00 18.4 C 11.48 g/m*3 18.4 C 0 km/h
1574 06-06-2014 22:20:00 18.3 C 11.26 g/m*3 18.3 C 0 km/h
1575 06-06-2014 22:25:00 18.2 C 11.35 g/m*3 18.2 C 0 km/h
Sensor: Nr:Datum:Temp:Abs-Feuchte:Windchill:Wind:
Aussen-T/F 1576 06-06-2014 22:30:00 18.1 C 11.59 g/m*3 18.1 C 1.6 km/h
1577 06-06-2014 22:35:00 18 C 11.37 g/m*3 18 C 1.6 km/h
1578 06-06-2014 22:40:00 17.9 C 11.15 g/m*3 17.9 C 0 km/h
1579 06-06-2014 22:45:00 17.9 C 10.84 g/m*3 17.9 C 0 km/h
1580 06-06-2014 22:50:00 17.9 C 11.15 g/m*3 17.9 C 0 km/h
1581 06-06-2014 22:55:00 17.8 C 11.38 g/m*3 17.8 C 1.6 km/h
1582 06-06-2014 23:00:00 17.7 C 11.32 g/m*3 17.7 C 1.6 km/h
1583 06-06-2014 23:05:00 17.6 C 11.1 g/m*3 17.6 C 1.6 km/h
1584 06-06-2014 23:10:00 17.5 C 10.88 g/m*3 17.5 C 0 km/h
1585 06-06-2014 23:15:00 17.4 C 11.26 g/m*3 17.4 C 0 km/h
1586 06-06-2014 23:20:00 17.4 C 11.26 g/m*3 17.4 C 0 km/h
1587 06-06-2014 23:25:00 17.3 C 11.34 g/m*3 17.3 C 1.6 km/h
1588 06-06-2014 23:30:00 17.2 C 10.84 g/m*3 17.2 C 0 km/h
1589 06-06-2014 23:35:00 17.2 C 10.69 g/m*3 17.2 C 0 km/h
1590 06-06-2014 23:40:00 17.2 C 11.13 g/m*3 17.2 C 0 km/h
1591 06-06-2014 23:45:00 17.1 C 10.92 g/m*3 17.1 C 0 km/h
1592 06-06-2014 23:50:00 16.8 C 10.87 g/m*3 16.8 C 0 km/h
1593 06-06-2014 23:55:00 16.7 C 10.94 g/m*3 16.7 C 0 km/h
1594 07-06-2014 00:00:00 16.5 C 10.81 g/m*3 16.5 C 0 km/h
1595 07-06-2014 00:05:00 16.4 C 10.47 g/m*3 16.4 C 0 km/h
1596 07-06-2014 00:10:00 16.4 C 10.47 g/m*3 16.4 C 0 km/h
1597 07-06-2014 00:15:00 16.3 C 10.54 g/m*3 16.3 C 0 km/h
1598 07-06-2014 00:20:00 16.2 C 10.48 g/m*3 16.2 C 3.2 km/h
1599 07-06-2014 00:25:00 16.1 C 10.55 g/m*3 16.1 C 1.6 km/h
1600 07-06-2014 00:30:00 15.9 C 10.43 g/m*3 15.9 C 0 km/h
Sensor: Nr:Datum:Temp:Abs-Feuchte:Windchill:Wind:
Aussen-T/F 1601 07-06-2014 00:35:00 15.8 C 10.5 g/m*3 15.8 C 0 km/h
1602 07-06-2014 00:40:00 15.7 C 10.57 g/m*3 15.7 C 0 km/h
1603 07-06-2014 00:45:00 15.6 C 10.64 g/m*3 15.6 C 0 km/h
1604 07-06-2014 00:50:00 15.4 C 10.38 g/m*3 15.4 C 0 km/h
1605 07-06-2014 00:55:00 15.2 C 10.38 g/m*3 15.2 C 0 km/h
1606 07-06-2014 01:00:00 15.2 C 10.38 g/m*3 15.2 C 0 km/h
1607 07-06-2014 01:05:00 15.1 C 10.45 g/m*3 15.1 C 0 km/h
1608 07-06-2014 01:10:00 15.1 C 10.45 g/m*3 15.1 C 0 km/h
1609 07-06-2014 01:15:00 14.9 C 10.32 g/m*3 14.9 C 0 km/h
1610 07-06-2014 01:20:00 14.9 C 10.32 g/m*3 14.9 C 0 km/h
1611 07-06-2014 01:25:00 14.8 C 10.39 g/m*3 14.8 C 0 km/h
1612 07-06-2014 01:30:00 14.8 C 10.39 g/m*3 14.8 C 0 km/h
1613 07-06-2014 01:35:00 14.6 C 10.26 g/m*3 14.6 C 0 km/h
1614 07-06-2014 01:40:00 14.5 C 10.32 g/m*3 14.5 C 0 km/h
1615 07-06-2014 01:45:00 14.4 C 10.26 g/m*3 14.4 C 0 km/h
1616 07-06-2014 01:50:00 14.2 C 10.01 g/m*3 14.2 C 0 km/h
1617 07-06-2014 01:55:00 14.1 C 9.95 g/m*3 14.1 C 0 km/h
1618 07-06-2014 02:00:00 14.1 C 10.07 g/m*3 14.1 C 0 km/h
1619 07-06-2014 02:05:00 14 C 10.01 g/m*3 14 C 0 km/h
1620 07-06-2014 02:10:00 14 C 10.01 g/m*3 14 C 0 km/h
1621 07-06-2014 02:15:00 14 C 10.13 g/m*3 14 C 0 km/h
1622 07-06-2014 02:20:00 14 C 10.01 g/m*3 14 C 0 km/h
1623 07-06-2014 02:25:00 14 C 10.01 g/m*3 14 C 0 km/h
1624 07-06-2014 02:30:00 14 C 10.01 g/m*3 14 C 0 km/h
1625 07-06-2014 02:35:00 13.9 C 9.95 g/m*3 13.9 C 0 km/h
Sensor: Nr:Datum:Temp:Abs-Feuchte:Windchill:Wind:
Aussen-T/F 1626 07-06-2014 02:40:00 13.8 C 10.01 g/m*3 13.8 C 0 km/h
1627 07-06-2014 02:45:00 13.7 C 9.95 g/m*3 13.7 C 0 km/h
1628 07-06-2014 02:50:00 13.7 C 9.95 g/m*3 13.7 C 0 km/h
1629 07-06-2014 02:55:00 13.6 C 10 g/m*3 13.6 C 0 km/h
1630 07-06-2014 03:00:00 13.5 C 9.94 g/m*3 13.5 C 0 km/h
1631 07-06-2014 03:05:00 13.4 C 9.88 g/m*3 13.4 C 0 km/h
1632 07-06-2014 03:10:00 13.4 C 9.88 g/m*3 13.4 C 0 km/h
1633 07-06-2014 03:15:00 13.3 C 9.94 g/m*3 13.3 C 0 km/h
1634 07-06-2014 03:20:00 13.3 C 9.94 g/m*3 13.3 C 0 km/h
1635 07-06-2014 03:25:00 13.2 C 9.87 g/m*3 13.2 C 0 km/h
1636 07-06-2014 03:30:00 13.1 C 9.81 g/m*3 13.1 C 0 km/h
1637 07-06-2014 03:35:00 12.9 C 9.81 g/m*3 12.9 C 0 km/h
1638 07-06-2014 03:40:00 12.9 C 9.81 g/m*3 12.9 C 0 km/h
1639 07-06-2014 03:45:00 12.8 C 9.74 g/m*3 12.8 C 0 km/h
1640 07-06-2014 03:50:00 12.8 C 9.74 g/m*3 12.8 C 0 km/h
1641 07-06-2014 03:55:00 12.8 C 9.74 g/m*3 12.8 C 0 km/h
1642 07-06-2014 04:00:00 12.7 C 9.68 g/m*3 12.7 C 0 km/h
1643 07-06-2014 04:05:00 12.7 C 9.68 g/m*3 12.7 C 0 km/h
1644 07-06-2014 04:10:00 12.7 C 9.8 g/m*3 12.7 C 0 km/h
1645 07-06-2014 04:15:00 12.6 C 9.74 g/m*3 12.6 C 0 km/h
1646 07-06-2014 04:20:00 12.5 C 9.68 g/m*3 12.5 C 0 km/h
1647 07-06-2014 04:25:00 12.4 C 9.72 g/m*3 12.4 C 0 km/h
1648 07-06-2014 04:30:00 12.4 C 9.72 g/m*3 12.4 C 0 km/h
1649 07-06-2014 04:35:00 12.3 C 9.77 g/m*3 12.3 C 0 km/h
1650 07-06-2014 04:40:00 12.3 C 9.66 g/m*3 12.3 C 0 km/h
Sensor: Nr:Datum:Temp:Abs-Feuchte:Windchill:Wind:
Aussen-T/F 1651 07-06-2014 04:45:00 12.3 C 9.66 g/m*3 12.3 C 0 km/h
1652 07-06-2014 04:50:00 12.2 C 9.6 g/m*3 12.2 C 0 km/h
1653 07-06-2014 04:55:00 12.2 C 9.6 g/m*3 12.2 C 0 km/h
1654 07-06-2014 05:00:00 12.2 C 9.6 g/m*3 12.2 C 0 km/h
1655 07-06-2014 05:05:00 12.2 C 9.71 g/m*3 12.2 C 0 km/h
1656 07-06-2014 05:10:00 12.1 C 9.65 g/m*3 12.1 C 0 km/h
1657 07-06-2014 05:15:00 12.1 C 9.65 g/m*3 12.1 C 0 km/h
1658 07-06-2014 05:20:00 12.1 C 9.65 g/m*3 12.1 C 0 km/h
1659 07-06-2014 05:25:00 12.1 C 9.76 g/m*3 12.1 C 0 km/h
1660 07-06-2014 05:30:00 12.1 C 9.76 g/m*3 12.1 C 0 km/h
1661 07-06-2014 05:35:00 12.1 C 9.76 g/m*3 12.1 C 0 km/h
1662 07-06-2014 05:40:00 12 C 9.7 g/m*3 12 C 0 km/h
1663 07-06-2014 05:45:00 12 C 9.7 g/m*3 12 C 0 km/h
1664 07-06-2014 05:50:00 12 C 9.7 g/m*3 12 C 0 km/h
1665 07-06-2014 05:55:00 12.1 C 9.76 g/m*3 12.1 C 0 km/h
1666 07-06-2014 06:00:00 12.1 C 9.76 g/m*3 12.1 C 0 km/h
1667 07-06-2014 06:05:00 12.1 C 9.76 g/m*3 12.1 C 0 km/h
1668 07-06-2014 06:10:00 12.2 C 9.82 g/m*3 12.2 C 0 km/h
1669 07-06-2014 06:15:00 12.2 C 9.82 g/m*3 12.2 C 0 km/h
1670 07-06-2014 06:20:00 12.2 C 9.82 g/m*3 12.2 C 0 km/h
1671 07-06-2014 06:25:00 12.2 C 9.82 g/m*3 12.2 C 0 km/h
1672 07-06-2014 06:30:00 12.2 C 9.93 g/m*3 12.2 C 0 km/h
1673 07-06-2014 06:35:00 12.2 C 9.93 g/m*3 12.2 C 0 km/h
1674 07-06-2014 06:40:00 12.2 C 9.93 g/m*3 12.2 C 0 km/h
1675 07-06-2014 06:45:00 12.3 C 9.99 g/m*3 12.3 C 0 km/h
Sensor: Nr:Datum:Temp:Abs-Feuchte:Windchill:Wind:
Aussen-T/F 1676 07-06-2014 06:50:00 12.3 C 9.99 g/m*3 12.3 C 0 km/h
1677 07-06-2014 06:55:00 12.4 C 10.05 g/m*3 12.4 C 0 km/h
1678 07-06-2014 07:00:00 12.6 C 10.18 g/m*3 12.6 C 0 km/h
1679 07-06-2014 07:05:00 12.7 C 10.24 g/m*3 12.7 C 0 km/h
1680 07-06-2014 07:10:00 12.8 C 10.19 g/m*3 12.8 C 0 km/h
1681 07-06-2014 07:15:00 12.9 C 10.26 g/m*3 12.9 C 0 km/h
1682 07-06-2014 07:20:00 13.1 C 10.38 g/m*3 13.1 C 0 km/h
1683 07-06-2014 07:25:00 13.1 C 10.27 g/m*3 13.1 C 0 km/h
1684 07-06-2014 07:30:00 13.2 C 10.33 g/m*3 13.2 C 0 km/h
1685 07-06-2014 07:35:00 13.3 C 10.4 g/m*3 13.3 C 0 km/h
1686 07-06-2014 07:40:00 13.4 C 10.46 g/m*3 13.4 C 0 km/h
1687 07-06-2014 07:45:00 13.6 C 10.71 g/m*3 13.6 C 0 km/h
1688 07-06-2014 07:50:00 13.8 C 10.72 g/m*3 13.8 C 0 km/h
1689 07-06-2014 07:55:00 14.1 C 10.68 g/m*3 14.1 C 1.6 km/h
1690 07-06-2014 08:00:00 14.4 C 10.88 g/m*3 14.4 C 0 km/h
1691 07-06-2014 08:05:00 14.6 C 10.89 g/m*3 14.6 C 0 km/h
1692 07-06-2014 08:10:00 14.9 C 11.09 g/m*3 14.9 C 0 km/h
1693 07-06-2014 08:15:00 15.2 C 11.16 g/m*3 15.2 C 0 km/h
1694 07-06-2014 08:20:00 15.6 C 11.17 g/m*3 15.6 C 0 km/h
1695 07-06-2014 08:25:00 15.8 C 11.31 g/m*3 15.8 C 0 km/h
1696 07-06-2014 08:30:00 16.1 C 11.38 g/m*3 16.1 C 0 km/h
1697 07-06-2014 08:35:00 16.3 C 11.52 g/m*3 16.3 C 0 km/h
1698 07-06-2014 08:40:00 16.4 C 11.45 g/m*3 16.4 C 0 km/h
1699 07-06-2014 08:45:00 16.7 C 11.51 g/m*3 16.7 C 0 km/h
1700 07-06-2014 08:50:00 16.8 C 11.58 g/m*3 16.8 C 0 km/h
Sensor: Nr:Datum:Temp:Abs-Feuchte:Windchill:Wind:
Aussen-T/F 1701 07-06-2014 08:55:00 17.1 C 11.65 g/m*3 17.1 C 0 km/h
1702 07-06-2014 09:00:00 17.3 C 11.93 g/m*3 17.3 C 1.6 km/h
1703 07-06-2014 09:05:00 17.5 C 11.78 g/m*3 17.5 C 0 km/h
1704 07-06-2014 09:10:00 17.7 C 11.92 g/m*3 17.7 C 0 km/h
1705 07-06-2014 09:15:00 17.4 C 11.86 g/m*3 17.4 C 0 km/h
1706 07-06-2014 09:20:00 17.4 C 11.86 g/m*3 17.4 C 0 km/h
1707 07-06-2014 09:25:00 17.4 C 12 g/m*3 17.4 C 0 km/h
1708 07-06-2014 09:30:00 17.3 C 12.08 g/m*3 17.3 C 0 km/h
1709 07-06-2014 09:35:00 17.2 C 12.01 g/m*3 17.2 C 0 km/h
1710 07-06-2014 09:40:00 17.3 C 12.08 g/m*3 17.3 C 0 km/h
1711 07-06-2014 09:45:00 17.4 C 12.3 g/m*3 17.4 C 0 km/h
1712 07-06-2014 09:50:00 17.6 C 12.45 g/m*3 17.6 C 0 km/h
1713 07-06-2014 09:55:00 18 C 12.59 g/m*3 18 C 0 km/h
1714 07-06-2014 10:00:00 18.4 C 12.74 g/m*3 18.4 C 0 km/h
1715 07-06-2014 10:05:00 18.9 C 12.96 g/m*3 18.9 C 0 km/h
1716 07-06-2014 10:10:00 19.3 C 13.1 g/m*3 19.3 C 0 km/h
1717 07-06-2014 10:15:00 19.8 C 13.32 g/m*3 19.8 C 0 km/h
1718 07-06-2014 10:20:00 20 C 13.48 g/m*3 20 C 0 km/h
1719 07-06-2014 10:25:00 20.4 C 13.44 g/m*3 20.4 C 0 km/h
1720 07-06-2014 10:30:00 20.6 C 13.42 g/m*3 20.6 C 0 km/h
1721 07-06-2014 10:35:00 20.8 C 13.76 g/m*3 20.8 C 0 km/h
1722 07-06-2014 10:40:00 21.1 C 13.82 g/m*3 21.1 C 0 km/h
1723 07-06-2014 10:45:00 21.4 C 13.87 g/m*3 21.4 C 0 km/h
1724 07-06-2014 10:50:00 21.4 C 14.25 g/m*3 21.4 C 0 km/h
1725 07-06-2014 10:55:00 21.6 C 14.41 g/m*3 21.6 C 0 km/h
Sensor: Nr:Datum:Temp:Abs-Feuchte:Windchill:Wind:
Aussen-T/F 1726 07-06-2014 11:00:00 21.8 C 14.2 g/m*3 21.8 C 1.6 km/h
1727 07-06-2014 11:05:00 21.8 C 14.58 g/m*3 21.8 C 0 km/h
1728 07-06-2014 11:10:00 22.1 C 14.64 g/m*3 22.1 C 1.6 km/h
1729 07-06-2014 11:15:00 22.9 C 14.31 g/m*3 22.9 C 3.2 km/h
1730 07-06-2014 11:20:00 23.8 C 14.84 g/m*3 23.8 C 4.8 km/h
1731 07-06-2014 11:25:00 24.2 C 15.18 g/m*3 24.2 C 1.6 km/h
1732 07-06-2014 11:30:00 24.8 C 13.88 g/m*3 24.8 C 4.8 km/h
1733 07-06-2014 11:35:00 25.4 C 13.42 g/m*3 25.4 C 6.4 km/h
1734 07-06-2014 11:40:00 26.2 C 13.05 g/m*3 26.2 C 9.7 km/h
1735 07-06-2014 11:45:00 26.9 C 14.08 g/m*3 26.9 C 8.1 km/h
1736 07-06-2014 11:50:00 27.4 C 13.16 g/m*3 27.4 C 1.6 km/h
1737 07-06-2014 11:55:00 27.7 C 13.37 g/m*3 27.7 C 3.2 km/h
1738 07-06-2014 12:00:00 27.8 C 13.99 g/m*3 27.8 C 4.8 km/h
1739 07-06-2014 12:05:00 28.1 C 13.4 g/m*3 28.1 C 8.1 km/h
1740 07-06-2014 12:10:00 28.7 C 14.69 g/m*3 28.7 C 8.1 km/h
1741 07-06-2014 12:15:00 28.8 C 12.79 g/m*3 28.8 C 4.8 km/h
1742 07-06-2014 12:20:00 28.7 C 14.13 g/m*3 28.7 C 4.8 km/h
1743 07-06-2014 12:25:00 28.5 C 13.42 g/m*3 28.5 C 4.8 km/h
1744 07-06-2014 12:30:00 28.5 C 12.58 g/m*3 28.5 C 6.4 km/h
1745 07-06-2014 12:35:00 28.6 C 12.93 g/m*3 28.6 C 6.4 km/h
1746 07-06-2014 12:40:00 28.7 C 12.72 g/m*3 28.7 C 6.4 km/h
1747 07-06-2014 12:45:00 28.9 C 14.57 g/m*3 28.9 C 6.4 km/h
1748 07-06-2014 12:50:00 29.1 C 12.71 g/m*3 29.1 C 4.8 km/h
1749 07-06-2014 12:55:00 29.2 C 13.94 g/m*3 29.2 C 6.4 km/h
1750 07-06-2014 13:00:00 29.2 C 12.2 g/m*3 29.2 C 6.4 km/h
Sensor: Nr:Datum:Temp:Abs-Feuchte:Windchill:Wind:
Aussen-T/F 1751 07-06-2014 13:05:00 29.2 C 13.36 g/m*3 29.2 C 4.8 km/h
1752 07-06-2014 13:10:00 29.3 C 14.31 g/m*3 29.3 C 3.2 km/h
1753 07-06-2014 13:15:00 29.4 C 13.8 g/m*3 29.4 C 8.1 km/h
1754 07-06-2014 13:20:00 29.6 C 12.46 g/m*3 29.6 C 8.1 km/h
1755 07-06-2014 13:25:00 29.8 C 13.2 g/m*3 29.8 C 4.8 km/h
1756 07-06-2014 13:30:00 30.1 C 12.5 g/m*3 30.1 C 4.8 km/h
1757 07-06-2014 13:35:00 30.3 C 12.94 g/m*3 30.3 C 3.2 km/h
1758 07-06-2014 13:40:00 30.2 C 15.02 g/m*3 30.2 C 8.1 km/h
1759 07-06-2014 13:45:00 30.4 C 13.94 g/m*3 30.4 C 8.1 km/h
1760 07-06-2014 13:50:00 30.3 C 12.33 g/m*3 30.3 C 8.1 km/h
1761 07-06-2014 13:55:00 30.1 C 12.81 g/m*3 30.1 C 8.1 km/h
1762 07-06-2014 14:00:00 30.2 C 12.57 g/m*3 30.2 C 6.4 km/h
1763 07-06-2014 14:05:00 30.3 C 13.25 g/m*3 30.3 C 3.2 km/h
1764 07-06-2014 14:10:00 30.4 C 12.7 g/m*3 30.4 C 9.7 km/h
1765 07-06-2014 14:15:00 30.6 C 12.53 g/m*3 30.6 C 3.2 km/h
1766 07-06-2014 14:20:00 30.6 C 13.47 g/m*3 30.6 C 11.3 km/h
1767 07-06-2014 14:25:00 30.7 C 12.91 g/m*3 30.7 C 9.7 km/h
1768 07-06-2014 14:30:00 30.7 C 11.34 g/m*3 30.7 C 6.4 km/h
1769 07-06-2014 14:35:00 30.7 C 11.34 g/m*3 30.7 C 8.1 km/h
1770 07-06-2014 14:40:00 30.9 C 11.78 g/m*3 30.9 C 9.7 km/h
1771 07-06-2014 14:45:00 30.9 C 13.37 g/m*3 30.9 C 6.4 km/h
1772 07-06-2014 14:50:00 30.7 C 15.12 g/m*3 30.7 C 4.8 km/h
1773 07-06-2014 14:55:00 30.6 C 12.53 g/m*3 30.6 C 4.8 km/h
1774 07-06-2014 15:00:00 30.8 C 13.3 g/m*3 30.8 C 8.1 km/h
1775 07-06-2014 15:05:00 31.1 C 12.87 g/m*3 31.1 C 6.4 km/h
Sensor: Nr:Datum:Temp:Abs-Feuchte:Windchill:Wind:
Aussen-T/F 1776 07-06-2014 15:10:00 31.1 C 11.26 g/m*3 31.1 C 11.3 km/h
1777 07-06-2014 15:15:00 31.1 C 12.23 g/m*3 31.1 C 4.8 km/h
1778 07-06-2014 15:20:00 31.2 C 11.97 g/m*3 31.2 C 1.6 km/h
1779 07-06-2014 15:25:00 31.3 C 12.03 g/m*3 31.3 C 4.8 km/h
1780 07-06-2014 15:30:00 31.3 C 12.68 g/m*3 31.3 C 1.6 km/h
1781 07-06-2014 15:35:00 31.1 C 14.48 g/m*3 31.1 C 1.6 km/h
1782 07-06-2014 15:40:00 30.6 C 13.78 g/m*3 30.6 C 3.2 km/h
1783 07-06-2014 15:45:00 30.5 C 12.46 g/m*3 30.5 C 3.2 km/h
1784 07-06-2014 15:50:00 30.5 C 13.4 g/m*3 30.5 C 4.8 km/h
1785 07-06-2014 15:55:00 30.1 C 15.24 g/m*3 30.1 C 4.8 km/h
1786 07-06-2014 16:00:00 29.3 C 14.6 g/m*3 29.3 C 4.8 km/h
1787 07-06-2014 16:05:00 28.8 C 15.63 g/m*3 28.8 C 3.2 km/h
1788 07-06-2014 16:10:00 28.6 C 15.46 g/m*3 28.6 C 1.6 km/h
1789 07-06-2014 16:15:00 28.2 C 15.95 g/m*3 28.2 C 0 km/h
1790 07-06-2014 16:20:00 27.8 C 16.14 g/m*3 27.8 C 1.6 km/h
1791 07-06-2014 16:25:00 27.8 C 16.41 g/m*3 27.8 C 1.6 km/h
1792 07-06-2014 16:30:00 27.8 C 16.41 g/m*3 27.8 C 1.6 km/h
1793 07-06-2014 16:35:00 27.7 C 16.58 g/m*3 27.7 C 0 km/h
1794 07-06-2014 16:40:00 27.4 C 16.31 g/m*3 27.4 C 1.6 km/h
1795 07-06-2014 16:45:00 27.2 C 16.39 g/m*3 27.2 C 1.6 km/h
1796 07-06-2014 16:50:00 26.9 C 16.64 g/m*3 26.9 C 1.6 km/h
1797 07-06-2014 16:55:00 26.7 C 16.45 g/m*3 26.7 C 0 km/h
1798 07-06-2014 17:00:00 26.4 C 16.18 g/m*3 26.4 C 0 km/h
1799 07-06-2014 17:05:00 26.3 C 16.59 g/m*3 26.3 C 0 km/h
1800 07-06-2014 17:10:00 26.1 C 16.65 g/m*3 26.1 C 0 km/h
Sensor: Nr:Datum:Temp:Abs-Feuchte:Windchill:Wind:
Aussen-T/F 1801 07-06-2014 17:15:00 25.8 C 16.37 g/m*3 25.8 C 0 km/h
1802 07-06-2014 17:20:00 25.6 C 16.43 g/m*3 25.6 C 1.6 km/h
1803 07-06-2014 17:25:00 25.4 C 16.48 g/m*3 25.4 C 1.6 km/h
1804 07-06-2014 17:30:00 25.2 C 16.3 g/m*3 25.2 C 1.6 km/h
1805 07-06-2014 17:35:00 25.1 C 15.97 g/m*3 25.1 C 0 km/h
1806 07-06-2014 17:40:00 25 C 16.34 g/m*3 25 C 0 km/h
1807 07-06-2014 17:45:00 24.9 C 16.02 g/m*3 24.9 C 0 km/h
1808 07-06-2014 17:50:00 24.9 C 16.25 g/m*3 24.9 C 0 km/h
1809 07-06-2014 17:55:00 25.1 C 16.67 g/m*3 25.1 C 0 km/h
1810 07-06-2014 18:00:00 25.5 C 17.05 g/m*3 25.5 C 0 km/h
1811 07-06-2014 18:05:00 25.9 C 17.43 g/m*3 25.9 C 1.6 km/h
1812 07-06-2014 18:10:00 26.5 C 17.52 g/m*3 26.5 C 0 km/h
1813 07-06-2014 18:15:00 26.6 C 17.12 g/m*3 26.6 C 1.6 km/h
1814 07-06-2014 18:20:00 26.4 C 17.43 g/m*3 26.4 C 3.2 km/h
1815 07-06-2014 18:25:00 26.5 C 17.52 g/m*3 26.5 C 0 km/h
1816 07-06-2014 18:30:00 26.8 C 17.82 g/m*3 26.8 C 0 km/h
1817 07-06-2014 18:35:00 27.1 C 17.6 g/m*3 27.1 C 0 km/h
1818 07-06-2014 18:40:00 26.9 C 17.4 g/m*3 26.9 C 0 km/h
1819 07-06-2014 18:45:00 26.7 C 17.21 g/m*3 26.7 C 0 km/h
1820 07-06-2014 18:50:00 26.3 C 17.08 g/m*3 26.3 C 1.6 km/h
1821 07-06-2014 18:55:00 25.8 C 16.85 g/m*3 25.8 C 1.6 km/h
1822 07-06-2014 19:00:00 25.7 C 17 g/m*3 25.7 C 0 km/h
1823 07-06-2014 19:05:00 25.6 C 16.67 g/m*3 25.6 C 0 km/h
1824 07-06-2014 19:10:00 25.2 C 16.53 g/m*3 25.2 C 1.6 km/h
1825 07-06-2014 19:15:00 24.9 C 16.48 g/m*3 24.9 C 0 km/h
Sensor: Nr:Datum:Temp:Abs-Feuchte:Windchill:Wind:
Aussen-T/F 1826 07-06-2014 19:20:00 24.6 C 16.21 g/m*3 24.6 C 0 km/h
1827 07-06-2014 19:25:00 24.4 C 16.02 g/m*3 24.4 C 0 km/h
1828 07-06-2014 19:30:00 24.4 C 16.25 g/m*3 24.4 C 1.6 km/h
1829 07-06-2014 19:35:00 24.4 C 16.25 g/m*3 24.4 C 0 km/h
1830 07-06-2014 19:40:00 24.7 C 16.3 g/m*3 24.7 C 0 km/h
1831 07-06-2014 19:45:00 24.9 C 16.25 g/m*3 24.9 C 0 km/h
1832 07-06-2014 19:50:00 25 C 16.34 g/m*3 25 C 1.6 km/h
1833 07-06-2014 19:55:00 25 C 16.57 g/m*3 25 C 1.6 km/h
1834 07-06-2014 20:00:00 24.9 C 16.02 g/m*3 24.9 C 0 km/h
1835 07-06-2014 20:05:00 24.9 C 16.02 g/m*3 24.9 C 0 km/h
1836 07-06-2014 20:10:00 24.8 C 15.93 g/m*3 24.8 C 1.6 km/h
1837 07-06-2014 20:15:00 24.7 C 15.62 g/m*3 24.7 C 0 km/h
1838 07-06-2014 20:20:00 24.6 C 15.75 g/m*3 24.6 C 1.6 km/h
1839 07-06-2014 20:25:00 24.4 C 15.58 g/m*3 24.4 C 0 km/h
1840 07-06-2014 20:30:00 24.3 C 15.49 g/m*3 24.3 C 0 km/h
1841 07-06-2014 20:35:00 24.1 C 15.32 g/m*3 24.1 C 1.6 km/h
1842 07-06-2014 20:40:00 23.9 C 15.36 g/m*3 23.9 C 1.6 km/h
1843 07-06-2014 20:45:00 23.8 C 15.27 g/m*3 23.8 C 0 km/h
1844 07-06-2014 20:50:00 23.6 C 15.1 g/m*3 23.6 C 0 km/h
1845 07-06-2014 20:55:00 23.4 C 15.14 g/m*3 23.4 C 0 km/h
1846 07-06-2014 21:00:00 23.2 C 14.97 g/m*3 23.2 C 0 km/h
1847 07-06-2014 21:05:00 23.1 C 14.88 g/m*3 23.1 C 0 km/h
1848 07-06-2014 21:10:00 23 C 14.8 g/m*3 23 C 1.6 km/h
1849 07-06-2014 21:15:00 22.8 C 14.63 g/m*3 22.8 C 1.6 km/h
1850 07-06-2014 21:20:00 22.7 C 14.75 g/m*3 22.7 C 1.6 km/h
Sensor: Nr:Datum:Temp:Abs-Feuchte:Windchill:Wind:
Aussen-T/F 1851 07-06-2014 21:25:00 22.5 C 14.58 g/m*3 22.5 C 1.6 km/h
1852 07-06-2014 21:30:00 22.3 C 14.61 g/m*3 22.3 C 1.6 km/h
1853 07-06-2014 21:35:00 22.2 C 14.53 g/m*3 22.2 C 1.6 km/h
1854 07-06-2014 21:40:00 22 C 14.56 g/m*3 22 C 1.6 km/h
1855 07-06-2014 21:45:00 21.9 C 14.47 g/m*3 21.9 C 1.6 km/h
1856 07-06-2014 21:50:00 21.8 C 14.39 g/m*3 21.8 C 1.6 km/h
1857 07-06-2014 21:55:00 21.8 C 14.39 g/m*3 21.8 C 1.6 km/h
1858 07-06-2014 22:00:00 21.7 C 14.31 g/m*3 21.7 C 1.6 km/h
1859 07-06-2014 22:05:00 21.6 C 14.22 g/m*3 21.6 C 1.6 km/h
1860 07-06-2014 22:10:00 21.6 C 14.22 g/m*3 21.6 C 0 km/h
1861 07-06-2014 22:15:00 21.4 C 14.25 g/m*3 21.4 C 0 km/h
1862 07-06-2014 22:20:00 21.2 C 14.08 g/m*3 21.2 C 0 km/h
1863 07-06-2014 22:25:00 21.1 C 14.19 g/m*3 21.1 C 1.6 km/h
1864 07-06-2014 22:30:00 21 C 13.92 g/m*3 21 C 0 km/h
1865 07-06-2014 22:35:00 20.9 C 14.02 g/m*3 20.9 C 1.6 km/h
1866 07-06-2014 22:40:00 20.9 C 13.84 g/m*3 20.9 C 1.6 km/h
1867 07-06-2014 22:45:00 20.9 C 14.02 g/m*3 20.9 C 0 km/h
1868 07-06-2014 22:50:00 20.8 C 13.94 g/m*3 20.8 C 1.6 km/h
1869 07-06-2014 22:55:00 20.8 C 13.76 g/m*3 20.8 C 1.6 km/h
1870 07-06-2014 23:00:00 20.8 C 13.94 g/m*3 20.8 C 1.6 km/h
1871 07-06-2014 23:05:00 20.7 C 13.86 g/m*3 20.7 C 0 km/h
1872 07-06-2014 23:10:00 20.7 C 13.86 g/m*3 20.7 C 1.6 km/h
1873 07-06-2014 23:15:00 20.6 C 13.78 g/m*3 20.6 C 0 km/h
1874 07-06-2014 23:20:00 20.4 C 13.62 g/m*3 20.4 C 0 km/h
1875 07-06-2014 23:25:00 20.3 C 13.72 g/m*3 20.3 C 0 km/h
Sensor: Nr:Datum:Temp:Abs-Feuchte:Windchill:Wind:
Aussen-T/F 1876 07-06-2014 23:30:00 20.1 C 13.73 g/m*3 20.1 C 0 km/h
1877 07-06-2014 23:35:00 20 C 13.65 g/m*3 20 C 1.6 km/h
1878 07-06-2014 23:40:00 19.9 C 13.74 g/m*3 19.9 C 0 km/h
1879 07-06-2014 23:45:00 19.8 C 13.66 g/m*3 19.8 C 0 km/h
1880 07-06-2014 23:50:00 19.7 C 13.58 g/m*3 19.7 C 0 km/h
1881 07-06-2014 23:55:00 19.6 C 13.51 g/m*3 19.6 C 0 km/h

Legende:
   Min
   Max


Maximal/Minimal-Werte vom 01.06.2014 - 07.06.2014

Sensor Min Max Avg
Temp
(Aussen-T/F)
6.8 °C
06-06-2014  05:30:00
31.3 °C
07-06-2014  15:25:00
16.46 °C
Abs-Feuchte
(Aussen-T/F)
6.51 g/m*3
05-06-2014  19:45:00
17.82 g/m*3
07-06-2014  18:30:00
9.85 g/m*3
Windchill
(Aussen-T/F)
6.8 C
06-06-2014  05:30:00
31.3 C
07-06-2014  15:25:00
16.44 C

Die Daten stammen von einer Davis Vantage Pro 2 Wetter-Station und werden unter Linux mit der Software wview2wettercgi und aufbereitet. Alle Angaben erfolgen ohne Gewähr für ihre Vollständigkeit oder Richtigkeit.
Kontakt: Rainer Krienke krienke@uni-koblenz.de . Meine Webseiten an der Uni Koblenz oder privat.
Version: $Revision: 0.78 $